<?xml version='1.0' encoding='UTF-8'?><gpx version="1.1" creator="JPX - https://github.com/jenetics/jpx" xmlns="http://www.topografix.com/GPX/1/1"><trk><trkseg><trkpt lat="48.78040899" lon="9.16208918"><ele>278.0</ele><time>2026-04-27T15:10:01.289Z</time></trkpt><trkpt lat="48.78046313" lon="9.16203436"><ele>278.0</ele><time>2026-04-27T15:10:04.03Z</time></trkpt><trkpt lat="48.78051835" lon="9.16197429"><ele>278.0</ele><time>2026-04-27T15:10:06.034Z</time></trkpt><trkpt lat="48.78064349" lon="9.16186519"><ele>278.0</ele><time>2026-04-27T15:10:09.025Z</time></trkpt><trkpt lat="48.78071591" lon="9.16180536"><ele>278.0</ele><time>2026-04-27T15:10:11.102Z</time></trkpt><trkpt lat="48.78080234" lon="9.16169915"><ele>278.0</ele><time>2026-04-27T15:10:13.031Z</time></trkpt><trkpt lat="48.78088181" lon="9.16161676"><ele>278.0</ele><time>2026-04-27T15:10:15.024Z</time></trkpt><trkpt lat="48.78094536" lon="9.16146737"><ele>278.0</ele><time>2026-04-27T15:10:17.03Z</time></trkpt><trkpt lat="48.78100631" lon="9.16141246"><ele>278.0</ele><time>2026-04-27T15:10:18.03Z</time></trkpt><trkpt lat="48.78108049" lon="9.16139133"><ele>278.0</ele><time>2026-04-27T15:10:19.035Z</time></trkpt><trkpt lat="48.78116625" lon="9.16129743"><ele>278.6</ele><time>2026-04-27T15:10:21.033Z</time></trkpt><trkpt lat="48.7812488" lon="9.16124848"><ele>279.20000000000005</ele><time>2026-04-27T15:10:23.033Z</time></trkpt><trkpt lat="48.78131265" lon="9.16120147"><ele>279.8</ele><time>2026-04-27T15:10:25.035Z</time></trkpt><trkpt lat="48.78126959" lon="9.16109152"><ele>280.40000000000003</ele><time>2026-04-27T15:10:28.036Z</time></trkpt><trkpt lat="48.78120948" lon="9.16088044"><ele>281.0</ele><time>2026-04-27T15:10:31.035Z</time></trkpt><trkpt lat="48.78118038" lon="9.16073858"><ele>282.0</ele><time>2026-04-27T15:10:33.031Z</time></trkpt><trkpt lat="48.78113512" lon="9.16065298"><ele>283.0</ele><time>2026-04-27T15:10:36.031Z</time></trkpt><trkpt lat="48.78111102" lon="9.16051929"><ele>284.0</ele><time>2026-04-27T15:10:38.03Z</time></trkpt><trkpt lat="48.78108474" lon="9.16042405"><ele>285.0</ele><time>2026-04-27T15:10:41.034Z</time></trkpt><trkpt lat="48.78106182" lon="9.16032869"><ele>286.0</ele><time>2026-04-27T15:10:44.035Z</time></trkpt><trkpt lat="48.78106936" lon="9.16019506"><ele>287.0</ele><time>2026-04-27T15:10:47.169Z</time></trkpt><trkpt lat="48.7811463" lon="9.15994795"><ele>287.6666666666667</ele><time>2026-04-27T15:10:50.032Z</time></trkpt><trkpt lat="48.78145487" lon="9.15971501"><ele>288.3333333333333</ele><time>2026-04-27T15:11:04.034Z</time></trkpt><trkpt lat="48.78150446" lon="9.15961585"><ele>289.0</ele><time>2026-04-27T15:11:58.044Z</time></trkpt><trkpt lat="48.78162693" lon="9.15947406"><ele>289.0</ele><time>2026-04-27T15:12:04.028Z</time></trkpt><trkpt lat="48.7817148" lon="9.15943765"><ele>289.0</ele><time>2026-04-27T15:12:06.045Z</time></trkpt><trkpt lat="48.78181472" lon="9.15936828"><ele>289.0</ele><time>2026-04-27T15:12:08.035Z</time></trkpt><trkpt lat="48.78193222" lon="9.15936771"><ele>289.0</ele><time>2026-04-27T15:12:09.034Z</time></trkpt><trkpt lat="48.78202233" lon="9.1593081"><ele>289.0</ele><time>2026-04-27T15:12:11.032Z</time></trkpt><trkpt lat="48.78206035" lon="9.15919949"><ele>289.4</ele><time>2026-04-27T15:12:13.032Z</time></trkpt><trkpt lat="48.78212484" lon="9.15909895"><ele>289.79999999999995</ele><time>2026-04-27T15:12:15.097Z</time></trkpt><trkpt lat="48.78219253" lon="9.15902819"><ele>290.20000000000005</ele><time>2026-04-27T15:12:17.032Z</time></trkpt><trkpt lat="48.78226413" lon="9.15894924"><ele>290.6</ele><time>2026-04-27T15:12:19.033Z</time></trkpt><trkpt lat="48.78237089" lon="9.15879517"><ele>291.0</ele><time>2026-04-27T15:12:23.03Z</time></trkpt><trkpt lat="48.78242048" lon="9.15872305"><ele>291.0</ele><time>2026-04-27T15:12:25.031Z</time></trkpt><trkpt lat="48.78237353" lon="9.15861987"><ele>291.0</ele><time>2026-04-27T15:12:29.034Z</time></trkpt><trkpt lat="48.78233083" lon="9.15854143"><ele>291.0</ele><time>2026-04-27T15:12:31.039Z</time></trkpt><trkpt lat="48.78230608" lon="9.158449"><ele>291.0</ele><time>2026-04-27T15:12:33.033Z</time></trkpt><trkpt lat="48.78227404" lon="9.15835812"><ele>291.0</ele><time>2026-04-27T15:12:36.04Z</time></trkpt><trkpt lat="48.78224431" lon="9.15824681"><ele>291.0</ele><time>2026-04-27T15:12:39.032Z</time></trkpt><trkpt lat="48.78226402" lon="9.15813157"><ele>291.0</ele><time>2026-04-27T15:12:42.037Z</time></trkpt><trkpt lat="48.7822968" lon="9.1579159"><ele>291.6</ele><time>2026-04-27T15:12:49.039Z</time></trkpt><trkpt lat="48.78238784" lon="9.15790988"><ele>292.20000000000005</ele><time>2026-04-27T15:12:54.046Z</time></trkpt><trkpt lat="48.78246039" lon="9.15792841"><ele>292.79999999999995</ele><time>2026-04-27T15:12:58.033Z</time></trkpt><trkpt lat="48.78254805" lon="9.15796226"><ele>293.4</ele><time>2026-04-27T15:13:25.036Z</time></trkpt><trkpt lat="48.78269491" lon="9.15806993"><ele>294.0</ele><time>2026-04-27T15:13:31.04Z</time></trkpt><trkpt lat="48.78273159" lon="9.15818129"><ele>294.0</ele><time>2026-04-27T15:13:34.046Z</time></trkpt><trkpt lat="48.78274334" lon="9.1578724"><ele>294.0</ele><time>2026-04-27T15:13:38.032Z</time></trkpt><trkpt lat="48.78274472" lon="9.15774905"><ele>294.0</ele><time>2026-04-27T15:13:42.037Z</time></trkpt><trkpt lat="48.78270155" lon="9.15765488"><ele>294.0</ele><time>2026-04-27T15:13:45.042Z</time></trkpt><trkpt lat="48.7826714" lon="9.15752859"><ele>294.0</ele><time>2026-04-27T15:13:48.045Z</time></trkpt><trkpt lat="48.78267832" lon="9.15726767"><ele>295.4</ele><time>2026-04-27T15:13:52.038Z</time></trkpt><trkpt lat="48.78268164" lon="9.15712516"><ele>296.79999999999995</ele><time>2026-04-27T15:13:54.034Z</time></trkpt><trkpt lat="48.78266701" lon="9.15697464"><ele>298.20000000000005</ele><time>2026-04-27T15:13:56.034Z</time></trkpt><trkpt lat="48.78264429" lon="9.15681316"><ele>299.6</ele><time>2026-04-27T15:13:58.031Z</time></trkpt><trkpt lat="48.78262244" lon="9.15666475"><ele>301.0</ele><time>2026-04-27T15:14:00.035Z</time></trkpt><trkpt lat="48.78249582" lon="9.15639139"><ele>301.8</ele><time>2026-04-27T15:14:01.038Z</time></trkpt><trkpt lat="48.78249065" lon="9.15624574"><ele>302.6</ele><time>2026-04-27T15:14:04.042Z</time></trkpt><trkpt lat="48.78249115" lon="9.15614545"><ele>303.4</ele><time>2026-04-27T15:14:06.046Z</time></trkpt><trkpt lat="48.78251985" lon="9.15601131"><ele>304.2</ele><time>2026-04-27T15:14:09.032Z</time></trkpt><trkpt lat="48.78258005" lon="9.15578438"><ele>305.0</ele><time>2026-04-27T15:14:14.04Z</time></trkpt><trkpt lat="48.7826004" lon="9.15565019"><ele>305.5</ele><time>2026-04-27T15:14:17.045Z</time></trkpt><trkpt lat="48.78261486" lon="9.15555651"><ele>306.0</ele><time>2026-04-27T15:14:19.049Z</time></trkpt><trkpt lat="48.78263761" lon="9.15545974"><ele>306.5</ele><time>2026-04-27T15:14:21.054Z</time></trkpt><trkpt lat="48.78266256" lon="9.15532612"><ele>307.0</ele><time>2026-04-27T15:14:24.035Z</time></trkpt><trkpt lat="48.78268006" lon="9.1551952"><ele>307.5</ele><time>2026-04-27T15:14:27.034Z</time></trkpt><trkpt lat="48.78268466" lon="9.15509702"><ele>308.0</ele><time>2026-04-27T15:14:29.034Z</time></trkpt><trkpt lat="48.78268107" lon="9.15497773"><ele>308.6666666666667</ele><time>2026-04-27T15:14:32.04Z</time></trkpt><trkpt lat="48.7826448" lon="9.15478879"><ele>309.33333333333337</ele><time>2026-04-27T15:14:36.038Z</time></trkpt><trkpt lat="48.78262778" lon="9.15469353"><ele>310.0</ele><time>2026-04-27T15:14:38.034Z</time></trkpt><trkpt lat="48.78260602" lon="9.15460336"><ele>310.6666666666667</ele><time>2026-04-27T15:14:40.037Z</time></trkpt><trkpt lat="48.78257072" lon="9.15451632"><ele>311.3333333333333</ele><time>2026-04-27T15:14:42.039Z</time></trkpt><trkpt lat="48.78252523" lon="9.15440131"><ele>312.0</ele><time>2026-04-27T15:14:45.039Z</time></trkpt><trkpt lat="48.78246557" lon="9.15430733"><ele>312.0</ele><time>2026-04-27T15:14:48.044Z</time></trkpt><trkpt lat="48.78241161" lon="9.15424294"><ele>312.0</ele><time>2026-04-27T15:14:50.032Z</time></trkpt><trkpt lat="48.78234684" lon="9.15414254"><ele>312.0</ele><time>2026-04-27T15:14:53.033Z</time></trkpt><trkpt lat="48.78223837" lon="9.15396809"><ele>312.0</ele><time>2026-04-27T15:14:58.045Z</time></trkpt><trkpt lat="48.78219686" lon="9.15389482"><ele>312.0</ele><time>2026-04-27T15:15:00.046Z</time></trkpt><trkpt lat="48.78213329" lon="9.15379922"><ele>314.2</ele><time>2026-04-27T15:15:03.047Z</time></trkpt><trkpt lat="48.78205758" lon="9.15372896"><ele>316.4</ele><time>2026-04-27T15:15:06.033Z</time></trkpt><trkpt lat="48.78201266" lon="9.15365802"><ele>318.59999999999997</ele><time>2026-04-27T15:15:10.04Z</time></trkpt><trkpt lat="48.78197475" lon="9.15357997"><ele>320.79999999999995</ele><time>2026-04-27T15:15:59.035Z</time></trkpt><trkpt lat="48.78182728" lon="9.15348028"><ele>323.0</ele><time>2026-04-27T15:16:05.044Z</time></trkpt><trkpt lat="48.78175557" lon="9.15345836"><ele>323.0</ele><time>2026-04-27T15:16:07.048Z</time></trkpt><trkpt lat="48.78167971" lon="9.15344388"><ele>323.0</ele><time>2026-04-27T15:16:09.052Z</time></trkpt><trkpt lat="48.78159283" lon="9.15343583"><ele>323.0</ele><time>2026-04-27T15:16:11.033Z</time></trkpt><trkpt lat="48.78152005" lon="9.15344689"><ele>323.0</ele><time>2026-04-27T15:16:13.038Z</time></trkpt><trkpt lat="48.78145247" lon="9.15347223"><ele>323.0</ele><time>2026-04-27T15:16:15.042Z</time></trkpt><trkpt lat="48.78138155" lon="9.15350011"><ele>323.0</ele><time>2026-04-27T15:16:17.046Z</time></trkpt><trkpt lat="48.7813156" lon="9.15353936"><ele>323.0</ele><time>2026-04-27T15:16:19.032Z</time></trkpt><trkpt lat="48.78124467" lon="9.15360916"><ele>323.0</ele><time>2026-04-27T15:16:22.034Z</time></trkpt><trkpt lat="48.78108965" lon="9.15376128"><ele>323.0</ele><time>2026-04-27T15:16:28.032Z</time></trkpt><trkpt lat="48.78102882" lon="9.15381738"><ele>323.0</ele><time>2026-04-27T15:16:30.036Z</time></trkpt><trkpt lat="48.78096344" lon="9.15386534"><ele>323.0</ele><time>2026-04-27T15:16:32.039Z</time></trkpt><trkpt lat="48.78089806" lon="9.15389803"><ele>324.33333333333337</ele><time>2026-04-27T15:16:34.044Z</time></trkpt><trkpt lat="48.78083558" lon="9.15392078"><ele>325.6666666666667</ele><time>2026-04-27T15:16:36.048Z</time></trkpt><trkpt lat="48.78077134" lon="9.15392506"><ele>327.0</ele><time>2026-04-27T15:16:38.032Z</time></trkpt><trkpt lat="48.78069862" lon="9.15391584"><ele>328.3333333333333</ele><time>2026-04-27T15:16:40.035Z</time></trkpt><trkpt lat="48.78063289" lon="9.15389198"><ele>329.66666666666663</ele><time>2026-04-27T15:16:42.04Z</time></trkpt><trkpt lat="48.78057075" lon="9.15386466"><ele>331.0</ele><time>2026-04-27T15:16:44.042Z</time></trkpt><trkpt lat="48.78041444" lon="9.15373375"><ele>331.0</ele><time>2026-04-27T15:16:50.034Z</time></trkpt><trkpt lat="48.78035155" lon="9.15369541"><ele>331.0</ele><time>2026-04-27T15:16:52.037Z</time></trkpt><trkpt lat="48.78028296" lon="9.15366093"><ele>331.0</ele><time>2026-04-27T15:16:54.024Z</time></trkpt><trkpt lat="48.78022204" lon="9.15361545"><ele>331.0</ele><time>2026-04-27T15:16:55.973Z</time></trkpt><trkpt lat="48.78016945" lon="9.15355805"><ele>331.0</ele><time>2026-04-27T15:16:58.033Z</time></trkpt><trkpt lat="48.78008969" lon="9.1534793"><ele>331.0</ele><time>2026-04-27T15:17:01.035Z</time></trkpt><trkpt lat="48.78003509" lon="9.15342499"><ele>331.0</ele><time>2026-04-27T15:17:03.037Z</time></trkpt><trkpt lat="48.77996098" lon="9.15334234"><ele>330.8</ele><time>2026-04-27T15:17:06.035Z</time></trkpt><trkpt lat="48.77985319" lon="9.15322476"><ele>330.6</ele><time>2026-04-27T15:17:10.036Z</time></trkpt><trkpt lat="48.77977764" lon="9.15314135"><ele>330.4</ele><time>2026-04-27T15:17:13.038Z</time></trkpt><trkpt lat="48.77971095" lon="9.15304767"><ele>330.2</ele><time>2026-04-27T15:17:16.041Z</time></trkpt><trkpt lat="48.77964604" lon="9.1529457"><ele>330.0</ele><time>2026-04-27T15:17:19.044Z</time></trkpt><trkpt lat="48.7795859" lon="9.15283651"><ele>332.0</ele><time>2026-04-27T15:17:22.035Z</time></trkpt><trkpt lat="48.77954613" lon="9.15276009"><ele>334.0</ele><time>2026-04-27T15:17:24.035Z</time></trkpt><trkpt lat="48.77951273" lon="9.15267788"><ele>336.0</ele><time>2026-04-27T15:17:26.038Z</time></trkpt><trkpt lat="48.77947213" lon="9.1525718"><ele>338.0</ele><time>2026-04-27T15:17:29.043Z</time></trkpt><trkpt lat="48.77943579" lon="9.15230259"><ele>340.0</ele><time>2026-04-27T15:17:35.035Z</time></trkpt><trkpt lat="48.7794292" lon="9.15216301"><ele>340.5</ele><time>2026-04-27T15:17:38.037Z</time></trkpt><trkpt lat="48.77941813" lon="9.15202442"><ele>341.0</ele><time>2026-04-27T15:17:41.034Z</time></trkpt><trkpt lat="48.77941221" lon="9.15192616"><ele>341.5</ele><time>2026-04-27T15:17:43.036Z</time></trkpt><trkpt lat="48.77941848" lon="9.15179725"><ele>342.0</ele><time>2026-04-27T15:17:46.034Z</time></trkpt><trkpt lat="48.77942636" lon="9.15166914"><ele>342.5</ele><time>2026-04-27T15:17:49.037Z</time></trkpt><trkpt lat="48.77943467" lon="9.151541"><ele>343.0</ele><time>2026-04-27T15:17:52.038Z</time></trkpt><trkpt lat="48.77943559" lon="9.15130168"><ele>343.57142857142856</ele><time>2026-04-27T15:17:57.038Z</time></trkpt><trkpt lat="48.77942995" lon="9.15119789"><ele>344.1428571428571</ele><time>2026-04-27T15:17:59.041Z</time></trkpt><trkpt lat="48.77942023" lon="9.15109197"><ele>344.7142857142857</ele><time>2026-04-27T15:18:01.044Z</time></trkpt><trkpt lat="48.77941276" lon="9.1509904"><ele>345.2857142857143</ele><time>2026-04-27T15:18:03.047Z</time></trkpt><trkpt lat="48.77939904" lon="9.1508852"><ele>345.85714285714283</ele><time>2026-04-27T15:18:05.028Z</time></trkpt><trkpt lat="48.77937534" lon="9.15077991"><ele>346.42857142857144</ele><time>2026-04-27T15:18:07.034Z</time></trkpt><trkpt lat="48.7793505" lon="9.15068137"><ele>347.0</ele><time>2026-04-27T15:18:09.037Z</time></trkpt><trkpt lat="48.77932824" lon="9.15058536"><ele>347.1666666666667</ele><time>2026-04-27T15:18:11.041Z</time></trkpt><trkpt lat="48.77930792" lon="9.15048858"><ele>347.33333333333337</ele><time>2026-04-27T15:18:13.045Z</time></trkpt><trkpt lat="48.77923811" lon="9.15032252"><ele>347.5</ele><time>2026-04-27T15:18:17.034Z</time></trkpt><trkpt lat="48.77918855" lon="9.15024049"><ele>347.6666666666667</ele><time>2026-04-27T15:18:19.035Z</time></trkpt><trkpt lat="48.7791341" lon="9.15016609"><ele>347.8333333333333</ele><time>2026-04-27T15:18:21.035Z</time></trkpt><trkpt lat="48.77908631" lon="9.15009385"><ele>348.0</ele><time>2026-04-27T15:18:23.04Z</time></trkpt><trkpt lat="48.77903936" lon="9.15002646"><ele>348.0</ele><time>2026-04-27T15:18:25.042Z</time></trkpt><trkpt lat="48.77899048" lon="9.14996472"><ele>348.0</ele><time>2026-04-27T15:18:27.038Z</time></trkpt><trkpt lat="48.77894245" lon="9.14989866"><ele>348.0</ele><time>2026-04-27T15:18:29.035Z</time></trkpt><trkpt lat="48.77889319" lon="9.14983234"><ele>348.0</ele><time>2026-04-27T15:18:31.042Z</time></trkpt><trkpt lat="48.77884384" lon="9.14976508"><ele>348.0</ele><time>2026-04-27T15:18:33.033Z</time></trkpt><trkpt lat="48.77877816" lon="9.14966936"><ele>348.0</ele><time>2026-04-27T15:18:36.039Z</time></trkpt><trkpt lat="48.77869124" lon="9.14952627"><ele>348.0</ele><time>2026-04-27T15:18:40.047Z</time></trkpt><trkpt lat="48.77864689" lon="9.14944536"><ele>348.0</ele><time>2026-04-27T15:18:42.048Z</time></trkpt><trkpt lat="48.77860109" lon="9.14936946"><ele>348.0</ele><time>2026-04-27T15:18:44.036Z</time></trkpt><trkpt lat="48.778535" lon="9.14926819"><ele>348.0</ele><time>2026-04-27T15:18:47.036Z</time></trkpt><trkpt lat="48.77849082" lon="9.14919504"><ele>348.0</ele><time>2026-04-27T15:18:49.042Z</time></trkpt><trkpt lat="48.77845442" lon="9.14907585"><ele>348.0</ele><time>2026-04-27T15:18:52.046Z</time></trkpt><trkpt lat="48.77846903" lon="9.14896301"><ele>348.0</ele><time>2026-04-27T15:18:54.049Z</time></trkpt><trkpt lat="48.77850935" lon="9.14885606"><ele>348.0</ele><time>2026-04-27T15:18:56.036Z</time></trkpt><trkpt lat="48.77855776" lon="9.14875679"><ele>348.0</ele><time>2026-04-27T15:18:58.038Z</time></trkpt><trkpt lat="48.77864235" lon="9.14856464"><ele>348.0</ele><time>2026-04-27T15:19:01.976Z</time></trkpt><trkpt lat="48.77868084" lon="9.14846484"><ele>348.0</ele><time>2026-04-27T15:19:03.97Z</time></trkpt><trkpt lat="48.77871672" lon="9.14837056"><ele>349.2857142857143</ele><time>2026-04-27T15:19:05.968Z</time></trkpt><trkpt lat="48.77875149" lon="9.14828157"><ele>350.57142857142856</ele><time>2026-04-27T15:19:07.975Z</time></trkpt><trkpt lat="48.77879054" lon="9.14820605"><ele>351.8571428571429</ele><time>2026-04-27T15:19:09.974Z</time></trkpt><trkpt lat="48.77882872" lon="9.14812324"><ele>353.1428571428571</ele><time>2026-04-27T15:19:11.972Z</time></trkpt><trkpt lat="48.77885891" lon="9.1480191"><ele>354.42857142857144</ele><time>2026-04-27T15:19:14.035Z</time></trkpt><trkpt lat="48.77889018" lon="9.14793243"><ele>355.7142857142857</ele><time>2026-04-27T15:19:16.034Z</time></trkpt><trkpt lat="48.77893483" lon="9.14785461"><ele>357.0</ele><time>2026-04-27T15:19:18.039Z</time></trkpt><trkpt lat="48.77898266" lon="9.14778731"><ele>357.0</ele><time>2026-04-27T15:19:20.036Z</time></trkpt><trkpt lat="48.77911437" lon="9.14767471"><ele>357.0</ele><time>2026-04-27T15:19:25.049Z</time></trkpt><trkpt lat="48.77919969" lon="9.14763794"><ele>357.0</ele><time>2026-04-27T15:19:28.048Z</time></trkpt><trkpt lat="48.77929285" lon="9.14763818"><ele>357.0</ele><time>2026-04-27T15:19:31.036Z</time></trkpt><trkpt lat="48.77936669" lon="9.14767359"><ele>357.0</ele><time>2026-04-27T15:19:33.038Z</time></trkpt><trkpt lat="48.77942971" lon="9.14771696"><ele>359.0</ele><time>2026-04-27T15:19:35.045Z</time></trkpt><trkpt lat="48.77949959" lon="9.14775687"><ele>361.0</ele><time>2026-04-27T15:19:37.045Z</time></trkpt><trkpt lat="48.77957183" lon="9.14779789"><ele>363.0</ele><time>2026-04-27T15:19:39.049Z</time></trkpt><trkpt lat="48.77964241" lon="9.14783336"><ele>365.0</ele><time>2026-04-27T15:19:41.036Z</time></trkpt><trkpt lat="48.77977619" lon="9.1478783"><ele>367.0</ele><time>2026-04-27T15:19:45.036Z</time></trkpt><trkpt lat="48.77984118" lon="9.1479096"><ele>369.0</ele><time>2026-04-27T15:19:47.038Z</time></trkpt><trkpt lat="48.77990315" lon="9.14794114"><ele>369.0</ele><time>2026-04-27T15:19:49.035Z</time></trkpt><trkpt lat="48.77998416" lon="9.14798633"><ele>369.0</ele><time>2026-04-27T15:19:52.042Z</time></trkpt><trkpt lat="48.78005714" lon="9.14805258"><ele>369.0</ele><time>2026-04-27T15:19:55.036Z</time></trkpt><trkpt lat="48.780142" lon="9.14810075"><ele>369.0</ele><time>2026-04-27T15:19:58.034Z</time></trkpt><trkpt lat="48.78020198" lon="9.14813469"><ele>369.0</ele><time>2026-04-27T15:20:00.037Z</time></trkpt><trkpt lat="48.78026339" lon="9.14818509"><ele>369.0</ele><time>2026-04-27T15:20:02.038Z</time></trkpt><trkpt lat="48.78038902" lon="9.14828932"><ele>370.7142857142857</ele><time>2026-04-27T15:20:06.044Z</time></trkpt><trkpt lat="48.78045427" lon="9.14834766"><ele>372.42857142857144</ele><time>2026-04-27T15:20:08.045Z</time></trkpt><trkpt lat="48.78051024" lon="9.14841626"><ele>374.1428571428571</ele><time>2026-04-27T15:20:10.034Z</time></trkpt><trkpt lat="48.78055745" lon="9.14848276"><ele>375.8571428571429</ele><time>2026-04-27T15:20:11.996Z</time></trkpt><trkpt lat="48.78060161" lon="9.1485513"><ele>377.5714285714286</ele><time>2026-04-27T15:20:14.041Z</time></trkpt><trkpt lat="48.78065025" lon="9.14862445"><ele>379.2857142857143</ele><time>2026-04-27T15:20:16.044Z</time></trkpt><trkpt lat="48.78069548" lon="9.14869637"><ele>381.0</ele><time>2026-04-27T15:20:18.044Z</time></trkpt><trkpt lat="48.78074098" lon="9.14878549"><ele>381.0</ele><time>2026-04-27T15:20:21.049Z</time></trkpt><trkpt lat="48.78079336" lon="9.14890762"><ele>381.0</ele><time>2026-04-27T15:20:24.038Z</time></trkpt><trkpt lat="48.78087242" lon="9.14907853"><ele>381.0</ele><time>2026-04-27T15:20:28.036Z</time></trkpt><trkpt lat="48.78090814" lon="9.1491683"><ele>381.0</ele><time>2026-04-27T15:20:30.041Z</time></trkpt><trkpt lat="48.78096429" lon="9.1492736"><ele>381.0</ele><time>2026-04-27T15:20:33.036Z</time></trkpt><trkpt lat="48.78101812" lon="9.14938234"><ele>380.5</ele><time>2026-04-27T15:20:36.036Z</time></trkpt><trkpt lat="48.78106095" lon="9.14946309"><ele>380.0</ele><time>2026-04-27T15:20:38.036Z</time></trkpt><trkpt lat="48.7811011" lon="9.14953843"><ele>379.5</ele><time>2026-04-27T15:20:40.04Z</time></trkpt><trkpt lat="48.78114772" lon="9.14960975"><ele>379.0</ele><time>2026-04-27T15:20:42.044Z</time></trkpt><trkpt lat="48.7811974" lon="9.14968523"><ele>378.5</ele><time>2026-04-27T15:20:44.046Z</time></trkpt><trkpt lat="48.78124348" lon="9.14976109"><ele>378.0</ele><time>2026-04-27T15:20:46.051Z</time></trkpt><trkpt lat="48.7813338" lon="9.14991187"><ele>378.0</ele><time>2026-04-27T15:20:50.038Z</time></trkpt><trkpt lat="48.7813882" lon="9.14997099"><ele>378.0</ele><time>2026-04-27T15:20:52.039Z</time></trkpt><trkpt lat="48.78146572" lon="9.15003763"><ele>378.0</ele><time>2026-04-27T15:20:55.044Z</time></trkpt><trkpt lat="48.78152825" lon="9.15006412"><ele>378.0</ele><time>2026-04-27T15:20:57.049Z</time></trkpt><trkpt lat="48.78159658" lon="9.1500564"><ele>378.0</ele><time>2026-04-27T15:20:59.05Z</time></trkpt><trkpt lat="48.78166094" lon="9.15003186"><ele>378.0</ele><time>2026-04-27T15:21:01.034Z</time></trkpt><trkpt lat="48.7817501" lon="9.14997696"><ele>378.0</ele><time>2026-04-27T15:21:04.026Z</time></trkpt><trkpt lat="48.78181174" lon="9.14991028"><ele>378.0</ele><time>2026-04-27T15:21:06.032Z</time></trkpt><trkpt lat="48.78186876" lon="9.14982959"><ele>378.0</ele><time>2026-04-27T15:21:08.036Z</time></trkpt><trkpt lat="48.78198104" lon="9.14964035"><ele>378.0</ele><time>2026-04-27T15:21:12.038Z</time></trkpt><trkpt lat="48.7820334" lon="9.1495445"><ele>378.0</ele><time>2026-04-27T15:21:14.036Z</time></trkpt><trkpt lat="48.7820869" lon="9.14945749"><ele>378.8333333333333</ele><time>2026-04-27T15:21:16.039Z</time></trkpt><trkpt lat="48.78214771" lon="9.14937704"><ele>379.6666666666667</ele><time>2026-04-27T15:21:18.043Z</time></trkpt><trkpt lat="48.78220496" lon="9.14930309"><ele>380.5</ele><time>2026-04-27T15:21:20.048Z</time></trkpt><trkpt lat="48.78225883" lon="9.14922485"><ele>381.33333333333337</ele><time>2026-04-27T15:21:22.049Z</time></trkpt><trkpt lat="48.78231209" lon="9.14913601"><ele>382.1666666666667</ele><time>2026-04-27T15:21:24.038Z</time></trkpt><trkpt lat="48.78236697" lon="9.14904084"><ele>383.0</ele><time>2026-04-27T15:21:26.037Z</time></trkpt><trkpt lat="48.78242194" lon="9.148957"><ele>382.79999999999995</ele><time>2026-04-27T15:21:28.045Z</time></trkpt><trkpt lat="48.78248311" lon="9.14887383"><ele>382.6</ele><time>2026-04-27T15:21:30.043Z</time></trkpt><trkpt lat="48.78259599" lon="9.14868751"><ele>382.4</ele><time>2026-04-27T15:21:34.047Z</time></trkpt><trkpt lat="48.78265144" lon="9.14860024"><ele>382.20000000000005</ele><time>2026-04-27T15:21:36.036Z</time></trkpt><trkpt lat="48.78271072" lon="9.14850698"><ele>382.0</ele><time>2026-04-27T15:21:38.037Z</time></trkpt><trkpt lat="48.78276368" lon="9.14840201"><ele>382.0</ele><time>2026-04-27T15:21:40.034Z</time></trkpt><trkpt lat="48.78281058" lon="9.14830781"><ele>382.0</ele><time>2026-04-27T15:21:42.032Z</time></trkpt><trkpt lat="48.78287751" lon="9.14820413"><ele>382.0</ele><time>2026-04-27T15:21:44.033Z</time></trkpt><trkpt lat="48.7829458" lon="9.14810165"><ele>382.0</ele><time>2026-04-27T15:21:46.034Z</time></trkpt><trkpt lat="48.78302358" lon="9.14800408"><ele>382.0</ele><time>2026-04-27T15:21:48.037Z</time></trkpt><trkpt lat="48.78310182" lon="9.14790283"><ele>383.25</ele><time>2026-04-27T15:21:50.039Z</time></trkpt><trkpt lat="48.78317579" lon="9.14781736"><ele>384.5</ele><time>2026-04-27T15:21:52.034Z</time></trkpt><trkpt lat="48.783342" lon="9.1476369"><ele>385.75</ele><time>2026-04-27T15:21:56.043Z</time></trkpt><trkpt lat="48.78344037" lon="9.14756008"><ele>387.0</ele><time>2026-04-27T15:21:58.04Z</time></trkpt><trkpt lat="48.7835404" lon="9.14749683"><ele>387.0</ele><time>2026-04-27T15:22:00.044Z</time></trkpt><trkpt lat="48.78363379" lon="9.14744767"><ele>387.0</ele><time>2026-04-27T15:22:02.049Z</time></trkpt><trkpt lat="48.78371181" lon="9.14739385"><ele>387.0</ele><time>2026-04-27T15:22:04.033Z</time></trkpt><trkpt lat="48.78378036" lon="9.14734465"><ele>387.0</ele><time>2026-04-27T15:22:06.034Z</time></trkpt><trkpt lat="48.78385546" lon="9.14728921"><ele>387.0</ele><time>2026-04-27T15:22:08.037Z</time></trkpt><trkpt lat="48.78391483" lon="9.1472058"><ele>387.0</ele><time>2026-04-27T15:22:10.042Z</time></trkpt><trkpt lat="48.78396437" lon="9.14713915"><ele>387.25</ele><time>2026-04-27T15:22:13.047Z</time></trkpt><trkpt lat="48.78412374" lon="9.14688498"><ele>387.5</ele><time>2026-04-27T15:23:22.049Z</time></trkpt><trkpt lat="48.78417781" lon="9.14683231"><ele>387.75</ele><time>2026-04-27T15:23:27.039Z</time></trkpt><trkpt lat="48.7841857" lon="9.14693469"><ele>388.0</ele><time>2026-04-27T15:23:52.039Z</time></trkpt><trkpt lat="48.78430036" lon="9.14706107"><ele>388.1428571428571</ele><time>2026-04-27T15:23:55.035Z</time></trkpt><trkpt lat="48.78436002" lon="9.14714535"><ele>388.28571428571433</ele><time>2026-04-27T15:23:57.041Z</time></trkpt><trkpt lat="48.78441326" lon="9.14720798"><ele>388.42857142857144</ele><time>2026-04-27T15:23:59.038Z</time></trkpt><trkpt lat="48.78446185" lon="9.14727614"><ele>388.57142857142856</ele><time>2026-04-27T15:24:01.041Z</time></trkpt><trkpt lat="48.78451024" lon="9.14735143"><ele>388.71428571428567</ele><time>2026-04-27T15:24:03.045Z</time></trkpt><trkpt lat="48.78457502" lon="9.14742485"><ele>388.8571428571429</ele><time>2026-04-27T15:24:05.047Z</time></trkpt><trkpt lat="48.78463644" lon="9.14750591"><ele>389.0</ele><time>2026-04-27T15:24:07.035Z</time></trkpt><trkpt lat="48.78469949" lon="9.14759438"><ele>389.0</ele><time>2026-04-27T15:24:09.039Z</time></trkpt><trkpt lat="48.78476136" lon="9.14768429"><ele>389.0</ele><time>2026-04-27T15:24:11.042Z</time></trkpt><trkpt lat="48.78482887" lon="9.14778371"><ele>389.0</ele><time>2026-04-27T15:24:13.041Z</time></trkpt><trkpt lat="48.78498229" lon="9.14798038"><ele>389.0</ele><time>2026-04-27T15:24:17.05Z</time></trkpt><trkpt lat="48.78506317" lon="9.14807675"><ele>389.0</ele><time>2026-04-27T15:24:19.051Z</time></trkpt><trkpt lat="48.78514236" lon="9.14818708"><ele>389.0</ele><time>2026-04-27T15:24:21.039Z</time></trkpt><trkpt lat="48.78521078" lon="9.14831197"><ele>389.0</ele><time>2026-04-27T15:24:23.04Z</time></trkpt><trkpt lat="48.78529215" lon="9.14841995"><ele>389.0</ele><time>2026-04-27T15:24:25.042Z</time></trkpt><trkpt lat="48.78537171" lon="9.14852825"><ele>389.0</ele><time>2026-04-27T15:24:27.039Z</time></trkpt><trkpt lat="48.78547045" lon="9.14863168"><ele>388.25</ele><time>2026-04-27T15:24:29.044Z</time></trkpt><trkpt lat="48.78556022" lon="9.14875664"><ele>387.5</ele><time>2026-04-27T15:24:31.049Z</time></trkpt><trkpt lat="48.78563955" lon="9.14887238"><ele>386.75</ele><time>2026-04-27T15:24:33.047Z</time></trkpt><trkpt lat="48.78572589" lon="9.1489775"><ele>386.0</ele><time>2026-04-27T15:24:35.051Z</time></trkpt><trkpt lat="48.78591239" lon="9.14920251"><ele>385.49999999999994</ele><time>2026-04-27T15:24:39.037Z</time></trkpt><trkpt lat="48.78600572" lon="9.14931954"><ele>385.0</ele><time>2026-04-27T15:24:41.023Z</time></trkpt><trkpt lat="48.78606041" lon="9.14937385"><ele>384.5</ele><time>2026-04-27T15:24:42.041Z</time></trkpt><trkpt lat="48.78611342" lon="9.14944117"><ele>384.0</ele><time>2026-04-27T15:24:43.044Z</time></trkpt><trkpt lat="48.78620143" lon="9.14955664"><ele>383.5</ele><time>2026-04-27T15:24:45.046Z</time></trkpt><trkpt lat="48.78625019" lon="9.14961775"><ele>383.0</ele><time>2026-04-27T15:24:46.048Z</time></trkpt><trkpt lat="48.78634191" lon="9.14973229"><ele>382.83333333333337</ele><time>2026-04-27T15:24:48.051Z</time></trkpt><trkpt lat="48.78639149" lon="9.14979143"><ele>382.6666666666667</ele><time>2026-04-27T15:24:49.038Z</time></trkpt><trkpt lat="48.78644054" lon="9.14985517"><ele>382.5</ele><time>2026-04-27T15:24:50.033Z</time></trkpt><trkpt lat="48.78653177" lon="9.14998206"><ele>382.3333333333333</ele><time>2026-04-27T15:24:52.038Z</time></trkpt><trkpt lat="48.78662547" lon="9.15011751"><ele>382.16666666666663</ele><time>2026-04-27T15:24:54.035Z</time></trkpt><trkpt lat="48.78667049" lon="9.15019303"><ele>382.0</ele><time>2026-04-27T15:24:55.044Z</time></trkpt><trkpt lat="48.78676644" lon="9.15031812"><ele>381.40000000000003</ele><time>2026-04-27T15:24:57.037Z</time></trkpt><trkpt lat="48.78688462" lon="9.15049325"><ele>380.8</ele><time>2026-04-27T15:25:00.04Z</time></trkpt><trkpt lat="48.78694182" lon="9.1505531"><ele>380.2</ele><time>2026-04-27T15:25:03.034Z</time></trkpt><trkpt lat="48.78698896" lon="9.15063004"><ele>379.6</ele><time>2026-04-27T15:25:07.04Z</time></trkpt><trkpt lat="48.78705116" lon="9.15067876"><ele>379.0</ele><time>2026-04-27T15:25:28.051Z</time></trkpt><trkpt lat="48.7871725" lon="9.15081273"><ele>379.0</ele><time>2026-04-27T15:25:34.034Z</time></trkpt><trkpt lat="48.78723699" lon="9.15087375"><ele>379.0</ele><time>2026-04-27T15:25:36.037Z</time></trkpt><trkpt lat="48.78732008" lon="9.15093221"><ele>379.0</ele><time>2026-04-27T15:25:38.035Z</time></trkpt><trkpt lat="48.78740985" lon="9.15098903"><ele>379.0</ele><time>2026-04-27T15:25:40.034Z</time></trkpt><trkpt lat="48.78751026" lon="9.15102104"><ele>379.0</ele><time>2026-04-27T15:25:42Z</time></trkpt><trkpt lat="48.78761546" lon="9.15104386"><ele>379.5</ele><time>2026-04-27T15:25:44.039Z</time></trkpt><trkpt lat="48.7877231" lon="9.1510974"><ele>380.0</ele><time>2026-04-27T15:25:46.035Z</time></trkpt><trkpt lat="48.78783441" lon="9.15113792"><ele>380.5</ele><time>2026-04-27T15:25:48.042Z</time></trkpt><trkpt lat="48.78794736" lon="9.15118824"><ele>381.0</ele><time>2026-04-27T15:25:50.036Z</time></trkpt><trkpt lat="48.78817326" lon="9.15129347"><ele>381.0</ele><time>2026-04-27T15:25:54.038Z</time></trkpt><trkpt lat="48.78828718" lon="9.15131777"><ele>381.0</ele><time>2026-04-27T15:25:56.043Z</time></trkpt><trkpt lat="48.78835174" lon="9.15133042"><ele>381.0</ele><time>2026-04-27T15:25:57.041Z</time></trkpt><trkpt lat="48.7884586" lon="9.15136265"><ele>381.0</ele><time>2026-04-27T15:25:59.039Z</time></trkpt><trkpt lat="48.78856548" lon="9.15141484"><ele>381.0</ele><time>2026-04-27T15:26:01.036Z</time></trkpt><trkpt lat="48.78867706" lon="9.15150635"><ele>380.75</ele><time>2026-04-27T15:26:03.035Z</time></trkpt><trkpt lat="48.78879176" lon="9.15155936"><ele>380.5</ele><time>2026-04-27T15:26:05.042Z</time></trkpt><trkpt lat="48.78891267" lon="9.15160484"><ele>380.25</ele><time>2026-04-27T15:26:07.035Z</time></trkpt><trkpt lat="48.78901947" lon="9.15161827"><ele>380.0</ele><time>2026-04-27T15:26:09.039Z</time></trkpt><trkpt lat="48.78913721" lon="9.15166797"><ele>380.0</ele><time>2026-04-27T15:26:11.042Z</time></trkpt><trkpt lat="48.78933225" lon="9.15170652"><ele>380.0</ele><time>2026-04-27T15:26:14.046Z</time></trkpt><trkpt lat="48.78939643" lon="9.15170205"><ele>380.0</ele><time>2026-04-27T15:26:15.05Z</time></trkpt><trkpt lat="48.78950153" lon="9.151714"><ele>380.0</ele><time>2026-04-27T15:26:17.036Z</time></trkpt><trkpt lat="48.78956903" lon="9.15171047"><ele>380.0</ele><time>2026-04-27T15:26:18.053Z</time></trkpt><trkpt lat="48.78968541" lon="9.15168932"><ele>380.8</ele><time>2026-04-27T15:26:20.04Z</time></trkpt><trkpt lat="48.78975983" lon="9.15168326"><ele>381.6</ele><time>2026-04-27T15:26:21.04Z</time></trkpt><trkpt lat="48.78987797" lon="9.15165869"><ele>382.4</ele><time>2026-04-27T15:26:23.039Z</time></trkpt><trkpt lat="48.7899947" lon="9.15162222"><ele>383.2</ele><time>2026-04-27T15:26:25.044Z</time></trkpt><trkpt lat="48.79009664" lon="9.15158826"><ele>384.0</ele><time>2026-04-27T15:26:27.04Z</time></trkpt><trkpt lat="48.79020559" lon="9.15155429"><ele>383.75</ele><time>2026-04-27T15:26:29.037Z</time></trkpt><trkpt lat="48.7903155" lon="9.15153505"><ele>383.5</ele><time>2026-04-27T15:26:31.045Z</time></trkpt><trkpt lat="48.79043734" lon="9.15152297"><ele>383.25</ele><time>2026-04-27T15:26:33.044Z</time></trkpt><trkpt lat="48.79064506" lon="9.15154669"><ele>383.0</ele><time>2026-04-27T15:26:37.035Z</time></trkpt><trkpt lat="48.79076134" lon="9.15158758"><ele>383.0</ele><time>2026-04-27T15:26:39.055Z</time></trkpt><trkpt lat="48.79087658" lon="9.15162669"><ele>383.0</ele><time>2026-04-27T15:26:41.036Z</time></trkpt><trkpt lat="48.79099194" lon="9.15167946"><ele>383.0</ele><time>2026-04-27T15:26:43.047Z</time></trkpt><trkpt lat="48.79109878" lon="9.15174648"><ele>383.0</ele><time>2026-04-27T15:26:45.042Z</time></trkpt><trkpt lat="48.79120768" lon="9.15183817"><ele>383.0</ele><time>2026-04-27T15:26:47.045Z</time></trkpt><trkpt lat="48.79126437" lon="9.15188733"><ele>383.0</ele><time>2026-04-27T15:26:48.035Z</time></trkpt><trkpt lat="48.79135933" lon="9.15200314"><ele>383.0</ele><time>2026-04-27T15:26:50.054Z</time></trkpt><trkpt lat="48.79145185" lon="9.15212799"><ele>383.0</ele><time>2026-04-27T15:26:52.055Z</time></trkpt><trkpt lat="48.79153905" lon="9.15227725"><ele>383.0</ele><time>2026-04-27T15:26:54.035Z</time></trkpt><trkpt lat="48.79166555" lon="9.15250304"><ele>383.0</ele><time>2026-04-27T15:26:57.037Z</time></trkpt><trkpt lat="48.79170236" lon="9.15260472"><ele>383.0</ele><time>2026-04-27T15:26:58.043Z</time></trkpt><trkpt lat="48.79173838" lon="9.1526942"><ele>383.0</ele><time>2026-04-27T15:26:59.038Z</time></trkpt><trkpt lat="48.79175757" lon="9.15282876"><ele>383.0</ele><time>2026-04-27T15:27:01.042Z</time></trkpt><trkpt lat="48.79177082" lon="9.15292774"><ele>383.0</ele><time>2026-04-27T15:27:02.038Z</time></trkpt><trkpt lat="48.79178719" lon="9.15302101"><ele>383.0</ele><time>2026-04-27T15:27:03.037Z</time></trkpt><trkpt lat="48.79180153" lon="9.15311881"><ele>383.0</ele><time>2026-04-27T15:27:04.04Z</time></trkpt><trkpt lat="48.79181046" lon="9.15321791"><ele>382.0</ele><time>2026-04-27T15:27:05.026Z</time></trkpt><trkpt lat="48.79184024" lon="9.15341241"><ele>381.0</ele><time>2026-04-27T15:27:07.036Z</time></trkpt><trkpt lat="48.79186349" lon="9.15351535"><ele>380.0</ele><time>2026-04-27T15:27:08.04Z</time></trkpt><trkpt lat="48.79187527" lon="9.15361769"><ele>379.0</ele><time>2026-04-27T15:27:09.034Z</time></trkpt><trkpt lat="48.79188906" lon="9.15372232"><ele>378.0</ele><time>2026-04-27T15:27:10.037Z</time></trkpt><trkpt lat="48.79190498" lon="9.15382689"><ele>377.0</ele><time>2026-04-27T15:27:11.037Z</time></trkpt><trkpt lat="48.79192074" lon="9.15394176"><ele>377.0</ele><time>2026-04-27T15:27:12.039Z</time></trkpt><trkpt lat="48.79194277" lon="9.15403922"><ele>377.0</ele><time>2026-04-27T15:27:13.041Z</time></trkpt><trkpt lat="48.79195882" lon="9.15413719"><ele>377.0</ele><time>2026-04-27T15:27:14.043Z</time></trkpt><trkpt lat="48.79197217" lon="9.15423872"><ele>377.0</ele><time>2026-04-27T15:27:15.045Z</time></trkpt><trkpt lat="48.79200216" lon="9.15444038"><ele>377.0</ele><time>2026-04-27T15:27:17.048Z</time></trkpt><trkpt lat="48.79202078" lon="9.15454445"><ele>377.0</ele><time>2026-04-27T15:27:18.048Z</time></trkpt><trkpt lat="48.79203597" lon="9.15464361"><ele>376.99999999999994</ele><time>2026-04-27T15:27:19.034Z</time></trkpt><trkpt lat="48.79204819" lon="9.1547433"><ele>377.0</ele><time>2026-04-27T15:27:20.036Z</time></trkpt><trkpt lat="48.7920636" lon="9.15484257"><ele>377.0</ele><time>2026-04-27T15:27:21.035Z</time></trkpt><trkpt lat="48.792079" lon="9.15494213"><ele>377.0</ele><time>2026-04-27T15:27:22.035Z</time></trkpt><trkpt lat="48.79209205" lon="9.15503724"><ele>377.0</ele><time>2026-04-27T15:27:23.037Z</time></trkpt><trkpt lat="48.7921079" lon="9.15513337"><ele>376.99999999999994</ele><time>2026-04-27T15:27:24.041Z</time></trkpt><trkpt lat="48.79213082" lon="9.15522541"><ele>377.0</ele><time>2026-04-27T15:27:25.04Z</time></trkpt><trkpt lat="48.7921743" lon="9.15540923"><ele>377.1666666666667</ele><time>2026-04-27T15:27:27.044Z</time></trkpt><trkpt lat="48.79219962" lon="9.15550177"><ele>377.33333333333337</ele><time>2026-04-27T15:27:28.046Z</time></trkpt><trkpt lat="48.79223548" lon="9.15558563"><ele>377.5</ele><time>2026-04-27T15:27:29.032Z</time></trkpt><trkpt lat="48.7922968" lon="9.15574697"><ele>377.6666666666667</ele><time>2026-04-27T15:27:31.034Z</time></trkpt><trkpt lat="48.79232388" lon="9.15583742"><ele>377.8333333333333</ele><time>2026-04-27T15:27:32.031Z</time></trkpt><trkpt lat="48.7923566" lon="9.15593565"><ele>378.0</ele><time>2026-04-27T15:27:33.038Z</time></trkpt><trkpt lat="48.79237277" lon="9.15603246"><ele>378.0</ele><time>2026-04-27T15:27:34.034Z</time></trkpt><trkpt lat="48.79240243" lon="9.15612414"><ele>378.0</ele><time>2026-04-27T15:27:35.037Z</time></trkpt><trkpt lat="48.792442" lon="9.15621208"><ele>378.0</ele><time>2026-04-27T15:27:36.034Z</time></trkpt><trkpt lat="48.79250801" lon="9.15640413"><ele>378.0</ele><time>2026-04-27T15:27:38.035Z</time></trkpt><trkpt lat="48.79254942" lon="9.15648916"><ele>378.0</ele><time>2026-04-27T15:27:39.034Z</time></trkpt><trkpt lat="48.79259813" lon="9.15657293"><ele>378.0</ele><time>2026-04-27T15:27:40.032Z</time></trkpt><trkpt lat="48.79264638" lon="9.15665549"><ele>376.7142857142857</ele><time>2026-04-27T15:27:41.038Z</time></trkpt><trkpt lat="48.79269633" lon="9.1567278"><ele>375.42857142857144</ele><time>2026-04-27T15:27:42.033Z</time></trkpt><trkpt lat="48.79275656" lon="9.15679793"><ele>374.1428571428571</ele><time>2026-04-27T15:27:43.034Z</time></trkpt><trkpt lat="48.79281989" lon="9.15685585"><ele>372.8571428571429</ele><time>2026-04-27T15:27:44.034Z</time></trkpt><trkpt lat="48.7928852" lon="9.15691662"><ele>371.57142857142856</ele><time>2026-04-27T15:27:45.045Z</time></trkpt><trkpt lat="48.79295167" lon="9.15696533"><ele>370.2857142857143</ele><time>2026-04-27T15:27:46.043Z</time></trkpt><trkpt lat="48.79302109" lon="9.15701128"><ele>369.0</ele><time>2026-04-27T15:27:46.987Z</time></trkpt><trkpt lat="48.79315238" lon="9.15705092"><ele>369.0</ele><time>2026-04-27T15:27:49.035Z</time></trkpt><trkpt lat="48.79322957" lon="9.15707801"><ele>369.0</ele><time>2026-04-27T15:27:50.036Z</time></trkpt><trkpt lat="48.79329925" lon="9.15711365"><ele>369.0</ele><time>2026-04-27T15:27:51.038Z</time></trkpt><trkpt lat="48.79336951" lon="9.15712971"><ele>369.0</ele><time>2026-04-27T15:27:52.039Z</time></trkpt><trkpt lat="48.79343353" lon="9.15713415"><ele>369.0</ele><time>2026-04-27T15:27:53.041Z</time></trkpt><trkpt lat="48.79350573" lon="9.15715106"><ele>369.0</ele><time>2026-04-27T15:27:54.043Z</time></trkpt><trkpt lat="48.79357949" lon="9.15716968"><ele>369.0</ele><time>2026-04-27T15:27:55.045Z</time></trkpt><trkpt lat="48.79364884" lon="9.15719278"><ele>370.0</ele><time>2026-04-27T15:27:56.047Z</time></trkpt><trkpt lat="48.79372537" lon="9.15719392"><ele>371.0</ele><time>2026-04-27T15:27:57.049Z</time></trkpt><trkpt lat="48.79386082" lon="9.15721516"><ele>372.0</ele><time>2026-04-27T15:27:59.033Z</time></trkpt><trkpt lat="48.7939432" lon="9.15723228"><ele>373.0</ele><time>2026-04-27T15:28:00.032Z</time></trkpt><trkpt lat="48.79400807" lon="9.15725795"><ele>374.0</ele><time>2026-04-27T15:28:01.035Z</time></trkpt><trkpt lat="48.7940771" lon="9.15726482"><ele>375.0</ele><time>2026-04-27T15:28:02.036Z</time></trkpt><trkpt lat="48.79415553" lon="9.15728645"><ele>375.0</ele><time>2026-04-27T15:28:03.039Z</time></trkpt><trkpt lat="48.79422123" lon="9.15729973"><ele>375.0</ele><time>2026-04-27T15:28:04.039Z</time></trkpt><trkpt lat="48.79434671" lon="9.15733279"><ele>375.0</ele><time>2026-04-27T15:28:06.044Z</time></trkpt><trkpt lat="48.7944672" lon="9.15741342"><ele>375.0</ele><time>2026-04-27T15:28:08.048Z</time></trkpt><trkpt lat="48.79452537" lon="9.15745938"><ele>375.0</ele><time>2026-04-27T15:28:09.034Z</time></trkpt><trkpt lat="48.79462285" lon="9.15756549"><ele>375.8</ele><time>2026-04-27T15:28:11.038Z</time></trkpt><trkpt lat="48.79470032" lon="9.15766974"><ele>376.6</ele><time>2026-04-27T15:28:13.056Z</time></trkpt><trkpt lat="48.79477256" lon="9.15781211"><ele>377.4</ele><time>2026-04-27T15:28:15.036Z</time></trkpt><trkpt lat="48.79483211" lon="9.1579477"><ele>378.2</ele><time>2026-04-27T15:28:17.035Z</time></trkpt><trkpt lat="48.79489656" lon="9.15809531"><ele>379.0</ele><time>2026-04-27T15:28:19.035Z</time></trkpt><trkpt lat="48.79497054" lon="9.15841118"><ele>379.79999999999995</ele><time>2026-04-27T15:28:23.04Z</time></trkpt><trkpt lat="48.79498486" lon="9.15857559"><ele>380.59999999999997</ele><time>2026-04-27T15:28:25.04Z</time></trkpt><trkpt lat="48.79500093" lon="9.15874271"><ele>381.4</ele><time>2026-04-27T15:28:27.034Z</time></trkpt><trkpt lat="48.7950212" lon="9.15890989"><ele>382.2</ele><time>2026-04-27T15:28:29.032Z</time></trkpt><trkpt lat="48.79503343" lon="9.15908657"><ele>383.0</ele><time>2026-04-27T15:28:31.043Z</time></trkpt><trkpt lat="48.79505131" lon="9.15925204"><ele>383.0</ele><time>2026-04-27T15:28:33.039Z</time></trkpt><trkpt lat="48.7950742" lon="9.15943901"><ele>383.0</ele><time>2026-04-27T15:28:35.036Z</time></trkpt><trkpt lat="48.79509206" lon="9.1596263"><ele>383.0</ele><time>2026-04-27T15:28:37.032Z</time></trkpt><trkpt lat="48.79511967" lon="9.15980619"><ele>383.0</ele><time>2026-04-27T15:28:39.032Z</time></trkpt><trkpt lat="48.79513981" lon="9.15997711"><ele>382.75</ele><time>2026-04-27T15:28:41.033Z</time></trkpt><trkpt lat="48.79518542" lon="9.16031011"><ele>382.5</ele><time>2026-04-27T15:28:45.037Z</time></trkpt><trkpt lat="48.79521035" lon="9.1604578"><ele>382.25</ele><time>2026-04-27T15:28:47.034Z</time></trkpt><trkpt lat="48.79523845" lon="9.16061023"><ele>382.0</ele><time>2026-04-27T15:28:49.036Z</time></trkpt><trkpt lat="48.79528575" lon="9.16073631"><ele>382.0</ele><time>2026-04-27T15:28:51.024Z</time></trkpt><trkpt lat="48.79536971" lon="9.16083633"><ele>382.0</ele><time>2026-04-27T15:28:53.044Z</time></trkpt><trkpt lat="48.7954223" lon="9.16099563"><ele>382.0</ele><time>2026-04-27T15:28:55.047Z</time></trkpt><trkpt lat="48.79545702" lon="9.16113794"><ele>382.0</ele><time>2026-04-27T15:28:57.035Z</time></trkpt><trkpt lat="48.79549482" lon="9.16126841"><ele>382.0</ele><time>2026-04-27T15:28:59.042Z</time></trkpt><trkpt lat="48.79554551" lon="9.1614165"><ele>382.75</ele><time>2026-04-27T15:29:01.045Z</time></trkpt><trkpt lat="48.79565185" lon="9.16169691"><ele>383.5</ele><time>2026-04-27T15:29:05.046Z</time></trkpt><trkpt lat="48.79571173" lon="9.16182221"><ele>384.25</ele><time>2026-04-27T15:29:07.032Z</time></trkpt><trkpt lat="48.79576693" lon="9.16196731"><ele>385.0</ele><time>2026-04-27T15:29:09.053Z</time></trkpt><trkpt lat="48.79583435" lon="9.16209513"><ele>385.0</ele><time>2026-04-27T15:29:11.037Z</time></trkpt><trkpt lat="48.79588822" lon="9.16224487"><ele>385.0</ele><time>2026-04-27T15:29:13.043Z</time></trkpt><trkpt lat="48.79595592" lon="9.1623688"><ele>385.0</ele><time>2026-04-27T15:29:15.043Z</time></trkpt><trkpt lat="48.79598145" lon="9.16252665"><ele>385.0</ele><time>2026-04-27T15:29:17.048Z</time></trkpt><trkpt lat="48.79602657" lon="9.16266838"><ele>385.0</ele><time>2026-04-27T15:29:19.033Z</time></trkpt><trkpt lat="48.7961119" lon="9.16278073"><ele>384.33333333333337</ele><time>2026-04-27T15:29:21.056Z</time></trkpt><trkpt lat="48.79619797" lon="9.16288015"><ele>383.6666666666667</ele><time>2026-04-27T15:29:23.034Z</time></trkpt><trkpt lat="48.7963768" lon="9.16310274"><ele>383.0</ele><time>2026-04-27T15:29:27.032Z</time></trkpt><trkpt lat="48.79646187" lon="9.16321321"><ele>382.79999999999995</ele><time>2026-04-27T15:29:29.034Z</time></trkpt><trkpt lat="48.79654513" lon="9.16332672"><ele>382.6</ele><time>2026-04-27T15:29:31.038Z</time></trkpt><trkpt lat="48.79662405" lon="9.16341735"><ele>382.4</ele><time>2026-04-27T15:29:33.043Z</time></trkpt><trkpt lat="48.79671721" lon="9.16350654"><ele>382.20000000000005</ele><time>2026-04-27T15:29:35.035Z</time></trkpt><trkpt lat="48.79679914" lon="9.16358291"><ele>382.0</ele><time>2026-04-27T15:29:37.034Z</time></trkpt><trkpt lat="48.79686631" lon="9.16367522"><ele>381.25</ele><time>2026-04-27T15:29:39.039Z</time></trkpt><trkpt lat="48.79692717" lon="9.16377157"><ele>380.5</ele><time>2026-04-27T15:29:41.036Z</time></trkpt><trkpt lat="48.7969937" lon="9.16383537"><ele>379.75</ele><time>2026-04-27T15:29:44.041Z</time></trkpt><trkpt lat="48.79722825" lon="9.16381634"><ele>379.0</ele><time>2026-04-27T15:29:48.042Z</time></trkpt><trkpt lat="48.79731786" lon="9.1638128"><ele>379.0</ele><time>2026-04-27T15:29:50.046Z</time></trkpt><trkpt lat="48.79739811" lon="9.16380643"><ele>379.0</ele><time>2026-04-27T15:29:52.049Z</time></trkpt><trkpt lat="48.79741791" lon="9.1639041"><ele>379.0</ele><time>2026-04-27T15:29:54.051Z</time></trkpt><trkpt lat="48.79738113" lon="9.16401274"><ele>379.0</ele><time>2026-04-27T15:29:56.037Z</time></trkpt><trkpt lat="48.79734659" lon="9.16415033"><ele>379.0</ele><time>2026-04-27T15:29:58.039Z</time></trkpt><trkpt lat="48.79734065" lon="9.16429925"><ele>379.0</ele><time>2026-04-27T15:30:00.044Z</time></trkpt><trkpt lat="48.79738644" lon="9.16446506"><ele>379.2</ele><time>2026-04-27T15:30:02.048Z</time></trkpt><trkpt lat="48.79743066" lon="9.16461625"><ele>379.4</ele><time>2026-04-27T15:30:04.054Z</time></trkpt><trkpt lat="48.79746584" lon="9.16470002"><ele>379.6</ele><time>2026-04-27T15:30:04.971Z</time></trkpt><trkpt lat="48.79755452" lon="9.164953"><ele>379.8</ele><time>2026-04-27T15:30:08.04Z</time></trkpt><trkpt lat="48.79758755" lon="9.16505577"><ele>380.0</ele><time>2026-04-27T15:30:09.039Z</time></trkpt><trkpt lat="48.79761386" lon="9.16516159"><ele>380.1666666666667</ele><time>2026-04-27T15:30:10.061Z</time></trkpt><trkpt lat="48.7976358" lon="9.16526063"><ele>380.33333333333337</ele><time>2026-04-27T15:30:11.037Z</time></trkpt><trkpt lat="48.79766524" lon="9.16536223"><ele>380.5</ele><time>2026-04-27T15:30:12.034Z</time></trkpt><trkpt lat="48.79768845" lon="9.16546745"><ele>380.6666666666667</ele><time>2026-04-27T15:30:13.038Z</time></trkpt><trkpt lat="48.79771345" lon="9.16558076"><ele>380.8333333333333</ele><time>2026-04-27T15:30:14.038Z</time></trkpt><trkpt lat="48.79778082" lon="9.16573137"><ele>381.0</ele><time>2026-04-27T15:30:15.035Z</time></trkpt><trkpt lat="48.79781863" lon="9.16585128"><ele>378.4</ele><time>2026-04-27T15:30:16.038Z</time></trkpt><trkpt lat="48.79786064" lon="9.16597945"><ele>375.8</ele><time>2026-04-27T15:30:17.035Z</time></trkpt><trkpt lat="48.79790641" lon="9.16611085"><ele>373.2</ele><time>2026-04-27T15:30:18.034Z</time></trkpt><trkpt lat="48.79795492" lon="9.16623456"><ele>370.59999999999997</ele><time>2026-04-27T15:30:19.036Z</time></trkpt><trkpt lat="48.79799551" lon="9.16634749"><ele>368.0</ele><time>2026-04-27T15:30:20.033Z</time></trkpt><trkpt lat="48.79803242" lon="9.16645864"><ele>368.2</ele><time>2026-04-27T15:30:21.038Z</time></trkpt><trkpt lat="48.79807454" lon="9.1665762"><ele>368.4</ele><time>2026-04-27T15:30:22.036Z</time></trkpt><trkpt lat="48.79811131" lon="9.1667041"><ele>368.59999999999997</ele><time>2026-04-27T15:30:23.038Z</time></trkpt><trkpt lat="48.79814613" lon="9.1668265"><ele>368.79999999999995</ele><time>2026-04-27T15:30:24.041Z</time></trkpt><trkpt lat="48.79818065" lon="9.16694618"><ele>369.0</ele><time>2026-04-27T15:30:25.043Z</time></trkpt><trkpt lat="48.79825463" lon="9.16719963"><ele>369.0</ele><time>2026-04-27T15:30:27.047Z</time></trkpt><trkpt lat="48.79828167" lon="9.16731742"><ele>369.0</ele><time>2026-04-27T15:30:28.047Z</time></trkpt><trkpt lat="48.79831705" lon="9.16744707"><ele>369.0</ele><time>2026-04-27T15:30:28.974Z</time></trkpt><trkpt lat="48.79836465" lon="9.16757475"><ele>369.0</ele><time>2026-04-27T15:30:29.973Z</time></trkpt><trkpt lat="48.79840798" lon="9.16770876"><ele>369.0</ele><time>2026-04-27T15:30:31.036Z</time></trkpt><trkpt lat="48.79844008" lon="9.16783057"><ele>368.6666666666667</ele><time>2026-04-27T15:30:32.035Z</time></trkpt><trkpt lat="48.79847108" lon="9.16795395"><ele>368.3333333333333</ele><time>2026-04-27T15:30:33.037Z</time></trkpt><trkpt lat="48.79850843" lon="9.16803605"><ele>368.0</ele><time>2026-04-27T15:30:34.039Z</time></trkpt><trkpt lat="48.79856117" lon="9.16812834"><ele>367.66666666666663</ele><time>2026-04-27T15:30:35.046Z</time></trkpt><trkpt lat="48.79859857" lon="9.16821186"><ele>367.3333333333333</ele><time>2026-04-27T15:30:36.043Z</time></trkpt><trkpt lat="48.79864775" lon="9.16837809"><ele>367.0</ele><time>2026-04-27T15:30:38.048Z</time></trkpt><trkpt lat="48.79868778" lon="9.16850259"><ele>365.8</ele><time>2026-04-27T15:30:40.051Z</time></trkpt><trkpt lat="48.79878298" lon="9.16856416"><ele>364.6</ele><time>2026-04-27T15:30:42.054Z</time></trkpt><trkpt lat="48.7988545" lon="9.16854988"><ele>363.40000000000003</ele><time>2026-04-27T15:30:43.041Z</time></trkpt><trkpt lat="48.79896685" lon="9.16855569"><ele>362.20000000000005</ele><time>2026-04-27T15:30:45.04Z</time></trkpt><trkpt lat="48.79904925" lon="9.1686199"><ele>361.0</ele><time>2026-04-27T15:30:48.038Z</time></trkpt><trkpt lat="48.79909438" lon="9.16890305"><ele>361.0</ele><time>2026-04-27T15:30:52.036Z</time></trkpt><trkpt lat="48.79914497" lon="9.1690254"><ele>361.0</ele><time>2026-04-27T15:30:54.039Z</time></trkpt><trkpt lat="48.79918514" lon="9.16917054"><ele>361.0</ele><time>2026-04-27T15:30:56.042Z</time></trkpt><trkpt lat="48.7992442" lon="9.16931142"><ele>361.0</ele><time>2026-04-27T15:30:58.042Z</time></trkpt><trkpt lat="48.79929474" lon="9.16944731"><ele>361.0</ele><time>2026-04-27T15:31:00.04Z</time></trkpt><trkpt lat="48.79934382" lon="9.16958344"><ele>359.8</ele><time>2026-04-27T15:31:02.038Z</time></trkpt><trkpt lat="48.79938804" lon="9.1697028"><ele>358.6</ele><time>2026-04-27T15:31:04.038Z</time></trkpt><trkpt lat="48.7994282" lon="9.16979648"><ele>357.4</ele><time>2026-04-27T15:31:06.054Z</time></trkpt><trkpt lat="48.79945909" lon="9.16990888"><ele>356.2</ele><time>2026-04-27T15:31:08.045Z</time></trkpt><trkpt lat="48.79944569" lon="9.17004654"><ele>355.0</ele><time>2026-04-27T15:31:10.046Z</time></trkpt><trkpt lat="48.79946208" lon="9.17029664"><ele>354.8333333333333</ele><time>2026-04-27T15:31:14.04Z</time></trkpt><trkpt lat="48.79947652" lon="9.17040758"><ele>354.66666666666663</ele><time>2026-04-27T15:31:16.039Z</time></trkpt><trkpt lat="48.79949139" lon="9.17051171"><ele>354.5</ele><time>2026-04-27T15:31:18.042Z</time></trkpt><trkpt lat="48.79943507" lon="9.17059169"><ele>354.3333333333333</ele><time>2026-04-27T15:31:21.049Z</time></trkpt><trkpt lat="48.79936632" lon="9.17058054"><ele>354.1666666666667</ele><time>2026-04-27T15:31:23.053Z</time></trkpt><trkpt lat="48.79928178" lon="9.17057816"><ele>354.0</ele><time>2026-04-27T15:31:25.055Z</time></trkpt><trkpt lat="48.79922443" lon="9.17066534"><ele>353.5</ele><time>2026-04-27T15:31:28.06Z</time></trkpt><trkpt lat="48.79925504" lon="9.17078936"><ele>353.0</ele><time>2026-04-27T15:31:30.04Z</time></trkpt><trkpt lat="48.79930479" lon="9.17087994"><ele>352.5</ele><time>2026-04-27T15:31:31.039Z</time></trkpt><trkpt lat="48.79938007" lon="9.17114844"><ele>352.0</ele><time>2026-04-27T15:31:35.046Z</time></trkpt><trkpt lat="48.79940869" lon="9.1712851"><ele>352.0</ele><time>2026-04-27T15:31:37.057Z</time></trkpt><trkpt lat="48.79941537" lon="9.171435"><ele>352.0</ele><time>2026-04-27T15:31:39.045Z</time></trkpt><trkpt lat="48.79941246" lon="9.17159275"><ele>352.0</ele><time>2026-04-27T15:31:41.048Z</time></trkpt><trkpt lat="48.79940544" lon="9.17174919"><ele>352.0</ele><time>2026-04-27T15:31:42.976Z</time></trkpt><trkpt lat="48.79942384" lon="9.17190299"><ele>352.0</ele><time>2026-04-27T15:31:45.051Z</time></trkpt><trkpt lat="48.79943642" lon="9.17204409"><ele>351.40000000000003</ele><time>2026-04-27T15:31:47.031Z</time></trkpt><trkpt lat="48.79945077" lon="9.17217501"><ele>350.8</ele><time>2026-04-27T15:31:48.969Z</time></trkpt><trkpt lat="48.79946811" lon="9.17231565"><ele>350.2</ele><time>2026-04-27T15:31:50.982Z</time></trkpt><trkpt lat="48.79949048" lon="9.17245671"><ele>349.6</ele><time>2026-04-27T15:31:53.044Z</time></trkpt><trkpt lat="48.79953968" lon="9.17268817"><ele>349.0</ele><time>2026-04-27T15:31:57.05Z</time></trkpt><trkpt lat="48.79955811" lon="9.17279247"><ele>348.6</ele><time>2026-04-27T15:31:59.034Z</time></trkpt><trkpt lat="48.79956945" lon="9.17294171"><ele>348.2</ele><time>2026-04-27T15:32:01.034Z</time></trkpt><trkpt lat="48.79957693" lon="9.17305659"><ele>347.8</ele><time>2026-04-27T15:32:03.035Z</time></trkpt><trkpt lat="48.79958921" lon="9.17315355"><ele>347.40000000000003</ele><time>2026-04-27T15:32:06.027Z</time></trkpt><trkpt lat="48.79962742" lon="9.17325108"><ele>347.0</ele><time>2026-04-27T15:32:23.038Z</time></trkpt><trkpt lat="48.79965846" lon="9.17350932"><ele>346.8</ele><time>2026-04-27T15:32:29.037Z</time></trkpt><trkpt lat="48.79975351" lon="9.17355126"><ele>346.6</ele><time>2026-04-27T15:32:33.038Z</time></trkpt><trkpt lat="48.799847" lon="9.17352573"><ele>346.40000000000003</ele><time>2026-04-27T15:32:35.05Z</time></trkpt><trkpt lat="48.79994152" lon="9.17349992"><ele>346.20000000000005</ele><time>2026-04-27T15:32:37.051Z</time></trkpt><trkpt lat="48.80005233" lon="9.17345861"><ele>346.0</ele><time>2026-04-27T15:32:39.037Z</time></trkpt><trkpt lat="48.80016352" lon="9.1734521"><ele>345.20000000000005</ele><time>2026-04-27T15:32:41.035Z</time></trkpt><trkpt lat="48.80027757" lon="9.17342236"><ele>344.40000000000003</ele><time>2026-04-27T15:32:43.039Z</time></trkpt><trkpt lat="48.80040335" lon="9.17338684"><ele>343.6</ele><time>2026-04-27T15:32:45.044Z</time></trkpt><trkpt lat="48.80053419" lon="9.17336981"><ele>342.8</ele><time>2026-04-27T15:32:47.027Z</time></trkpt><trkpt lat="48.80060467" lon="9.17335098"><ele>342.0</ele><time>2026-04-27T15:32:48.034Z</time></trkpt><trkpt lat="48.80067873" lon="9.1733347"><ele>341.99999999999994</ele><time>2026-04-27T15:32:49.036Z</time></trkpt><trkpt lat="48.80074274" lon="9.17331495"><ele>342.0</ele><time>2026-04-27T15:32:50.033Z</time></trkpt><trkpt lat="48.80081549" lon="9.17330908"><ele>342.0</ele><time>2026-04-27T15:32:51.037Z</time></trkpt><trkpt lat="48.80088651" lon="9.17328785"><ele>342.0</ele><time>2026-04-27T15:32:52.033Z</time></trkpt><trkpt lat="48.80095165" lon="9.17328519"><ele>342.0</ele><time>2026-04-27T15:32:53.036Z</time></trkpt><trkpt lat="48.80102043" lon="9.17327867"><ele>341.99999999999994</ele><time>2026-04-27T15:32:54.037Z</time></trkpt><trkpt lat="48.801088" lon="9.17328868"><ele>342.0</ele><time>2026-04-27T15:32:55.035Z</time></trkpt><trkpt lat="48.80115719" lon="9.17330229"><ele>341.1666666666667</ele><time>2026-04-27T15:32:56.037Z</time></trkpt><trkpt lat="48.80122065" lon="9.17329953"><ele>340.3333333333333</ele><time>2026-04-27T15:32:57.033Z</time></trkpt><trkpt lat="48.80134583" lon="9.17330469"><ele>339.5</ele><time>2026-04-27T15:32:59.041Z</time></trkpt><trkpt lat="48.80141533" lon="9.1733192"><ele>338.66666666666663</ele><time>2026-04-27T15:33:00.043Z</time></trkpt><trkpt lat="48.80148686" lon="9.17333156"><ele>337.8333333333333</ele><time>2026-04-27T15:33:01.039Z</time></trkpt><trkpt lat="48.80157547" lon="9.17336589"><ele>337.0</ele><time>2026-04-27T15:33:02.039Z</time></trkpt><trkpt lat="48.8016529" lon="9.17338571"><ele>337.0</ele><time>2026-04-27T15:33:03.041Z</time></trkpt><trkpt lat="48.80172004" lon="9.17339644"><ele>337.0</ele><time>2026-04-27T15:33:04.043Z</time></trkpt><trkpt lat="48.80180941" lon="9.17344674"><ele>337.0</ele><time>2026-04-27T15:33:05.045Z</time></trkpt><trkpt lat="48.80189082" lon="9.1734875"><ele>337.0</ele><time>2026-04-27T15:33:06.046Z</time></trkpt><trkpt lat="48.80203467" lon="9.17354156"><ele>337.0</ele><time>2026-04-27T15:33:08.051Z</time></trkpt><trkpt lat="48.80211909" lon="9.17357649"><ele>337.0</ele><time>2026-04-27T15:33:09.05Z</time></trkpt><trkpt lat="48.80220267" lon="9.17358127"><ele>337.0</ele><time>2026-04-27T15:33:10.037Z</time></trkpt><trkpt lat="48.80227542" lon="9.17358423"><ele>337.0</ele><time>2026-04-27T15:33:11.041Z</time></trkpt><trkpt lat="48.80235225" lon="9.17361388"><ele>337.0</ele><time>2026-04-27T15:33:12.038Z</time></trkpt><trkpt lat="48.80244465" lon="9.17366188"><ele>337.0</ele><time>2026-04-27T15:33:13.04Z</time></trkpt><trkpt lat="48.80253202" lon="9.17370185"><ele>337.0</ele><time>2026-04-27T15:33:14.041Z</time></trkpt><trkpt lat="48.80261005" lon="9.17373361"><ele>337.3333333333333</ele><time>2026-04-27T15:33:15.042Z</time></trkpt><trkpt lat="48.802693" lon="9.17378018"><ele>337.66666666666663</ele><time>2026-04-27T15:33:16.044Z</time></trkpt><trkpt lat="48.80277159" lon="9.17381422"><ele>338.0</ele><time>2026-04-27T15:33:17.045Z</time></trkpt><trkpt lat="48.80285837" lon="9.17385306"><ele>338.3333333333333</ele><time>2026-04-27T15:33:18.048Z</time></trkpt><trkpt lat="48.80293671" lon="9.17389624"><ele>338.6666666666667</ele><time>2026-04-27T15:33:19.052Z</time></trkpt><trkpt lat="48.80301773" lon="9.17392999"><ele>339.0</ele><time>2026-04-27T15:33:20.05Z</time></trkpt><trkpt lat="48.80311444" lon="9.17398213"><ele>339.0</ele><time>2026-04-27T15:33:21.036Z</time></trkpt><trkpt lat="48.80320711" lon="9.17403296"><ele>339.0</ele><time>2026-04-27T15:33:22.034Z</time></trkpt><trkpt lat="48.80329454" lon="9.17408326"><ele>339.0</ele><time>2026-04-27T15:33:23.036Z</time></trkpt><trkpt lat="48.80338462" lon="9.17412537"><ele>339.0</ele><time>2026-04-27T15:33:24.034Z</time></trkpt><trkpt lat="48.8034698" lon="9.17416902"><ele>339.0</ele><time>2026-04-27T15:33:25.036Z</time></trkpt><trkpt lat="48.80356147" lon="9.17421751"><ele>339.0</ele><time>2026-04-27T15:33:26.034Z</time></trkpt><trkpt lat="48.80365426" lon="9.17428041"><ele>339.0</ele><time>2026-04-27T15:33:27.036Z</time></trkpt><trkpt lat="48.80382115" lon="9.17437335"><ele>339.0</ele><time>2026-04-27T15:33:29.037Z</time></trkpt><trkpt lat="48.80390485" lon="9.17441668"><ele>339.0</ele><time>2026-04-27T15:33:30.042Z</time></trkpt><trkpt lat="48.80399513" lon="9.17445316"><ele>339.0</ele><time>2026-04-27T15:33:31.043Z</time></trkpt><trkpt lat="48.80408094" lon="9.17450232"><ele>339.0</ele><time>2026-04-27T15:33:32.046Z</time></trkpt><trkpt lat="48.80416006" lon="9.17454022"><ele>339.0</ele><time>2026-04-27T15:33:33.048Z</time></trkpt><trkpt lat="48.80425639" lon="9.17457524"><ele>339.0</ele><time>2026-04-27T15:33:34.048Z</time></trkpt><trkpt lat="48.80432388" lon="9.17462438"><ele>339.0</ele><time>2026-04-27T15:33:35.05Z</time></trkpt><trkpt lat="48.80440803" lon="9.1746593"><ele>339.0</ele><time>2026-04-27T15:33:36.053Z</time></trkpt><trkpt lat="48.8044913" lon="9.17470861"><ele>339.0</ele><time>2026-04-27T15:33:37.037Z</time></trkpt><trkpt lat="48.80455824" lon="9.17473511"><ele>339.0</ele><time>2026-04-27T15:33:38.035Z</time></trkpt><trkpt lat="48.80463776" lon="9.17477585"><ele>339.0</ele><time>2026-04-27T15:33:39.037Z</time></trkpt><trkpt lat="48.80472331" lon="9.1748086"><ele>339.0</ele><time>2026-04-27T15:33:40.04Z</time></trkpt><trkpt lat="48.80479875" lon="9.17483661"><ele>339.0</ele><time>2026-04-27T15:33:41.033Z</time></trkpt><trkpt lat="48.80489522" lon="9.17488077"><ele>339.0</ele><time>2026-04-27T15:33:41.986Z</time></trkpt><trkpt lat="48.80498215" lon="9.17492576"><ele>338.0</ele><time>2026-04-27T15:33:43.034Z</time></trkpt><trkpt lat="48.80506645" lon="9.17498589"><ele>337.0</ele><time>2026-04-27T15:33:44.037Z</time></trkpt><trkpt lat="48.80515166" lon="9.17503481"><ele>336.0</ele><time>2026-04-27T15:33:45.039Z</time></trkpt><trkpt lat="48.80524426" lon="9.17506758"><ele>335.0</ele><time>2026-04-27T15:33:46.035Z</time></trkpt><trkpt lat="48.80531777" lon="9.17509908"><ele>334.0</ele><time>2026-04-27T15:33:47.036Z</time></trkpt><trkpt lat="48.80540018" lon="9.17513953"><ele>333.0</ele><time>2026-04-27T15:33:48.039Z</time></trkpt><trkpt lat="48.80557306" lon="9.17520806"><ele>333.0</ele><time>2026-04-27T15:33:50.043Z</time></trkpt><trkpt lat="48.80565855" lon="9.17524534"><ele>333.0</ele><time>2026-04-27T15:33:51.04Z</time></trkpt><trkpt lat="48.80576245" lon="9.1753147"><ele>333.0</ele><time>2026-04-27T15:33:52.038Z</time></trkpt><trkpt lat="48.80584601" lon="9.17536021"><ele>333.0</ele><time>2026-04-27T15:33:53.041Z</time></trkpt><trkpt lat="48.80593469" lon="9.17541412"><ele>333.0</ele><time>2026-04-27T15:33:54.038Z</time></trkpt><trkpt lat="48.80602371" lon="9.17546028"><ele>332.4</ele><time>2026-04-27T15:33:55.033Z</time></trkpt><trkpt lat="48.80610567" lon="9.17551925"><ele>331.79999999999995</ele><time>2026-04-27T15:33:56.038Z</time></trkpt><trkpt lat="48.80619123" lon="9.17558564"><ele>331.2</ele><time>2026-04-27T15:33:57.039Z</time></trkpt><trkpt lat="48.80627514" lon="9.17566223"><ele>330.6</ele><time>2026-04-27T15:33:58.036Z</time></trkpt><trkpt lat="48.80636203" lon="9.17574041"><ele>330.0</ele><time>2026-04-27T15:33:59.037Z</time></trkpt><trkpt lat="48.80643684" lon="9.17579843"><ele>329.0</ele><time>2026-04-27T15:34:00.036Z</time></trkpt><trkpt lat="48.80652811" lon="9.17588886"><ele>328.0</ele><time>2026-04-27T15:34:01.038Z</time></trkpt><trkpt lat="48.80661592" lon="9.17596325"><ele>327.0</ele><time>2026-04-27T15:34:02.038Z</time></trkpt><trkpt lat="48.80668921" lon="9.17604164"><ele>326.0</ele><time>2026-04-27T15:34:03.035Z</time></trkpt><trkpt lat="48.80674603" lon="9.17612744"><ele>325.0</ele><time>2026-04-27T15:34:04.037Z</time></trkpt><trkpt lat="48.80680219" lon="9.17622098"><ele>325.0</ele><time>2026-04-27T15:34:05.039Z</time></trkpt><trkpt lat="48.80682751" lon="9.17631178"><ele>325.0</ele><time>2026-04-27T15:34:06.038Z</time></trkpt><trkpt lat="48.80684368" lon="9.17641059"><ele>325.0</ele><time>2026-04-27T15:34:07.036Z</time></trkpt><trkpt lat="48.8069076" lon="9.17654367"><ele>325.0</ele><time>2026-04-27T15:34:09.039Z</time></trkpt><trkpt lat="48.8070358" lon="9.17671603"><ele>325.0</ele><time>2026-04-27T15:34:11.042Z</time></trkpt><trkpt lat="48.80709166" lon="9.17680474"><ele>324.2</ele><time>2026-04-27T15:34:12.043Z</time></trkpt><trkpt lat="48.8071669" lon="9.17690276"><ele>323.4</ele><time>2026-04-27T15:34:13.046Z</time></trkpt><trkpt lat="48.80722378" lon="9.17700188"><ele>322.6</ele><time>2026-04-27T15:34:14.045Z</time></trkpt><trkpt lat="48.80728641" lon="9.17709751"><ele>321.8</ele><time>2026-04-27T15:34:15.048Z</time></trkpt><trkpt lat="48.8073457" lon="9.17719672"><ele>321.0</ele><time>2026-04-27T15:34:16.035Z</time></trkpt><trkpt lat="48.80740178" lon="9.17731244"><ele>320.40000000000003</ele><time>2026-04-27T15:34:17.038Z</time></trkpt><trkpt lat="48.80745186" lon="9.17743161"><ele>319.8</ele><time>2026-04-27T15:34:18.037Z</time></trkpt><trkpt lat="48.80752129" lon="9.17755017"><ele>319.20000000000005</ele><time>2026-04-27T15:34:19.036Z</time></trkpt><trkpt lat="48.80758032" lon="9.17766532"><ele>318.6</ele><time>2026-04-27T15:34:20.042Z</time></trkpt><trkpt lat="48.80762826" lon="9.1777642"><ele>318.0</ele><time>2026-04-27T15:34:21.04Z</time></trkpt><trkpt lat="48.80766972" lon="9.1778705"><ele>318.0</ele><time>2026-04-27T15:34:22.043Z</time></trkpt><trkpt lat="48.80770467" lon="9.17797317"><ele>318.0</ele><time>2026-04-27T15:34:23.045Z</time></trkpt><trkpt lat="48.80776048" lon="9.17807072"><ele>318.0</ele><time>2026-04-27T15:34:24.047Z</time></trkpt><trkpt lat="48.80781107" lon="9.17818531"><ele>318.0</ele><time>2026-04-27T15:34:25.05Z</time></trkpt><trkpt lat="48.8078436" lon="9.17831635"><ele>318.0</ele><time>2026-04-27T15:34:26.049Z</time></trkpt><trkpt lat="48.80788668" lon="9.17846071"><ele>318.0</ele><time>2026-04-27T15:34:27.033Z</time></trkpt><trkpt lat="48.80791113" lon="9.1785794"><ele>317.75</ele><time>2026-04-27T15:34:28.036Z</time></trkpt><trkpt lat="48.80794208" lon="9.17870425"><ele>317.5</ele><time>2026-04-27T15:34:29.039Z</time></trkpt><trkpt lat="48.80797622" lon="9.17883111"><ele>317.25</ele><time>2026-04-27T15:34:30.038Z</time></trkpt><trkpt lat="48.80805537" lon="9.17906881"><ele>317.0</ele><time>2026-04-27T15:34:32.039Z</time></trkpt><trkpt lat="48.80809161" lon="9.17920693"><ele>317.0</ele><time>2026-04-27T15:34:33.042Z</time></trkpt><trkpt lat="48.80811591" lon="9.179311"><ele>317.0</ele><time>2026-04-27T15:34:34.04Z</time></trkpt><trkpt lat="48.80815652" lon="9.17943068"><ele>317.0</ele><time>2026-04-27T15:34:35.042Z</time></trkpt><trkpt lat="48.80819766" lon="9.17954691"><ele>317.0</ele><time>2026-04-27T15:34:36.039Z</time></trkpt><trkpt lat="48.80822002" lon="9.1796603"><ele>317.0</ele><time>2026-04-27T15:34:37.034Z</time></trkpt><trkpt lat="48.80826351" lon="9.17976808"><ele>317.0</ele><time>2026-04-27T15:34:38.04Z</time></trkpt><trkpt lat="48.80829437" lon="9.1798685"><ele>315.83333333333337</ele><time>2026-04-27T15:34:39.035Z</time></trkpt><trkpt lat="48.80833862" lon="9.17998274"><ele>314.6666666666667</ele><time>2026-04-27T15:34:40.035Z</time></trkpt><trkpt lat="48.80837743" lon="9.18006545"><ele>313.5</ele><time>2026-04-27T15:34:41.039Z</time></trkpt><trkpt lat="48.80841627" lon="9.18015815"><ele>312.3333333333333</ele><time>2026-04-27T15:34:42.042Z</time></trkpt><trkpt lat="48.80849242" lon="9.1803083"><ele>311.16666666666663</ele><time>2026-04-27T15:34:44.038Z</time></trkpt><trkpt lat="48.80853372" lon="9.18039296"><ele>310.0</ele><time>2026-04-27T15:34:45.037Z</time></trkpt><trkpt lat="48.80861008" lon="9.18056553"><ele>310.0</ele><time>2026-04-27T15:34:47.035Z</time></trkpt><trkpt lat="48.80864869" lon="9.1806706"><ele>310.0</ele><time>2026-04-27T15:34:48.041Z</time></trkpt><trkpt lat="48.80868765" lon="9.1807664"><ele>310.0</ele><time>2026-04-27T15:34:49.045Z</time></trkpt><trkpt lat="48.80872629" lon="9.18086318"><ele>310.0</ele><time>2026-04-27T15:34:50.035Z</time></trkpt><trkpt lat="48.80876289" lon="9.1809617"><ele>310.0</ele><time>2026-04-27T15:34:51.034Z</time></trkpt><trkpt lat="48.80881236" lon="9.18116099"><ele>310.0</ele><time>2026-04-27T15:34:53.039Z</time></trkpt><trkpt lat="48.80886261" lon="9.18131905"><ele>309.6</ele><time>2026-04-27T15:34:55.038Z</time></trkpt><trkpt lat="48.80888142" lon="9.18143387"><ele>309.2</ele><time>2026-04-27T15:34:57.041Z</time></trkpt><trkpt lat="48.80887256" lon="9.1815306"><ele>308.8</ele><time>2026-04-27T15:34:58.043Z</time></trkpt><trkpt lat="48.80886088" lon="9.18164758"><ele>308.4</ele><time>2026-04-27T15:35:01.05Z</time></trkpt><trkpt lat="48.80885703" lon="9.1818185"><ele>308.0</ele><time>2026-04-27T15:35:03.05Z</time></trkpt><trkpt lat="48.80884812" lon="9.18199698"><ele>307.5</ele><time>2026-04-27T15:35:04.04Z</time></trkpt><trkpt lat="48.80884854" lon="9.18217573"><ele>307.0</ele><time>2026-04-27T15:35:05.037Z</time></trkpt><trkpt lat="48.80884523" lon="9.18228437"><ele>306.5</ele><time>2026-04-27T15:35:06.037Z</time></trkpt><trkpt lat="48.80884095" lon="9.1823897"><ele>306.0</ele><time>2026-04-27T15:35:07.039Z</time></trkpt><trkpt lat="48.80883141" lon="9.18248871"><ele>305.5</ele><time>2026-04-27T15:35:08.041Z</time></trkpt><trkpt lat="48.80883507" lon="9.18259422"><ele>305.0</ele><time>2026-04-27T15:35:09.044Z</time></trkpt><trkpt lat="48.80884178" lon="9.18270497"><ele>305.0</ele><time>2026-04-27T15:35:10.044Z</time></trkpt><trkpt lat="48.80883613" lon="9.18290583"><ele>305.0</ele><time>2026-04-27T15:35:12.046Z</time></trkpt><trkpt lat="48.80882263" lon="9.18320354"><ele>305.0</ele><time>2026-04-27T15:35:15.038Z</time></trkpt><trkpt lat="48.8088419" lon="9.18329698"><ele>305.0</ele><time>2026-04-27T15:35:16.039Z</time></trkpt><trkpt lat="48.80888491" lon="9.1834697"><ele>304.8</ele><time>2026-04-27T15:35:18.036Z</time></trkpt><trkpt lat="48.80886637" lon="9.18363549"><ele>304.6</ele><time>2026-04-27T15:35:20.046Z</time></trkpt><trkpt lat="48.80881972" lon="9.18377988"><ele>304.4</ele><time>2026-04-27T15:35:22.035Z</time></trkpt><trkpt lat="48.80875378" lon="9.18391214"><ele>304.2</ele><time>2026-04-27T15:35:24.038Z</time></trkpt><trkpt lat="48.8086537" lon="9.18401213"><ele>304.0</ele><time>2026-04-27T15:35:26.037Z</time></trkpt><trkpt lat="48.80855546" lon="9.1841039"><ele>304.25</ele><time>2026-04-27T15:35:28.038Z</time></trkpt><trkpt lat="48.80845859" lon="9.18420576"><ele>304.5</ele><time>2026-04-27T15:35:30.038Z</time></trkpt><trkpt lat="48.80835369" lon="9.18428819"><ele>304.75</ele><time>2026-04-27T15:35:32.036Z</time></trkpt><trkpt lat="48.80827941" lon="9.18435663"><ele>305.0</ele><time>2026-04-27T15:35:35.042Z</time></trkpt><trkpt lat="48.80810312" lon="9.18448006"><ele>305.0</ele><time>2026-04-27T15:35:39.044Z</time></trkpt><trkpt lat="48.80803718" lon="9.18459132"><ele>305.0</ele><time>2026-04-27T15:35:41.035Z</time></trkpt><trkpt lat="48.80804866" lon="9.18471213"><ele>305.0</ele><time>2026-04-27T15:35:43.036Z</time></trkpt><trkpt lat="48.80809418" lon="9.18485359"><ele>305.0</ele><time>2026-04-27T15:35:45.037Z</time></trkpt><trkpt lat="48.80812727" lon="9.18500788"><ele>305.0</ele><time>2026-04-27T15:35:47.042Z</time></trkpt><trkpt lat="48.80815657" lon="9.18516257"><ele>302.75</ele><time>2026-04-27T15:35:49.048Z</time></trkpt><trkpt lat="48.80819001" lon="9.18533646"><ele>300.5</ele><time>2026-04-27T15:35:51.049Z</time></trkpt><trkpt lat="48.80823642" lon="9.18550062"><ele>298.25</ele><time>2026-04-27T15:35:53.001Z</time></trkpt><trkpt lat="48.80833193" lon="9.1856226"><ele>296.0</ele><time>2026-04-27T15:35:55.035Z</time></trkpt><trkpt lat="48.80843932" lon="9.18572217"><ele>295.75</ele><time>2026-04-27T15:35:57.038Z</time></trkpt><trkpt lat="48.80863998" lon="9.18589452"><ele>295.5</ele><time>2026-04-27T15:36:01.039Z</time></trkpt><trkpt lat="48.80869716" lon="9.18593993"><ele>295.25</ele><time>2026-04-27T15:36:02.038Z</time></trkpt><trkpt lat="48.80880159" lon="9.18601761"><ele>295.0</ele><time>2026-04-27T15:36:04.038Z</time></trkpt><trkpt lat="48.80889464" lon="9.18610855"><ele>295.0</ele><time>2026-04-27T15:36:06.039Z</time></trkpt><trkpt lat="48.80899111" lon="9.18614291"><ele>295.0</ele><time>2026-04-27T15:36:08.032Z</time></trkpt><trkpt lat="48.80906353" lon="9.18608658"><ele>295.0</ele><time>2026-04-27T15:36:10.04Z</time></trkpt><trkpt lat="48.80908524" lon="9.18599159"><ele>295.0</ele><time>2026-04-27T15:36:11.038Z</time></trkpt><trkpt lat="48.80914065" lon="9.18584949"><ele>295.0</ele><time>2026-04-27T15:36:13.041Z</time></trkpt><trkpt lat="48.80917719" lon="9.18568068"><ele>295.0</ele><time>2026-04-27T15:36:15.046Z</time></trkpt><trkpt lat="48.80919033" lon="9.18548941"><ele>295.0</ele><time>2026-04-27T15:36:17.033Z</time></trkpt><trkpt lat="48.80914913" lon="9.18539673"><ele>295.0</ele><time>2026-04-27T15:36:19.037Z</time></trkpt><trkpt lat="48.80902301" lon="9.18559874"><ele>295.0</ele><time>2026-04-27T15:36:23.04Z</time></trkpt><trkpt lat="48.80894365" lon="9.18573763"><ele>295.0</ele><time>2026-04-27T15:36:25.045Z</time></trkpt><trkpt lat="48.80889597" lon="9.18581721"><ele>295.0</ele><time>2026-04-27T15:36:26.046Z</time></trkpt><trkpt lat="48.80884881" lon="9.18590579"><ele>295.0</ele><time>2026-04-27T15:36:27.048Z</time></trkpt><trkpt lat="48.80880408" lon="9.18599354"><ele>295.0</ele><time>2026-04-27T15:36:28.048Z</time></trkpt><trkpt lat="48.80876394" lon="9.1861085"><ele>295.0</ele><time>2026-04-27T15:36:29.051Z</time></trkpt><trkpt lat="48.80871917" lon="9.18620839"><ele>295.0</ele><time>2026-04-27T15:36:30.037Z</time></trkpt><trkpt lat="48.8086774" lon="9.18629594"><ele>295.0</ele><time>2026-04-27T15:36:31.04Z</time></trkpt><trkpt lat="48.80864442" lon="9.18642114"><ele>295.0</ele><time>2026-04-27T15:36:32.039Z</time></trkpt><trkpt lat="48.8086074" lon="9.18652801"><ele>295.0</ele><time>2026-04-27T15:36:33.04Z</time></trkpt><trkpt lat="48.80857132" lon="9.18664714"><ele>295.0</ele><time>2026-04-27T15:36:34.033Z</time></trkpt><trkpt lat="48.80854054" lon="9.18676732"><ele>295.0</ele><time>2026-04-27T15:36:35.033Z</time></trkpt><trkpt lat="48.8085024" lon="9.18688611"><ele>295.0</ele><time>2026-04-27T15:36:36.037Z</time></trkpt><trkpt lat="48.80845745" lon="9.18699672"><ele>294.0</ele><time>2026-04-27T15:36:37.038Z</time></trkpt><trkpt lat="48.80841242" lon="9.18711465"><ele>293.0</ele><time>2026-04-27T15:36:38.034Z</time></trkpt><trkpt lat="48.80836109" lon="9.18722066"><ele>292.0</ele><time>2026-04-27T15:36:39.038Z</time></trkpt><trkpt lat="48.80831249" lon="9.18731616"><ele>291.0</ele><time>2026-04-27T15:36:40.034Z</time></trkpt><trkpt lat="48.80822223" lon="9.18752677"><ele>290.0</ele><time>2026-04-27T15:36:42.035Z</time></trkpt><trkpt lat="48.80818086" lon="9.18762865"><ele>288.6666666666667</ele><time>2026-04-27T15:36:43.035Z</time></trkpt><trkpt lat="48.80814234" lon="9.1877315"><ele>287.33333333333337</ele><time>2026-04-27T15:36:44.039Z</time></trkpt><trkpt lat="48.80810575" lon="9.18783628"><ele>286.0</ele><time>2026-04-27T15:36:45.039Z</time></trkpt><trkpt lat="48.80807923" lon="9.18794204"><ele>284.6666666666667</ele><time>2026-04-27T15:36:46.04Z</time></trkpt><trkpt lat="48.8080447" lon="9.18803792"><ele>283.3333333333333</ele><time>2026-04-27T15:36:47.037Z</time></trkpt><trkpt lat="48.80799241" lon="9.18821104"><ele>282.0</ele><time>2026-04-27T15:36:49.041Z</time></trkpt><trkpt lat="48.80795478" lon="9.1883626"><ele>280.8</ele><time>2026-04-27T15:36:51.05Z</time></trkpt><trkpt lat="48.80791609" lon="9.18847818"><ele>279.6</ele><time>2026-04-27T15:36:53.041Z</time></trkpt><trkpt lat="48.80787889" lon="9.18855927"><ele>278.40000000000003</ele><time>2026-04-27T15:36:56.043Z</time></trkpt><trkpt lat="48.80784114" lon="9.18864913"><ele>277.2</ele><time>2026-04-27T15:37:00.037Z</time></trkpt><trkpt lat="48.80781484" lon="9.1887665"><ele>276.0</ele><time>2026-04-27T15:37:02.035Z</time></trkpt><trkpt lat="48.80779276" lon="9.1890402"><ele>275.6</ele><time>2026-04-27T15:37:06.042Z</time></trkpt><trkpt lat="48.80782262" lon="9.18913739"><ele>275.20000000000005</ele><time>2026-04-27T15:37:09.05Z</time></trkpt><trkpt lat="48.8078845" lon="9.18919031"><ele>274.79999999999995</ele><time>2026-04-27T15:37:48.045Z</time></trkpt><trkpt lat="48.80785427" lon="9.18942686"><ele>274.4</ele><time>2026-04-27T15:37:53.005Z</time></trkpt><trkpt lat="48.80781461" lon="9.1895518"><ele>274.0</ele><time>2026-04-27T15:37:55.057Z</time></trkpt><trkpt lat="48.80782936" lon="9.18969477"><ele>274.0</ele><time>2026-04-27T15:37:57.044Z</time></trkpt><trkpt lat="48.80790521" lon="9.18978762"><ele>274.0</ele><time>2026-04-27T15:37:59.047Z</time></trkpt><trkpt lat="48.80798756" lon="9.18987093"><ele>274.0</ele><time>2026-04-27T15:38:01.05Z</time></trkpt><trkpt lat="48.80807215" lon="9.1899557"><ele>274.0</ele><time>2026-04-27T15:38:03.055Z</time></trkpt><trkpt lat="48.80812448" lon="9.19002033"><ele>274.0</ele><time>2026-04-27T15:38:04.054Z</time></trkpt><trkpt lat="48.80820402" lon="9.19014702"><ele>274.5</ele><time>2026-04-27T15:38:05.973Z</time></trkpt><trkpt lat="48.80827143" lon="9.19028091"><ele>275.0</ele><time>2026-04-27T15:38:08.039Z</time></trkpt><trkpt lat="48.80837568" lon="9.19039402"><ele>275.5</ele><time>2026-04-27T15:38:10.04Z</time></trkpt><trkpt lat="48.80848543" lon="9.19051627"><ele>276.0</ele><time>2026-04-27T15:38:12.047Z</time></trkpt><trkpt lat="48.80854732" lon="9.19058329"><ele>276.0</ele><time>2026-04-27T15:38:13.047Z</time></trkpt><trkpt lat="48.80861842" lon="9.19062847"><ele>276.0</ele><time>2026-04-27T15:38:14.048Z</time></trkpt><trkpt lat="48.80866199" lon="9.19072219"><ele>276.0</ele><time>2026-04-27T15:38:15.037Z</time></trkpt><trkpt lat="48.80876044" lon="9.1909005"><ele>276.0</ele><time>2026-04-27T15:38:17.042Z</time></trkpt><trkpt lat="48.80882711" lon="9.19097158"><ele>276.0</ele><time>2026-04-27T15:38:18.039Z</time></trkpt><trkpt lat="48.80888745" lon="9.19106573"><ele>276.1666666666667</ele><time>2026-04-27T15:38:19.038Z</time></trkpt><trkpt lat="48.8089379" lon="9.19115401"><ele>276.3333333333333</ele><time>2026-04-27T15:38:20.033Z</time></trkpt><trkpt lat="48.80898638" lon="9.19123905"><ele>276.5</ele><time>2026-04-27T15:38:21.038Z</time></trkpt><trkpt lat="48.80903853" lon="9.19133559"><ele>276.66666666666663</ele><time>2026-04-27T15:38:22.028Z</time></trkpt><trkpt lat="48.80909129" lon="9.19142433"><ele>276.8333333333333</ele><time>2026-04-27T15:38:23.04Z</time></trkpt><trkpt lat="48.80914572" lon="9.1915147"><ele>277.0</ele><time>2026-04-27T15:38:24.041Z</time></trkpt><trkpt lat="48.8091908" lon="9.19161619"><ele>277.0</ele><time>2026-04-27T15:38:25.038Z</time></trkpt><trkpt lat="48.80922689" lon="9.19171043"><ele>277.0</ele><time>2026-04-27T15:38:26.035Z</time></trkpt><trkpt lat="48.80928332" lon="9.19181566"><ele>277.0</ele><time>2026-04-27T15:38:27.038Z</time></trkpt><trkpt lat="48.80932666" lon="9.19190579"><ele>277.0</ele><time>2026-04-27T15:38:28.036Z</time></trkpt><trkpt lat="48.80937383" lon="9.19201411"><ele>277.0</ele><time>2026-04-27T15:38:29.039Z</time></trkpt><trkpt lat="48.8094118" lon="9.19213166"><ele>277.0</ele><time>2026-04-27T15:38:30.039Z</time></trkpt><trkpt lat="48.80945605" lon="9.19225112"><ele>277.2</ele><time>2026-04-27T15:38:31.036Z</time></trkpt><trkpt lat="48.80951473" lon="9.19247964"><ele>277.4</ele><time>2026-04-27T15:38:33.034Z</time></trkpt><trkpt lat="48.80953949" lon="9.19257941"><ele>277.6</ele><time>2026-04-27T15:38:34.036Z</time></trkpt><trkpt lat="48.80955783" lon="9.1926757"><ele>277.8</ele><time>2026-04-27T15:38:35.041Z</time></trkpt><trkpt lat="48.80958246" lon="9.1928454"><ele>278.0</ele><time>2026-04-27T15:38:37.04Z</time></trkpt><trkpt lat="48.80960268" lon="9.19300521"><ele>278.0</ele><time>2026-04-27T15:38:39.038Z</time></trkpt><trkpt lat="48.80962736" lon="9.19313522"><ele>278.0</ele><time>2026-04-27T15:38:42.034Z</time></trkpt><trkpt lat="48.8096418" lon="9.19324307"><ele>278.0</ele><time>2026-04-27T15:38:47.035Z</time></trkpt><trkpt lat="48.80966077" lon="9.19335024"><ele>278.0</ele><time>2026-04-27T15:38:52.036Z</time></trkpt><trkpt lat="48.80971543" lon="9.19360601"><ele>278.0</ele><time>2026-04-27T15:38:56.038Z</time></trkpt><trkpt lat="48.80975847" lon="9.19374263"><ele>276.8</ele><time>2026-04-27T15:38:58.043Z</time></trkpt><trkpt lat="48.8097901" lon="9.19389787"><ele>275.6</ele><time>2026-04-27T15:39:00.046Z</time></trkpt><trkpt lat="48.80981182" lon="9.19406008"><ele>274.4</ele><time>2026-04-27T15:39:02.048Z</time></trkpt><trkpt lat="48.80983514" lon="9.1942269"><ele>273.2</ele><time>2026-04-27T15:39:04.037Z</time></trkpt><trkpt lat="48.80985631" lon="9.1944068"><ele>272.0</ele><time>2026-04-27T15:39:06.04Z</time></trkpt><trkpt lat="48.80986348" lon="9.19450344"><ele>271.71428571428567</ele><time>2026-04-27T15:39:07.04Z</time></trkpt><trkpt lat="48.8098692" lon="9.1946021"><ele>271.42857142857144</ele><time>2026-04-27T15:39:08.042Z</time></trkpt><trkpt lat="48.80987827" lon="9.19469974"><ele>271.1428571428571</ele><time>2026-04-27T15:39:09.044Z</time></trkpt><trkpt lat="48.80988307" lon="9.1948038"><ele>270.85714285714283</ele><time>2026-04-27T15:39:10.046Z</time></trkpt><trkpt lat="48.80988813" lon="9.19490577"><ele>270.57142857142856</ele><time>2026-04-27T15:39:11.05Z</time></trkpt><trkpt lat="48.80990211" lon="9.19502563"><ele>270.2857142857143</ele><time>2026-04-27T15:39:12.033Z</time></trkpt><trkpt lat="48.80991268" lon="9.1951344"><ele>270.0</ele><time>2026-04-27T15:39:13.05Z</time></trkpt><trkpt lat="48.80992803" lon="9.19543908"><ele>269.7142857142857</ele><time>2026-04-27T15:39:16.038Z</time></trkpt><trkpt lat="48.80994045" lon="9.19553853"><ele>269.4285714285714</ele><time>2026-04-27T15:39:17.038Z</time></trkpt><trkpt lat="48.80994641" lon="9.19564459"><ele>269.1428571428571</ele><time>2026-04-27T15:39:18.04Z</time></trkpt><trkpt lat="48.8099618" lon="9.19576435"><ele>268.85714285714283</ele><time>2026-04-27T15:39:19.036Z</time></trkpt><trkpt lat="48.80996518" lon="9.19586784"><ele>268.57142857142856</ele><time>2026-04-27T15:39:20.042Z</time></trkpt><trkpt lat="48.80997223" lon="9.19598135"><ele>268.2857142857143</ele><time>2026-04-27T15:39:21.03Z</time></trkpt><trkpt lat="48.80997213" lon="9.19609557"><ele>268.0</ele><time>2026-04-27T15:39:22.042Z</time></trkpt><trkpt lat="48.80998025" lon="9.19620887"><ele>268.0</ele><time>2026-04-27T15:39:23.044Z</time></trkpt><trkpt lat="48.80998718" lon="9.19631578"><ele>268.0</ele><time>2026-04-27T15:39:24.046Z</time></trkpt><trkpt lat="48.80999521" lon="9.19643265"><ele>268.0</ele><time>2026-04-27T15:39:25.047Z</time></trkpt><trkpt lat="48.81000405" lon="9.19654905"><ele>268.0</ele><time>2026-04-27T15:39:26.029Z</time></trkpt><trkpt lat="48.81001189" lon="9.19666301"><ele>268.0</ele><time>2026-04-27T15:39:27.025Z</time></trkpt><trkpt lat="48.81002253" lon="9.19677457"><ele>268.0</ele><time>2026-04-27T15:39:28.032Z</time></trkpt><trkpt lat="48.8100356" lon="9.19688289"><ele>268.0</ele><time>2026-04-27T15:39:29.036Z</time></trkpt><trkpt lat="48.8100471" lon="9.19699288"><ele>267.6</ele><time>2026-04-27T15:39:30.035Z</time></trkpt><trkpt lat="48.81005619" lon="9.19710556"><ele>267.20000000000005</ele><time>2026-04-27T15:39:31.03Z</time></trkpt><trkpt lat="48.81006399" lon="9.19721781"><ele>266.8</ele><time>2026-04-27T15:39:32.041Z</time></trkpt><trkpt lat="48.81007411" lon="9.19733301"><ele>266.40000000000003</ele><time>2026-04-27T15:39:33.032Z</time></trkpt><trkpt lat="48.81008492" lon="9.19744519"><ele>266.0</ele><time>2026-04-27T15:39:34.041Z</time></trkpt><trkpt lat="48.81009867" lon="9.19767486"><ele>265.33333333333337</ele><time>2026-04-27T15:39:36.039Z</time></trkpt><trkpt lat="48.81010132" lon="9.19779156"><ele>264.6666666666667</ele><time>2026-04-27T15:39:37.045Z</time></trkpt><trkpt lat="48.81010632" lon="9.197908"><ele>264.0</ele><time>2026-04-27T15:39:38.036Z</time></trkpt><trkpt lat="48.81011255" lon="9.19801046"><ele>263.3333333333333</ele><time>2026-04-27T15:39:39.043Z</time></trkpt><trkpt lat="48.81012615" lon="9.1981274"><ele>262.66666666666663</ele><time>2026-04-27T15:39:40.029Z</time></trkpt><trkpt lat="48.81013423" lon="9.19824224"><ele>262.0</ele><time>2026-04-27T15:39:41.035Z</time></trkpt><trkpt lat="48.81014039" lon="9.19836025"><ele>261.8571428571429</ele><time>2026-04-27T15:39:41.977Z</time></trkpt><trkpt lat="48.81014899" lon="9.19846948"><ele>261.7142857142857</ele><time>2026-04-27T15:39:42.974Z</time></trkpt><trkpt lat="48.81015468" lon="9.19858152"><ele>261.57142857142856</ele><time>2026-04-27T15:39:44.044Z</time></trkpt><trkpt lat="48.81016194" lon="9.19869351"><ele>261.42857142857144</ele><time>2026-04-27T15:39:45.041Z</time></trkpt><trkpt lat="48.81016385" lon="9.19880685"><ele>261.2857142857143</ele><time>2026-04-27T15:39:46.032Z</time></trkpt><trkpt lat="48.8101744" lon="9.19892617"><ele>261.14285714285717</ele><time>2026-04-27T15:39:47.045Z</time></trkpt><trkpt lat="48.81017866" lon="9.19902846"><ele>261.0</ele><time>2026-04-27T15:39:48.048Z</time></trkpt><trkpt lat="48.81018505" lon="9.19914499"><ele>262.0</ele><time>2026-04-27T15:39:49.04Z</time></trkpt><trkpt lat="48.81019984" lon="9.19925695"><ele>263.0</ele><time>2026-04-27T15:39:50.049Z</time></trkpt><trkpt lat="48.81020971" lon="9.19935863"><ele>264.0</ele><time>2026-04-27T15:39:51.042Z</time></trkpt><trkpt lat="48.81023245" lon="9.19947527"><ele>265.0</ele><time>2026-04-27T15:39:52.042Z</time></trkpt><trkpt lat="48.81025453" lon="9.19958279"><ele>266.0</ele><time>2026-04-27T15:39:53.032Z</time></trkpt><trkpt lat="48.81027141" lon="9.19969138"><ele>267.0</ele><time>2026-04-27T15:39:54.041Z</time></trkpt><trkpt lat="48.810292" lon="9.19979597"><ele>268.0</ele><time>2026-04-27T15:39:55.043Z</time></trkpt><trkpt lat="48.81032647" lon="9.20000768"><ele>268.0</ele><time>2026-04-27T15:39:57.042Z</time></trkpt><trkpt lat="48.81035002" lon="9.20010602"><ele>268.0</ele><time>2026-04-27T15:39:58.044Z</time></trkpt><trkpt lat="48.8103891" lon="9.20030033"><ele>268.0</ele><time>2026-04-27T15:40:00.048Z</time></trkpt><trkpt lat="48.81043414" lon="9.2004685"><ele>268.0</ele><time>2026-04-27T15:40:02.044Z</time></trkpt><trkpt lat="48.81046372" lon="9.20055873"><ele>268.0</ele><time>2026-04-27T15:40:03.04Z</time></trkpt><trkpt lat="48.8104969" lon="9.20065344"><ele>267.8333333333333</ele><time>2026-04-27T15:40:04.044Z</time></trkpt><trkpt lat="48.81052767" lon="9.20074527"><ele>267.66666666666663</ele><time>2026-04-27T15:40:05.046Z</time></trkpt><trkpt lat="48.81055263" lon="9.20092307"><ele>267.5</ele><time>2026-04-27T15:40:07.05Z</time></trkpt><trkpt lat="48.81057108" lon="9.20101917"><ele>267.3333333333333</ele><time>2026-04-27T15:40:08.052Z</time></trkpt><trkpt lat="48.81060426" lon="9.20112084"><ele>267.1666666666667</ele><time>2026-04-27T15:40:09.053Z</time></trkpt><trkpt lat="48.81064901" lon="9.2012075"><ele>267.0</ele><time>2026-04-27T15:40:10.041Z</time></trkpt><trkpt lat="48.81069798" lon="9.20127865"><ele>267.0</ele><time>2026-04-27T15:40:11.039Z</time></trkpt><trkpt lat="48.81074629" lon="9.20135072"><ele>267.0</ele><time>2026-04-27T15:40:12.044Z</time></trkpt><trkpt lat="48.81078815" lon="9.20143187"><ele>267.0</ele><time>2026-04-27T15:40:13.045Z</time></trkpt><trkpt lat="48.81082796" lon="9.20151469"><ele>267.0</ele><time>2026-04-27T15:40:14.047Z</time></trkpt><trkpt lat="48.81087554" lon="9.20161035"><ele>267.0</ele><time>2026-04-27T15:40:15.045Z</time></trkpt><trkpt lat="48.81091686" lon="9.20169566"><ele>267.0</ele><time>2026-04-27T15:40:16.048Z</time></trkpt><trkpt lat="48.81102969" lon="9.20184887"><ele>267.42857142857144</ele><time>2026-04-27T15:40:18.052Z</time></trkpt><trkpt lat="48.81107143" lon="9.20192159"><ele>267.8571428571429</ele><time>2026-04-27T15:40:19.055Z</time></trkpt><trkpt lat="48.81112718" lon="9.20198537"><ele>268.2857142857143</ele><time>2026-04-27T15:40:20.055Z</time></trkpt><trkpt lat="48.81118668" lon="9.20204026"><ele>268.7142857142857</ele><time>2026-04-27T15:40:21.042Z</time></trkpt><trkpt lat="48.81123886" lon="9.2021148"><ele>269.1428571428571</ele><time>2026-04-27T15:40:22.025Z</time></trkpt><trkpt lat="48.81129856" lon="9.20217875"><ele>269.57142857142856</ele><time>2026-04-27T15:40:23.045Z</time></trkpt><trkpt lat="48.81134968" lon="9.20223607"><ele>270.0</ele><time>2026-04-27T15:40:24.047Z</time></trkpt><trkpt lat="48.81140565" lon="9.20230168"><ele>269.5</ele><time>2026-04-27T15:40:25.053Z</time></trkpt><trkpt lat="48.81146616" lon="9.20235641"><ele>269.0</ele><time>2026-04-27T15:40:26.04Z</time></trkpt><trkpt lat="48.81152616" lon="9.20240592"><ele>268.5</ele><time>2026-04-27T15:40:27.039Z</time></trkpt><trkpt lat="48.8115869" lon="9.20245848"><ele>268.0</ele><time>2026-04-27T15:40:28.032Z</time></trkpt><trkpt lat="48.81164526" lon="9.20251325"><ele>267.5</ele><time>2026-04-27T15:40:29.043Z</time></trkpt><trkpt lat="48.81172129" lon="9.2025918"><ele>267.0</ele><time>2026-04-27T15:40:30.048Z</time></trkpt><trkpt lat="48.81180888" lon="9.20269255"><ele>266.4</ele><time>2026-04-27T15:40:32.044Z</time></trkpt><trkpt lat="48.81191867" lon="9.20278652"><ele>265.79999999999995</ele><time>2026-04-27T15:40:34.053Z</time></trkpt><trkpt lat="48.81197449" lon="9.20284579"><ele>265.2</ele><time>2026-04-27T15:40:35.047Z</time></trkpt><trkpt lat="48.81204178" lon="9.20290413"><ele>264.59999999999997</ele><time>2026-04-27T15:40:36.048Z</time></trkpt><trkpt lat="48.8121001" lon="9.202943"><ele>264.0</ele><time>2026-04-27T15:40:37.042Z</time></trkpt><trkpt lat="48.81222835" lon="9.20303131"><ele>264.0</ele><time>2026-04-27T15:40:39.046Z</time></trkpt><trkpt lat="48.81230132" lon="9.20308192"><ele>264.0</ele><time>2026-04-27T15:40:40.046Z</time></trkpt><trkpt lat="48.81237345" lon="9.203137"><ele>264.0</ele><time>2026-04-27T15:40:41.049Z</time></trkpt><trkpt lat="48.81243752" lon="9.20318069"><ele>264.0</ele><time>2026-04-27T15:40:42.05Z</time></trkpt><trkpt lat="48.81250057" lon="9.20322373"><ele>264.0</ele><time>2026-04-27T15:40:43.051Z</time></trkpt><trkpt lat="48.81262206" lon="9.20329981"><ele>264.0</ele><time>2026-04-27T15:40:45.037Z</time></trkpt><trkpt lat="48.81268421" lon="9.20335904"><ele>263.8</ele><time>2026-04-27T15:40:46.058Z</time></trkpt><trkpt lat="48.81274414" lon="9.20340724"><ele>263.59999999999997</ele><time>2026-04-27T15:40:47.043Z</time></trkpt><trkpt lat="48.8128415" lon="9.20346976"><ele>263.4</ele><time>2026-04-27T15:40:48.974Z</time></trkpt><trkpt lat="48.8129333" lon="9.20357625"><ele>263.2</ele><time>2026-04-27T15:40:51.048Z</time></trkpt><trkpt lat="48.81303246" lon="9.20365427"><ele>263.0</ele><time>2026-04-27T15:40:53.053Z</time></trkpt><trkpt lat="48.81313078" lon="9.20370412"><ele>263.0</ele><time>2026-04-27T15:40:55.055Z</time></trkpt><trkpt lat="48.8131965" lon="9.20375187"><ele>263.0</ele><time>2026-04-27T15:40:56.042Z</time></trkpt><trkpt lat="48.8132565" lon="9.20380494"><ele>263.0</ele><time>2026-04-27T15:40:57.045Z</time></trkpt><trkpt lat="48.81338148" lon="9.20386027"><ele>263.0</ele><time>2026-04-27T15:40:59.043Z</time></trkpt><trkpt lat="48.81360231" lon="9.2039801"><ele>263.5</ele><time>2026-04-27T15:41:03.043Z</time></trkpt><trkpt lat="48.81367459" lon="9.20399978"><ele>264.0</ele><time>2026-04-27T15:41:04.05Z</time></trkpt><trkpt lat="48.81373701" lon="9.20402287"><ele>264.5</ele><time>2026-04-27T15:41:04.979Z</time></trkpt><trkpt lat="48.81384026" lon="9.20406005"><ele>265.0</ele><time>2026-04-27T15:41:06.973Z</time></trkpt><trkpt lat="48.81393593" lon="9.20408665"><ele>265.5</ele><time>2026-04-27T15:41:08.979Z</time></trkpt><trkpt lat="48.81403969" lon="9.20409203"><ele>266.0</ele><time>2026-04-27T15:41:11.021Z</time></trkpt><trkpt lat="48.81414896" lon="9.20411892"><ele>266.0</ele><time>2026-04-27T15:41:12.985Z</time></trkpt><trkpt lat="48.81424634" lon="9.20412124"><ele>266.0</ele><time>2026-04-27T15:41:14.98Z</time></trkpt><trkpt lat="48.81436244" lon="9.20413537"><ele>266.0</ele><time>2026-04-27T15:41:16.975Z</time></trkpt><trkpt lat="48.81445735" lon="9.20413766"><ele>266.0</ele><time>2026-04-27T15:41:19.06Z</time></trkpt><trkpt lat="48.81454853" lon="9.2041312"><ele>266.0</ele><time>2026-04-27T15:41:20.972Z</time></trkpt><trkpt lat="48.81471377" lon="9.20409217"><ele>266.2</ele><time>2026-04-27T15:41:23.976Z</time></trkpt><trkpt lat="48.81482572" lon="9.20407647"><ele>266.40000000000003</ele><time>2026-04-27T15:41:26.043Z</time></trkpt><trkpt lat="48.81493175" lon="9.2040231"><ele>266.6</ele><time>2026-04-27T15:41:28.05Z</time></trkpt><trkpt lat="48.81503172" lon="9.20400898"><ele>266.8</ele><time>2026-04-27T15:41:30.045Z</time></trkpt><trkpt lat="48.81511977" lon="9.20395738"><ele>267.0</ele><time>2026-04-27T15:41:32.046Z</time></trkpt><trkpt lat="48.81521094" lon="9.20391907"><ele>267.8</ele><time>2026-04-27T15:41:34.045Z</time></trkpt><trkpt lat="48.81530545" lon="9.20386048"><ele>268.6</ele><time>2026-04-27T15:41:36.045Z</time></trkpt><trkpt lat="48.81539155" lon="9.2037894"><ele>269.40000000000003</ele><time>2026-04-27T15:41:38.045Z</time></trkpt><trkpt lat="48.81548681" lon="9.20372266"><ele>270.2</ele><time>2026-04-27T15:41:40.042Z</time></trkpt><trkpt lat="48.81556203" lon="9.20366616"><ele>271.0</ele><time>2026-04-27T15:41:42.048Z</time></trkpt><trkpt lat="48.81574455" lon="9.20355776"><ele>271.0</ele><time>2026-04-27T15:41:46.041Z</time></trkpt><trkpt lat="48.81583235" lon="9.20348954"><ele>271.0</ele><time>2026-04-27T15:41:48.045Z</time></trkpt><trkpt lat="48.81592472" lon="9.20342301"><ele>271.0</ele><time>2026-04-27T15:41:50.048Z</time></trkpt><trkpt lat="48.81601222" lon="9.20333498"><ele>271.0</ele><time>2026-04-27T15:41:52.051Z</time></trkpt><trkpt lat="48.81609782" lon="9.20326187"><ele>271.0</ele><time>2026-04-27T15:41:54.055Z</time></trkpt><trkpt lat="48.81618389" lon="9.20320429"><ele>272.25</ele><time>2026-04-27T15:41:56.043Z</time></trkpt><trkpt lat="48.81627904" lon="9.20313573"><ele>273.5</ele><time>2026-04-27T15:41:58.06Z</time></trkpt><trkpt lat="48.81637425" lon="9.20308451"><ele>274.75</ele><time>2026-04-27T15:42:00.053Z</time></trkpt><trkpt lat="48.8164704" lon="9.20303193"><ele>276.0</ele><time>2026-04-27T15:42:02.059Z</time></trkpt><trkpt lat="48.81668287" lon="9.20299513"><ele>276.0</ele><time>2026-04-27T15:42:06.045Z</time></trkpt><trkpt lat="48.8167929" lon="9.20297798"><ele>276.0</ele><time>2026-04-27T15:42:08.05Z</time></trkpt><trkpt lat="48.81691509" lon="9.2029827"><ele>276.0</ele><time>2026-04-27T15:42:10.055Z</time></trkpt><trkpt lat="48.81701701" lon="9.20300135"><ele>276.0</ele><time>2026-04-27T15:42:12.036Z</time></trkpt><trkpt lat="48.81709913" lon="9.20303528"><ele>276.0</ele><time>2026-04-27T15:42:14.026Z</time></trkpt><trkpt lat="48.81718834" lon="9.203064"><ele>276.5</ele><time>2026-04-27T15:42:16.049Z</time></trkpt><trkpt lat="48.81728172" lon="9.2031517"><ele>277.0</ele><time>2026-04-27T15:42:18.045Z</time></trkpt><trkpt lat="48.8173425" lon="9.20319366"><ele>277.5</ele><time>2026-04-27T15:42:19.043Z</time></trkpt><trkpt lat="48.81739458" lon="9.20325594"><ele>278.0</ele><time>2026-04-27T15:42:20.048Z</time></trkpt><trkpt lat="48.81745241" lon="9.20335344"><ele>278.5</ele><time>2026-04-27T15:42:22.048Z</time></trkpt><trkpt lat="48.81750984" lon="9.20344597"><ele>279.0</ele><time>2026-04-27T15:42:24.044Z</time></trkpt><trkpt lat="48.81763415" lon="9.20362855"><ele>278.59999999999997</ele><time>2026-04-27T15:42:29.044Z</time></trkpt><trkpt lat="48.81770067" lon="9.20369497"><ele>278.2</ele><time>2026-04-27T15:42:50.054Z</time></trkpt><trkpt lat="48.81779586" lon="9.20385676"><ele>277.79999999999995</ele><time>2026-04-27T15:42:55.044Z</time></trkpt><trkpt lat="48.81783916" lon="9.20394465"><ele>277.4</ele><time>2026-04-27T15:42:57.045Z</time></trkpt><trkpt lat="48.81789953" lon="9.20405312"><ele>277.0</ele><time>2026-04-27T15:42:59.048Z</time></trkpt><trkpt lat="48.81796537" lon="9.20415546"><ele>276.8</ele><time>2026-04-27T15:43:01.053Z</time></trkpt><trkpt lat="48.81803824" lon="9.20426053"><ele>276.6</ele><time>2026-04-27T15:43:03.057Z</time></trkpt><trkpt lat="48.81811577" lon="9.20437665"><ele>276.40000000000003</ele><time>2026-04-27T15:43:05.061Z</time></trkpt><trkpt lat="48.81818843" lon="9.20446481"><ele>276.2</ele><time>2026-04-27T15:43:07.047Z</time></trkpt><trkpt lat="48.8182679" lon="9.20458469"><ele>276.0</ele><time>2026-04-27T15:43:09.042Z</time></trkpt><trkpt lat="48.8183418" lon="9.20468221"><ele>276.5</ele><time>2026-04-27T15:43:11.047Z</time></trkpt><trkpt lat="48.81848145" lon="9.20492149"><ele>277.0</ele><time>2026-04-27T15:43:15.043Z</time></trkpt><trkpt lat="48.81855429" lon="9.20506211"><ele>277.5</ele><time>2026-04-27T15:43:17.041Z</time></trkpt><trkpt lat="48.81863093" lon="9.20520422"><ele>278.0</ele><time>2026-04-27T15:43:19.045Z</time></trkpt><trkpt lat="48.81870983" lon="9.20535417"><ele>278.0</ele><time>2026-04-27T15:43:21.05Z</time></trkpt><trkpt lat="48.81874988" lon="9.20543128"><ele>278.0</ele><time>2026-04-27T15:43:22.053Z</time></trkpt><trkpt lat="48.81879926" lon="9.20552398"><ele>278.0</ele><time>2026-04-27T15:43:23.055Z</time></trkpt><trkpt lat="48.81884535" lon="9.20560535"><ele>278.0</ele><time>2026-04-27T15:43:24.057Z</time></trkpt><trkpt lat="48.81888784" lon="9.20570223"><ele>278.0</ele><time>2026-04-27T15:43:25.042Z</time></trkpt><trkpt lat="48.81893428" lon="9.20580412"><ele>278.0</ele><time>2026-04-27T15:43:26.044Z</time></trkpt><trkpt lat="48.81896969" lon="9.20588818"><ele>278.0</ele><time>2026-04-27T15:43:27.044Z</time></trkpt><trkpt lat="48.81900861" lon="9.20597352"><ele>276.5</ele><time>2026-04-27T15:43:28.044Z</time></trkpt><trkpt lat="48.81905096" lon="9.20607168"><ele>275.0</ele><time>2026-04-27T15:43:29.047Z</time></trkpt><trkpt lat="48.81909816" lon="9.20616798"><ele>273.5</ele><time>2026-04-27T15:43:30.049Z</time></trkpt><trkpt lat="48.81914078" lon="9.20625772"><ele>272.0</ele><time>2026-04-27T15:43:31.034Z</time></trkpt><trkpt lat="48.81917972" lon="9.206347"><ele>270.5</ele><time>2026-04-27T15:43:32.035Z</time></trkpt><trkpt lat="48.8192623" lon="9.20652177"><ele>269.0</ele><time>2026-04-27T15:43:34.039Z</time></trkpt><trkpt lat="48.81929974" lon="9.20660031"><ele>268.5</ele><time>2026-04-27T15:43:35.037Z</time></trkpt><trkpt lat="48.8193649" lon="9.20673866"><ele>268.0</ele><time>2026-04-27T15:43:37.037Z</time></trkpt><trkpt lat="48.81941218" lon="9.20684276"><ele>267.5</ele><time>2026-04-27T15:43:39.036Z</time></trkpt><trkpt lat="48.81945203" lon="9.20694883"><ele>267.0</ele><time>2026-04-27T15:43:41.036Z</time></trkpt><trkpt lat="48.81951554" lon="9.20708044"><ele>266.5</ele><time>2026-04-27T15:43:43.036Z</time></trkpt><trkpt lat="48.81954772" lon="9.20716683"><ele>266.0</ele><time>2026-04-27T15:43:44.042Z</time></trkpt><trkpt lat="48.81959116" lon="9.20725207"><ele>265.1666666666667</ele><time>2026-04-27T15:43:45.042Z</time></trkpt><trkpt lat="48.8196378" lon="9.20733363"><ele>264.33333333333337</ele><time>2026-04-27T15:43:46.035Z</time></trkpt><trkpt lat="48.81967831" lon="9.20741664"><ele>263.5</ele><time>2026-04-27T15:43:47.036Z</time></trkpt><trkpt lat="48.81971823" lon="9.20750372"><ele>262.6666666666667</ele><time>2026-04-27T15:43:48.041Z</time></trkpt><trkpt lat="48.81974682" lon="9.20759589"><ele>261.8333333333333</ele><time>2026-04-27T15:43:49.043Z</time></trkpt><trkpt lat="48.81978216" lon="9.20767631"><ele>261.0</ele><time>2026-04-27T15:43:50.043Z</time></trkpt><trkpt lat="48.81985174" lon="9.20782997"><ele>261.0</ele><time>2026-04-27T15:43:52.044Z</time></trkpt><trkpt lat="48.81992556" lon="9.20799756"><ele>261.0</ele><time>2026-04-27T15:43:54.038Z</time></trkpt><trkpt lat="48.82000118" lon="9.20817006"><ele>261.0</ele><time>2026-04-27T15:43:56.054Z</time></trkpt><trkpt lat="48.82003926" lon="9.20825606"><ele>261.0</ele><time>2026-04-27T15:43:57.043Z</time></trkpt><trkpt lat="48.82007922" lon="9.20835171"><ele>261.0</ele><time>2026-04-27T15:43:58.041Z</time></trkpt><trkpt lat="48.82011029" lon="9.20844093"><ele>260.8333333333333</ele><time>2026-04-27T15:43:59.042Z</time></trkpt><trkpt lat="48.82015232" lon="9.20853225"><ele>260.6666666666667</ele><time>2026-04-27T15:44:00.038Z</time></trkpt><trkpt lat="48.82019552" lon="9.20862449"><ele>260.5</ele><time>2026-04-27T15:44:01.045Z</time></trkpt><trkpt lat="48.82023845" lon="9.2087229"><ele>260.33333333333337</ele><time>2026-04-27T15:44:02.046Z</time></trkpt><trkpt lat="48.82028152" lon="9.20882398"><ele>260.1666666666667</ele><time>2026-04-27T15:44:03.041Z</time></trkpt><trkpt lat="48.82032386" lon="9.20892859"><ele>260.0</ele><time>2026-04-27T15:44:04.044Z</time></trkpt><trkpt lat="48.82036808" lon="9.20902291"><ele>259.83333333333337</ele><time>2026-04-27T15:44:05.046Z</time></trkpt><trkpt lat="48.82042491" lon="9.20913392"><ele>259.6666666666667</ele><time>2026-04-27T15:44:06.048Z</time></trkpt><trkpt lat="48.82047057" lon="9.20923053"><ele>259.5</ele><time>2026-04-27T15:44:07.051Z</time></trkpt><trkpt lat="48.82052145" lon="9.20932078"><ele>259.3333333333333</ele><time>2026-04-27T15:44:08.053Z</time></trkpt><trkpt lat="48.82056538" lon="9.20942148"><ele>259.16666666666663</ele><time>2026-04-27T15:44:09.055Z</time></trkpt><trkpt lat="48.8206182" lon="9.20953511"><ele>259.0</ele><time>2026-04-27T15:44:10.042Z</time></trkpt><trkpt lat="48.82066356" lon="9.20963813"><ele>259.0</ele><time>2026-04-27T15:44:11.037Z</time></trkpt><trkpt lat="48.82069159" lon="9.20973014"><ele>259.0</ele><time>2026-04-27T15:44:12.046Z</time></trkpt><trkpt lat="48.82070346" lon="9.20982733"><ele>259.0</ele><time>2026-04-27T15:44:13.045Z</time></trkpt><trkpt lat="48.82071788" lon="9.20992902"><ele>259.0</ele><time>2026-04-27T15:44:14.045Z</time></trkpt><trkpt lat="48.82073405" lon="9.21002489"><ele>259.0</ele><time>2026-04-27T15:44:15.047Z</time></trkpt><trkpt lat="48.82082955" lon="9.21018478"><ele>259.0</ele><time>2026-04-27T15:44:17.051Z</time></trkpt><trkpt lat="48.82091579" lon="9.2102805"><ele>258.0</ele><time>2026-04-27T15:44:19.054Z</time></trkpt><trkpt lat="48.82099819" lon="9.21036955"><ele>257.0</ele><time>2026-04-27T15:44:21.042Z</time></trkpt><trkpt lat="48.82103181" lon="9.21045289"><ele>255.99999999999997</ele><time>2026-04-27T15:44:22.04Z</time></trkpt><trkpt lat="48.82110912" lon="9.21060173"><ele>255.0</ele><time>2026-04-27T15:44:24.046Z</time></trkpt><trkpt lat="48.82118389" lon="9.21073122"><ele>254.0</ele><time>2026-04-27T15:44:25.978Z</time></trkpt><trkpt lat="48.82122624" lon="9.21080637"><ele>253.39999999999998</ele><time>2026-04-27T15:44:27.047Z</time></trkpt><trkpt lat="48.82128452" lon="9.21095129"><ele>252.79999999999998</ele><time>2026-04-27T15:44:29.039Z</time></trkpt><trkpt lat="48.82130322" lon="9.21111181"><ele>252.20000000000002</ele><time>2026-04-27T15:44:31.044Z</time></trkpt><trkpt lat="48.82132669" lon="9.21121205"><ele>251.60000000000002</ele><time>2026-04-27T15:44:33.047Z</time></trkpt><trkpt lat="48.82140296" lon="9.21117918"><ele>251.0</ele><time>2026-04-27T15:44:37.045Z</time></trkpt><trkpt lat="48.82154372" lon="9.2112443"><ele>251.0</ele><time>2026-04-27T15:45:33.046Z</time></trkpt><trkpt lat="48.82167885" lon="9.21133888"><ele>251.00000000000003</ele><time>2026-04-27T15:45:39.047Z</time></trkpt><trkpt lat="48.82175103" lon="9.21138705"><ele>251.00000000000003</ele><time>2026-04-27T15:45:42.039Z</time></trkpt><trkpt lat="48.82181908" lon="9.21141985"><ele>251.0</ele><time>2026-04-27T15:45:45.049Z</time></trkpt><trkpt lat="48.8219024" lon="9.21142157"><ele>251.0</ele><time>2026-04-27T15:45:48.048Z</time></trkpt><trkpt lat="48.82198361" lon="9.21143736"><ele>251.00000000000003</ele><time>2026-04-27T15:45:51.053Z</time></trkpt><trkpt lat="48.82205644" lon="9.21146534"><ele>251.0</ele><time>2026-04-27T15:45:54.038Z</time></trkpt><trkpt lat="48.82220015" lon="9.21150783"><ele>251.0</ele><time>2026-04-27T15:45:59.05Z</time></trkpt><trkpt lat="48.82226925" lon="9.21155637"><ele>251.0</ele><time>2026-04-27T15:46:01.055Z</time></trkpt><trkpt lat="48.82232072" lon="9.21164207"><ele>251.00000000000003</ele><time>2026-04-27T15:46:04.044Z</time></trkpt><trkpt lat="48.82237845" lon="9.21171025"><ele>251.0</ele><time>2026-04-27T15:46:07.045Z</time></trkpt><trkpt lat="48.8224422" lon="9.21172663"><ele>250.25</ele><time>2026-04-27T15:46:10.04Z</time></trkpt><trkpt lat="48.82250638" lon="9.21166618"><ele>249.5</ele><time>2026-04-27T15:46:17.05Z</time></trkpt><trkpt lat="48.82269665" lon="9.21157176"><ele>248.75</ele><time>2026-04-27T15:46:22.044Z</time></trkpt><trkpt lat="48.82279456" lon="9.21151674"><ele>248.0</ele><time>2026-04-27T15:46:24.043Z</time></trkpt><trkpt lat="48.82288061" lon="9.21139969"><ele>245.83333333333334</ele><time>2026-04-27T15:46:26.044Z</time></trkpt><trkpt lat="48.82293647" lon="9.21124119"><ele>243.66666666666669</ele><time>2026-04-27T15:46:28.044Z</time></trkpt><trkpt lat="48.82296439" lon="9.21115327"><ele>241.5</ele><time>2026-04-27T15:46:29.043Z</time></trkpt><trkpt lat="48.82299773" lon="9.2110469"><ele>239.33333333333331</ele><time>2026-04-27T15:46:30.048Z</time></trkpt><trkpt lat="48.82303455" lon="9.21094547"><ele>237.16666666666666</ele><time>2026-04-27T15:46:31.047Z</time></trkpt><trkpt lat="48.82306401" lon="9.21084339"><ele>235.0</ele><time>2026-04-27T15:46:32.053Z</time></trkpt><trkpt lat="48.82309382" lon="9.21072946"><ele>236.0</ele><time>2026-04-27T15:46:33.052Z</time></trkpt><trkpt lat="48.82312548" lon="9.21060331"><ele>237.0</ele><time>2026-04-27T15:46:34.048Z</time></trkpt><trkpt lat="48.82316284" lon="9.21047272"><ele>238.0</ele><time>2026-04-27T15:46:35.049Z</time></trkpt><trkpt lat="48.82319703" lon="9.21034206"><ele>239.0</ele><time>2026-04-27T15:46:36.051Z</time></trkpt><trkpt lat="48.82324644" lon="9.21021825"><ele>240.0</ele><time>2026-04-27T15:46:37.054Z</time></trkpt><trkpt lat="48.82330939" lon="9.21009738"><ele>240.0</ele><time>2026-04-27T15:46:38.057Z</time></trkpt><trkpt lat="48.82346632" lon="9.20989971"><ele>240.0</ele><time>2026-04-27T15:46:40.046Z</time></trkpt><trkpt lat="48.82355347" lon="9.20982226"><ele>240.0</ele><time>2026-04-27T15:46:41.041Z</time></trkpt><trkpt lat="48.82364844" lon="9.20977083"><ele>240.0</ele><time>2026-04-27T15:46:42.047Z</time></trkpt><trkpt lat="48.8237717" lon="9.20975892"><ele>238.6</ele><time>2026-04-27T15:46:43.046Z</time></trkpt><trkpt lat="48.82388929" lon="9.20977555"><ele>237.2</ele><time>2026-04-27T15:46:44.049Z</time></trkpt><trkpt lat="48.82399301" lon="9.20979758"><ele>235.8</ele><time>2026-04-27T15:46:45.049Z</time></trkpt><trkpt lat="48.82408146" lon="9.20985219"><ele>234.4</ele><time>2026-04-27T15:46:46.04Z</time></trkpt><trkpt lat="48.82416297" lon="9.20994154"><ele>233.0</ele><time>2026-04-27T15:46:47.056Z</time></trkpt><trkpt lat="48.82425072" lon="9.21004673"><ele>230.5</ele><time>2026-04-27T15:46:48.06Z</time></trkpt><trkpt lat="48.82434298" lon="9.21017744"><ele>228.0</ele><time>2026-04-27T15:46:49.044Z</time></trkpt><trkpt lat="48.82440702" lon="9.21031525"><ele>225.5</ele><time>2026-04-27T15:46:50.043Z</time></trkpt><trkpt lat="48.82446723" lon="9.21047244"><ele>223.0</ele><time>2026-04-27T15:46:51.042Z</time></trkpt><trkpt lat="48.82453506" lon="9.21062131"><ele>222.75</ele><time>2026-04-27T15:46:52.047Z</time></trkpt><trkpt lat="48.82460437" lon="9.21076381"><ele>222.5</ele><time>2026-04-27T15:46:53.043Z</time></trkpt><trkpt lat="48.82468208" lon="9.2109206"><ele>222.25</ele><time>2026-04-27T15:46:54.039Z</time></trkpt><trkpt lat="48.8247454" lon="9.21105766"><ele>222.0</ele><time>2026-04-27T15:46:55.043Z</time></trkpt><trkpt lat="48.82480769" lon="9.21119411"><ele>222.0</ele><time>2026-04-27T15:46:55.972Z</time></trkpt><trkpt lat="48.82488742" lon="9.21131736"><ele>222.0</ele><time>2026-04-27T15:46:56.974Z</time></trkpt><trkpt lat="48.82497186" lon="9.21143079"><ele>222.0</ele><time>2026-04-27T15:46:58.04Z</time></trkpt><trkpt lat="48.82507241" lon="9.21150217"><ele>222.0</ele><time>2026-04-27T15:46:59.039Z</time></trkpt><trkpt lat="48.82527942" lon="9.21157833"><ele>221.83333333333334</ele><time>2026-04-27T15:47:01.041Z</time></trkpt><trkpt lat="48.8253863" lon="9.21160231"><ele>221.66666666666669</ele><time>2026-04-27T15:47:02.04Z</time></trkpt><trkpt lat="48.82546348" lon="9.21160985"><ele>221.5</ele><time>2026-04-27T15:47:03.042Z</time></trkpt><trkpt lat="48.82553845" lon="9.21161027"><ele>221.33333333333334</ele><time>2026-04-27T15:47:04.044Z</time></trkpt><trkpt lat="48.82563356" lon="9.21155943"><ele>221.16666666666669</ele><time>2026-04-27T15:47:06.043Z</time></trkpt><trkpt lat="48.82563738" lon="9.21145403"><ele>221.0</ele><time>2026-04-27T15:47:08.047Z</time></trkpt><trkpt lat="48.82564938" lon="9.21133502"><ele>220.8</ele><time>2026-04-27T15:47:10.044Z</time></trkpt><trkpt lat="48.82564581" lon="9.21118573"><ele>220.60000000000002</ele><time>2026-04-27T15:47:12.044Z</time></trkpt><trkpt lat="48.82569043" lon="9.21104697"><ele>220.4</ele><time>2026-04-27T15:47:14.046Z</time></trkpt><trkpt lat="48.82575682" lon="9.21095223"><ele>220.2</ele><time>2026-04-27T15:47:16.049Z</time></trkpt><trkpt lat="48.82584622" lon="9.21091018"><ele>220.0</ele><time>2026-04-27T15:47:18.054Z</time></trkpt><trkpt lat="48.82592695" lon="9.21088306"><ele>219.8</ele><time>2026-04-27T15:47:21.058Z</time></trkpt><trkpt lat="48.82606697" lon="9.21090351"><ele>219.6</ele><time>2026-04-27T15:47:26.051Z</time></trkpt><trkpt lat="48.82614295" lon="9.21092067"><ele>219.39999999999998</ele><time>2026-04-27T15:47:28.041Z</time></trkpt><trkpt lat="48.8262193" lon="9.21094518"><ele>219.2</ele><time>2026-04-27T15:47:30.062Z</time></trkpt><trkpt lat="48.82630186" lon="9.21097074"><ele>219.0</ele><time>2026-04-27T15:47:32.044Z</time></trkpt><trkpt lat="48.82638344" lon="9.21100428"><ele>219.0</ele><time>2026-04-27T15:47:34.043Z</time></trkpt><trkpt lat="48.82648343" lon="9.21104055"><ele>218.99999999999997</ele><time>2026-04-27T15:47:36.044Z</time></trkpt><trkpt lat="48.82657947" lon="9.21106305"><ele>218.99999999999997</ele><time>2026-04-27T15:47:38.048Z</time></trkpt><trkpt lat="48.82668864" lon="9.21109082"><ele>219.0</ele><time>2026-04-27T15:47:40.05Z</time></trkpt><trkpt lat="48.8267767" lon="9.21111237"><ele>219.0</ele><time>2026-04-27T15:47:42.05Z</time></trkpt><trkpt lat="48.8269802" lon="9.21117"><ele>219.16666666666666</ele><time>2026-04-27T15:47:46.045Z</time></trkpt><trkpt lat="48.82706806" lon="9.21116519"><ele>219.33333333333331</ele><time>2026-04-27T15:47:48.046Z</time></trkpt><trkpt lat="48.82717157" lon="9.21119776"><ele>219.5</ele><time>2026-04-27T15:47:50.047Z</time></trkpt><trkpt lat="48.82724857" lon="9.21122823"><ele>219.66666666666666</ele><time>2026-04-27T15:47:53.056Z</time></trkpt><trkpt lat="48.82731103" lon="9.21128577"><ele>219.83333333333331</ele><time>2026-04-27T15:47:59.048Z</time></trkpt><trkpt lat="48.82725131" lon="9.21135372"><ele>220.0</ele><time>2026-04-27T15:48:03.044Z</time></trkpt><trkpt lat="48.82702056" lon="9.2113351"><ele>219.99999999999997</ele><time>2026-04-27T15:48:06.051Z</time></trkpt><trkpt lat="48.82692779" lon="9.21135149"><ele>220.0</ele><time>2026-04-27T15:48:08.049Z</time></trkpt><trkpt lat="48.82686348" lon="9.21132317"><ele>220.0</ele><time>2026-04-27T15:48:10.054Z</time></trkpt><trkpt lat="48.82681719" lon="9.21123409"><ele>220.0</ele><time>2026-04-27T15:48:14.048Z</time></trkpt><trkpt lat="48.82679222" lon="9.21114605"><ele>220.0</ele><time>2026-04-27T15:48:16.046Z</time></trkpt><trkpt lat="48.82677145" lon="9.21104093"><ele>219.99999999999997</ele><time>2026-04-27T15:48:18.037Z</time></trkpt><trkpt lat="48.82675769" lon="9.21092499"><ele>220.0</ele><time>2026-04-27T15:48:20.031Z</time></trkpt><trkpt lat="48.82679521" lon="9.21082614"><ele>218.75</ele><time>2026-04-27T15:48:21.037Z</time></trkpt><trkpt lat="48.82687281" lon="9.21062682"><ele>217.5</ele><time>2026-04-27T15:48:24.051Z</time></trkpt><trkpt lat="48.82699985" lon="9.21043837"><ele>216.25</ele><time>2026-04-27T15:48:28.047Z</time></trkpt><trkpt lat="48.8270417" lon="9.21033932"><ele>215.0</ele><time>2026-04-27T15:48:31.056Z</time></trkpt><trkpt lat="48.82709367" lon="9.21019895"><ele>215.0</ele><time>2026-04-27T15:48:33.046Z</time></trkpt><trkpt lat="48.82715458" lon="9.21003624"><ele>215.0</ele><time>2026-04-27T15:48:34.048Z</time></trkpt><trkpt lat="48.82722499" lon="9.20990713"><ele>215.0</ele><time>2026-04-27T15:48:36.04Z</time></trkpt><trkpt lat="48.82729318" lon="9.209808"><ele>215.0</ele><time>2026-04-27T15:48:38.046Z</time></trkpt><trkpt lat="48.82738212" lon="9.20969339"><ele>215.0</ele><time>2026-04-27T15:48:40.05Z</time></trkpt><trkpt lat="48.82744541" lon="9.2095743"><ele>215.0</ele><time>2026-04-27T15:48:42.053Z</time></trkpt><trkpt lat="48.82754713" lon="9.20947614"><ele>215.0</ele><time>2026-04-27T15:48:44.044Z</time></trkpt><trkpt lat="48.82764824" lon="9.20940782"><ele>215.0</ele><time>2026-04-27T15:48:46.048Z</time></trkpt><trkpt lat="48.8277759" lon="9.20934274"><ele>215.0</ele><time>2026-04-27T15:48:48.047Z</time></trkpt><trkpt lat="48.82783" lon="9.20927468"><ele>215.0</ele><time>2026-04-27T15:48:49.051Z</time></trkpt><trkpt lat="48.82789961" lon="9.20926233"><ele>215.2</ele><time>2026-04-27T15:48:50.052Z</time></trkpt><trkpt lat="48.8280074" lon="9.20922469"><ele>215.4</ele><time>2026-04-27T15:48:52.055Z</time></trkpt><trkpt lat="48.82811502" lon="9.20918395"><ele>215.60000000000002</ele><time>2026-04-27T15:48:54.062Z</time></trkpt><trkpt lat="48.82821529" lon="9.20913935"><ele>215.8</ele><time>2026-04-27T15:48:56.045Z</time></trkpt><trkpt lat="48.82828165" lon="9.20910606"><ele>216.0</ele><time>2026-04-27T15:48:57.044Z</time></trkpt><trkpt lat="48.82838705" lon="9.20904882"><ele>216.0</ele><time>2026-04-27T15:48:59.044Z</time></trkpt><trkpt lat="48.82844988" lon="9.20902689"><ele>216.00000000000003</ele><time>2026-04-27T15:49:00.044Z</time></trkpt><trkpt lat="48.82857675" lon="9.20899615"><ele>216.00000000000003</ele><time>2026-04-27T15:49:02.039Z</time></trkpt><trkpt lat="48.8287027" lon="9.20897286"><ele>216.0</ele><time>2026-04-27T15:49:04.045Z</time></trkpt><trkpt lat="48.82882193" lon="9.20895234"><ele>216.0</ele><time>2026-04-27T15:49:06.048Z</time></trkpt><trkpt lat="48.82895492" lon="9.20894136"><ele>216.25</ele><time>2026-04-27T15:49:08.05Z</time></trkpt><trkpt lat="48.82912553" lon="9.20891552"><ele>216.5</ele><time>2026-04-27T15:49:11.039Z</time></trkpt><trkpt lat="48.82924416" lon="9.20891254"><ele>216.75</ele><time>2026-04-27T15:49:13.044Z</time></trkpt><trkpt lat="48.82936873" lon="9.20888882"><ele>217.0</ele><time>2026-04-27T15:49:15.05Z</time></trkpt><trkpt lat="48.82943587" lon="9.20888076"><ele>217.0</ele><time>2026-04-27T15:49:16.046Z</time></trkpt><trkpt lat="48.82950399" lon="9.20887656"><ele>217.0</ele><time>2026-04-27T15:49:17.048Z</time></trkpt><trkpt lat="48.82962667" lon="9.2088592"><ele>217.0</ele><time>2026-04-27T15:49:19.033Z</time></trkpt><trkpt lat="48.82970349" lon="9.20887681"><ele>217.0</ele><time>2026-04-27T15:49:20.038Z</time></trkpt><trkpt lat="48.82982643" lon="9.2088626"><ele>217.0</ele><time>2026-04-27T15:49:22.044Z</time></trkpt><trkpt lat="48.82988969" lon="9.20885207"><ele>216.99999999999997</ele><time>2026-04-27T15:49:23.042Z</time></trkpt><trkpt lat="48.82995558" lon="9.20883239"><ele>217.0</ele><time>2026-04-27T15:49:24.044Z</time></trkpt><trkpt lat="48.83006347" lon="9.20882325"><ele>217.0</ele><time>2026-04-27T15:49:26.042Z</time></trkpt><trkpt lat="48.83013347" lon="9.20883022"><ele>217.0</ele><time>2026-04-27T15:49:27.046Z</time></trkpt><trkpt lat="48.83020928" lon="9.2088208"><ele>216.99999999999997</ele><time>2026-04-27T15:49:28.052Z</time></trkpt><trkpt lat="48.83027414" lon="9.20880842"><ele>217.0</ele><time>2026-04-27T15:49:29.045Z</time></trkpt><trkpt lat="48.83046571" lon="9.20878689"><ele>216.66666666666666</ele><time>2026-04-27T15:49:32.044Z</time></trkpt><trkpt lat="48.83059979" lon="9.20876982"><ele>216.33333333333331</ele><time>2026-04-27T15:49:34.044Z</time></trkpt><trkpt lat="48.83067894" lon="9.20877268"><ele>216.0</ele><time>2026-04-27T15:49:35.044Z</time></trkpt><trkpt lat="48.83075556" lon="9.2087615"><ele>215.66666666666669</ele><time>2026-04-27T15:49:36.04Z</time></trkpt><trkpt lat="48.83083509" lon="9.20875734"><ele>215.33333333333334</ele><time>2026-04-27T15:49:37.054Z</time></trkpt><trkpt lat="48.83090189" lon="9.20873893"><ele>215.0</ele><time>2026-04-27T15:49:38.042Z</time></trkpt><trkpt lat="48.83096498" lon="9.20873285"><ele>214.8</ele><time>2026-04-27T15:49:39.043Z</time></trkpt><trkpt lat="48.83103447" lon="9.20872144"><ele>214.6</ele><time>2026-04-27T15:49:40.044Z</time></trkpt><trkpt lat="48.83112249" lon="9.20874185"><ele>214.39999999999998</ele><time>2026-04-27T15:49:41.041Z</time></trkpt><trkpt lat="48.83128082" lon="9.20874397"><ele>214.2</ele><time>2026-04-27T15:49:42.969Z</time></trkpt><trkpt lat="48.8313449" lon="9.20873567"><ele>214.0</ele><time>2026-04-27T15:49:44.041Z</time></trkpt><trkpt lat="48.83147087" lon="9.20874108"><ele>214.0</ele><time>2026-04-27T15:49:46.045Z</time></trkpt><trkpt lat="48.83158724" lon="9.20874522"><ele>213.99999999999997</ele><time>2026-04-27T15:49:48.046Z</time></trkpt><trkpt lat="48.83166384" lon="9.20871233"><ele>213.99999999999997</ele><time>2026-04-27T15:49:49.047Z</time></trkpt><trkpt lat="48.8317284" lon="9.20870459"><ele>214.0</ele><time>2026-04-27T15:49:50.055Z</time></trkpt><trkpt lat="48.83186368" lon="9.20873223"><ele>214.0</ele><time>2026-04-27T15:49:52.043Z</time></trkpt><trkpt lat="48.83193105" lon="9.20870223"><ele>214.6</ele><time>2026-04-27T15:49:53.045Z</time></trkpt><trkpt lat="48.83199973" lon="9.20872348"><ele>215.2</ele><time>2026-04-27T15:49:54.047Z</time></trkpt><trkpt lat="48.83208239" lon="9.20872574"><ele>215.79999999999998</ele><time>2026-04-27T15:49:55.049Z</time></trkpt><trkpt lat="48.83222434" lon="9.20875768"><ele>216.39999999999998</ele><time>2026-04-27T15:49:57.053Z</time></trkpt><trkpt lat="48.83233205" lon="9.20875203"><ele>217.0</ele><time>2026-04-27T15:49:59.055Z</time></trkpt><trkpt lat="48.83239995" lon="9.20875732"><ele>216.99999999999997</ele><time>2026-04-27T15:50:00.056Z</time></trkpt><trkpt lat="48.83247331" lon="9.20876131"><ele>217.0</ele><time>2026-04-27T15:50:01.045Z</time></trkpt><trkpt lat="48.83254902" lon="9.20878224"><ele>217.0</ele><time>2026-04-27T15:50:02.047Z</time></trkpt><trkpt lat="48.83261227" lon="9.20880061"><ele>217.0</ele><time>2026-04-27T15:50:03.045Z</time></trkpt><trkpt lat="48.83276577" lon="9.20887803"><ele>216.99999999999997</ele><time>2026-04-27T15:50:05.051Z</time></trkpt><trkpt lat="48.83282764" lon="9.2089117"><ele>217.0</ele><time>2026-04-27T15:50:06.053Z</time></trkpt><trkpt lat="48.83292085" lon="9.20895907"><ele>217.0</ele><time>2026-04-27T15:50:07.055Z</time></trkpt><trkpt lat="48.83299321" lon="9.20899038"><ele>217.0</ele><time>2026-04-27T15:50:08.055Z</time></trkpt><trkpt lat="48.83306209" lon="9.2090165"><ele>217.0</ele><time>2026-04-27T15:50:09.056Z</time></trkpt><trkpt lat="48.83312412" lon="9.20904069"><ele>217.0</ele><time>2026-04-27T15:50:10.042Z</time></trkpt><trkpt lat="48.83325216" lon="9.20911741"><ele>217.0</ele><time>2026-04-27T15:50:12.041Z</time></trkpt><trkpt lat="48.83339708" lon="9.20919948"><ele>216.66666666666666</ele><time>2026-04-27T15:50:14.045Z</time></trkpt><trkpt lat="48.83346053" lon="9.20922642"><ele>216.33333333333331</ele><time>2026-04-27T15:50:15.043Z</time></trkpt><trkpt lat="48.83352068" lon="9.20926474"><ele>216.0</ele><time>2026-04-27T15:50:16.034Z</time></trkpt><trkpt lat="48.83364666" lon="9.20932426"><ele>215.66666666666669</ele><time>2026-04-27T15:50:18.045Z</time></trkpt><trkpt lat="48.83371747" lon="9.20936199"><ele>215.33333333333334</ele><time>2026-04-27T15:50:19.05Z</time></trkpt><trkpt lat="48.83379114" lon="9.20941419"><ele>215.0</ele><time>2026-04-27T15:50:20.048Z</time></trkpt><trkpt lat="48.83386564" lon="9.20947976"><ele>215.00000000000003</ele><time>2026-04-27T15:50:21.049Z</time></trkpt><trkpt lat="48.83393216" lon="9.20953806"><ele>215.0</ele><time>2026-04-27T15:50:22.043Z</time></trkpt><trkpt lat="48.83402355" lon="9.20959579"><ele>215.0</ele><time>2026-04-27T15:50:24.046Z</time></trkpt><trkpt lat="48.83408487" lon="9.20963621"><ele>215.0</ele><time>2026-04-27T15:50:25.044Z</time></trkpt><trkpt lat="48.83415114" lon="9.20969639"><ele>215.00000000000003</ele><time>2026-04-27T15:50:26.054Z</time></trkpt><trkpt lat="48.83425228" lon="9.20978411"><ele>215.0</ele><time>2026-04-27T15:50:28.045Z</time></trkpt><trkpt lat="48.83430616" lon="9.20983524"><ele>214.0</ele><time>2026-04-27T15:50:29.048Z</time></trkpt><trkpt lat="48.83437002" lon="9.2098841"><ele>213.0</ele><time>2026-04-27T15:50:30.048Z</time></trkpt><trkpt lat="48.83443049" lon="9.20994628"><ele>212.0</ele><time>2026-04-27T15:50:31.048Z</time></trkpt><trkpt lat="48.83448938" lon="9.21000399"><ele>211.0</ele><time>2026-04-27T15:50:32.055Z</time></trkpt><trkpt lat="48.83454177" lon="9.21006188"><ele>210.0</ele><time>2026-04-27T15:50:33.054Z</time></trkpt><trkpt lat="48.83475176" lon="9.21027536"><ele>210.0</ele><time>2026-04-27T15:50:37.045Z</time></trkpt><trkpt lat="48.83482555" lon="9.21036407"><ele>210.0</ele><time>2026-04-27T15:50:39.045Z</time></trkpt><trkpt lat="48.834874" lon="9.21042798"><ele>210.0</ele><time>2026-04-27T15:50:40.049Z</time></trkpt><trkpt lat="48.83492773" lon="9.21049446"><ele>210.0</ele><time>2026-04-27T15:50:40.974Z</time></trkpt><trkpt lat="48.83500561" lon="9.21059735"><ele>210.0</ele><time>2026-04-27T15:50:41.972Z</time></trkpt><trkpt lat="48.83506858" lon="9.21066942"><ele>210.0</ele><time>2026-04-27T15:50:43.056Z</time></trkpt><trkpt lat="48.83511413" lon="9.21074506"><ele>211.4</ele><time>2026-04-27T15:50:44.056Z</time></trkpt><trkpt lat="48.83516121" lon="9.21082561"><ele>212.8</ele><time>2026-04-27T15:50:45.047Z</time></trkpt><trkpt lat="48.83523382" lon="9.21094456"><ele>214.2</ele><time>2026-04-27T15:50:47.039Z</time></trkpt><trkpt lat="48.83532128" lon="9.21108969"><ele>215.6</ele><time>2026-04-27T15:50:48.973Z</time></trkpt><trkpt lat="48.83538972" lon="9.21120446"><ele>217.0</ele><time>2026-04-27T15:50:51.052Z</time></trkpt><trkpt lat="48.83543112" lon="9.21130432"><ele>217.0</ele><time>2026-04-27T15:50:52.046Z</time></trkpt><trkpt lat="48.83549405" lon="9.21143762"><ele>217.0</ele><time>2026-04-27T15:50:54.046Z</time></trkpt><trkpt lat="48.83560829" lon="9.21162932"><ele>217.0</ele><time>2026-04-27T15:50:57.051Z</time></trkpt><trkpt lat="48.83564893" lon="9.21170384"><ele>217.0</ele><time>2026-04-27T15:50:58.047Z</time></trkpt><trkpt lat="48.83570189" lon="9.21181062"><ele>217.0</ele><time>2026-04-27T15:50:59.045Z</time></trkpt><trkpt lat="48.83575915" lon="9.21194193"><ele>217.49999999999997</ele><time>2026-04-27T15:51:01.047Z</time></trkpt><trkpt lat="48.83582402" lon="9.21209401"><ele>218.0</ele><time>2026-04-27T15:51:03.046Z</time></trkpt><trkpt lat="48.8358634" lon="9.21218341"><ele>218.5</ele><time>2026-04-27T15:51:04.043Z</time></trkpt><trkpt lat="48.83590481" lon="9.2122615"><ele>219.0</ele><time>2026-04-27T15:51:05.049Z</time></trkpt><trkpt lat="48.83594356" lon="9.21234548"><ele>219.49999999999997</ele><time>2026-04-27T15:51:06.043Z</time></trkpt><trkpt lat="48.83598432" lon="9.21243534"><ele>220.0</ele><time>2026-04-27T15:51:07.046Z</time></trkpt><trkpt lat="48.83602196" lon="9.21258808"><ele>220.0</ele><time>2026-04-27T15:51:09.042Z</time></trkpt><trkpt lat="48.83605366" lon="9.21267966"><ele>220.0</ele><time>2026-04-27T15:51:10.048Z</time></trkpt><trkpt lat="48.83612608" lon="9.21285451"><ele>220.0</ele><time>2026-04-27T15:51:12.047Z</time></trkpt><trkpt lat="48.83618352" lon="9.21297617"><ele>220.0</ele><time>2026-04-27T15:51:13.048Z</time></trkpt><trkpt lat="48.83623657" lon="9.21312075"><ele>220.0</ele><time>2026-04-27T15:51:15.052Z</time></trkpt><trkpt lat="48.83634747" lon="9.21336532"><ele>217.8</ele><time>2026-04-27T15:51:18.057Z</time></trkpt><trkpt lat="48.83638298" lon="9.21344459"><ele>215.6</ele><time>2026-04-27T15:51:19.04Z</time></trkpt><trkpt lat="48.83642266" lon="9.2136116"><ele>213.39999999999998</ele><time>2026-04-27T15:51:21.043Z</time></trkpt><trkpt lat="48.83646244" lon="9.21373986"><ele>211.2</ele><time>2026-04-27T15:51:23.048Z</time></trkpt><trkpt lat="48.83651845" lon="9.21389723"><ele>209.0</ele><time>2026-04-27T15:51:25.053Z</time></trkpt><trkpt lat="48.83655434" lon="9.21398277"><ele>209.50000000000003</ele><time>2026-04-27T15:51:26.055Z</time></trkpt><trkpt lat="48.83659728" lon="9.2140662"><ele>210.0</ele><time>2026-04-27T15:51:27.058Z</time></trkpt><trkpt lat="48.83664953" lon="9.21422272"><ele>210.5</ele><time>2026-04-27T15:51:29.061Z</time></trkpt><trkpt lat="48.83668027" lon="9.21430736"><ele>211.0</ele><time>2026-04-27T15:51:30.046Z</time></trkpt><trkpt lat="48.83671413" lon="9.21439648"><ele>211.50000000000003</ele><time>2026-04-27T15:51:31.045Z</time></trkpt><trkpt lat="48.83676573" lon="9.21453391"><ele>212.0</ele><time>2026-04-27T15:51:33.051Z</time></trkpt><trkpt lat="48.83682106" lon="9.21468873"><ele>212.8</ele><time>2026-04-27T15:51:35.048Z</time></trkpt><trkpt lat="48.8368638" lon="9.21478914"><ele>213.6</ele><time>2026-04-27T15:51:36.055Z</time></trkpt><trkpt lat="48.83691566" lon="9.21498862"><ele>214.40000000000003</ele><time>2026-04-27T15:51:38.046Z</time></trkpt><trkpt lat="48.83694221" lon="9.21508158"><ele>215.20000000000002</ele><time>2026-04-27T15:51:39.045Z</time></trkpt><trkpt lat="48.83700723" lon="9.21526212"><ele>216.0</ele><time>2026-04-27T15:51:41.047Z</time></trkpt><trkpt lat="48.83702913" lon="9.2154152"><ele>216.0</ele><time>2026-04-27T15:51:43.054Z</time></trkpt><trkpt lat="48.83706083" lon="9.21558095"><ele>216.0</ele><time>2026-04-27T15:51:45.045Z</time></trkpt><trkpt lat="48.83707931" lon="9.21577798"><ele>216.0</ele><time>2026-04-27T15:51:47.044Z</time></trkpt><trkpt lat="48.83710824" lon="9.21595207"><ele>216.0</ele><time>2026-04-27T15:51:49.042Z</time></trkpt><trkpt lat="48.8371479" lon="9.21611901"><ele>215.83333333333334</ele><time>2026-04-27T15:51:51.047Z</time></trkpt><trkpt lat="48.83717086" lon="9.21621517"><ele>215.66666666666669</ele><time>2026-04-27T15:51:52.05Z</time></trkpt><trkpt lat="48.83719474" lon="9.21631886"><ele>215.5</ele><time>2026-04-27T15:51:53.051Z</time></trkpt><trkpt lat="48.83721276" lon="9.21641189"><ele>215.33333333333334</ele><time>2026-04-27T15:51:54.053Z</time></trkpt><trkpt lat="48.83725177" lon="9.21658283"><ele>215.16666666666669</ele><time>2026-04-27T15:51:56.041Z</time></trkpt><trkpt lat="48.83728217" lon="9.21667274"><ele>215.0</ele><time>2026-04-27T15:51:57.044Z</time></trkpt><trkpt lat="48.83734516" lon="9.21702071"><ele>215.0</ele><time>2026-04-27T15:52:01.05Z</time></trkpt><trkpt lat="48.8373644" lon="9.21711833"><ele>215.0</ele><time>2026-04-27T15:52:02.05Z</time></trkpt><trkpt lat="48.83738527" lon="9.21730673"><ele>215.0</ele><time>2026-04-27T15:52:04.057Z</time></trkpt><trkpt lat="48.83739313" lon="9.21747458"><ele>215.0</ele><time>2026-04-27T15:52:06.044Z</time></trkpt><trkpt lat="48.83739869" lon="9.2176436"><ele>215.0</ele><time>2026-04-27T15:52:08.042Z</time></trkpt><trkpt lat="48.8373777" lon="9.21780781"><ele>215.0</ele><time>2026-04-27T15:52:10.044Z</time></trkpt><trkpt lat="48.8373501" lon="9.21794373"><ele>215.0</ele><time>2026-04-27T15:52:12.055Z</time></trkpt><trkpt lat="48.83733196" lon="9.2180993"><ele>215.0</ele><time>2026-04-27T15:52:14.044Z</time></trkpt><trkpt lat="48.8373729" lon="9.21821075"><ele>215.0</ele><time>2026-04-27T15:52:16.044Z</time></trkpt><trkpt lat="48.83741652" lon="9.21829412"><ele>215.0</ele><time>2026-04-27T15:52:18.029Z</time></trkpt><trkpt lat="48.83745104" lon="9.21851263"><ele>215.00000000000003</ele><time>2026-04-27T15:52:24.041Z</time></trkpt><trkpt lat="48.837471" lon="9.21862581"><ele>215.0</ele><time>2026-04-27T15:52:26.049Z</time></trkpt><trkpt lat="48.8374994" lon="9.21876953"><ele>215.0</ele><time>2026-04-27T15:52:28.054Z</time></trkpt><trkpt lat="48.83750705" lon="9.21891427"><ele>215.0</ele><time>2026-04-27T15:52:30.044Z</time></trkpt><trkpt lat="48.83753246" lon="9.21903787"><ele>215.00000000000003</ele><time>2026-04-27T15:52:32.042Z</time></trkpt><trkpt lat="48.83752969" lon="9.21917293"><ele>215.0</ele><time>2026-04-27T15:52:35.05Z</time></trkpt><trkpt lat="48.83750874" lon="9.21930523"><ele>215.0</ele><time>2026-04-27T15:52:37.045Z</time></trkpt><trkpt lat="48.83751849" lon="9.21943524"><ele>215.0</ele><time>2026-04-27T15:52:39.04Z</time></trkpt><trkpt lat="48.83753004" lon="9.21963785"><ele>215.0</ele><time>2026-04-27T15:52:42.043Z</time></trkpt><trkpt lat="48.83753833" lon="9.21980327"><ele>215.0</ele><time>2026-04-27T15:52:44.042Z</time></trkpt><trkpt lat="48.83753613" lon="9.21993899"><ele>215.0</ele><time>2026-04-27T15:52:45.043Z</time></trkpt><trkpt lat="48.83754034" lon="9.22003877"><ele>214.8</ele><time>2026-04-27T15:52:46.039Z</time></trkpt><trkpt lat="48.83756042" lon="9.22019628"><ele>214.6</ele><time>2026-04-27T15:52:48.044Z</time></trkpt><trkpt lat="48.837556" lon="9.22035693"><ele>214.39999999999998</ele><time>2026-04-27T15:52:50.046Z</time></trkpt><trkpt lat="48.83754706" lon="9.22051672"><ele>214.2</ele><time>2026-04-27T15:52:52.051Z</time></trkpt><trkpt lat="48.83756913" lon="9.22068511"><ele>214.0</ele><time>2026-04-27T15:52:54.056Z</time></trkpt><trkpt lat="48.83756283" lon="9.22085646"><ele>214.0</ele><time>2026-04-27T15:52:56.038Z</time></trkpt><trkpt lat="48.8375599" lon="9.22100505"><ele>214.0</ele><time>2026-04-27T15:52:58.044Z</time></trkpt><trkpt lat="48.83757354" lon="9.22116799"><ele>214.0</ele><time>2026-04-27T15:53:00.049Z</time></trkpt><trkpt lat="48.83757868" lon="9.2214614"><ele>214.0</ele><time>2026-04-27T15:53:04.041Z</time></trkpt><trkpt lat="48.83757607" lon="9.22156277"><ele>214.2</ele><time>2026-04-27T15:53:05.041Z</time></trkpt><trkpt lat="48.83757197" lon="9.22166472"><ele>214.39999999999998</ele><time>2026-04-27T15:53:06.047Z</time></trkpt><trkpt lat="48.83757477" lon="9.22184475"><ele>214.6</ele><time>2026-04-27T15:53:08.046Z</time></trkpt><trkpt lat="48.83757225" lon="9.2220156"><ele>214.8</ele><time>2026-04-27T15:53:10.047Z</time></trkpt><trkpt lat="48.83758709" lon="9.22216321"><ele>215.0</ele><time>2026-04-27T15:53:12.056Z</time></trkpt><trkpt lat="48.83759394" lon="9.22231088"><ele>215.2</ele><time>2026-04-27T15:53:14.056Z</time></trkpt><trkpt lat="48.8375936" lon="9.22246311"><ele>215.4</ele><time>2026-04-27T15:53:16.045Z</time></trkpt><trkpt lat="48.83757912" lon="9.22257801"><ele>215.60000000000002</ele><time>2026-04-27T15:53:17.041Z</time></trkpt><trkpt lat="48.8375736" lon="9.22276195"><ele>215.8</ele><time>2026-04-27T15:53:19.046Z</time></trkpt><trkpt lat="48.83755182" lon="9.22294188"><ele>216.0</ele><time>2026-04-27T15:53:21.051Z</time></trkpt><trkpt lat="48.83755646" lon="9.22324931"><ele>216.0</ele><time>2026-04-27T15:53:25.06Z</time></trkpt><trkpt lat="48.83756147" lon="9.22338582"><ele>216.0</ele><time>2026-04-27T15:53:27.048Z</time></trkpt><trkpt lat="48.83756002" lon="9.22349163"><ele>216.0</ele><time>2026-04-27T15:53:29.036Z</time></trkpt><trkpt lat="48.837486" lon="9.22361413"><ele>216.0</ele><time>2026-04-27T15:54:18.049Z</time></trkpt><trkpt lat="48.83744799" lon="9.22435179"><ele>215.4</ele><time>2026-04-27T15:56:23.03Z</time></trkpt><trkpt lat="48.83743773" lon="9.22452562"><ele>214.8</ele><time>2026-04-27T15:56:25.023Z</time></trkpt><trkpt lat="48.83743474" lon="9.22470139"><ele>214.20000000000002</ele><time>2026-04-27T15:56:27.023Z</time></trkpt><trkpt lat="48.83743398" lon="9.22486202"><ele>213.60000000000002</ele><time>2026-04-27T15:56:29.029Z</time></trkpt><trkpt lat="48.83744" lon="9.22496138"><ele>213.0</ele><time>2026-04-27T15:56:30.025Z</time></trkpt><trkpt lat="48.8374587" lon="9.22505364"><ele>213.0</ele><time>2026-04-27T15:56:31.029Z</time></trkpt><trkpt lat="48.83746374" lon="9.22515069"><ele>213.0</ele><time>2026-04-27T15:56:32.029Z</time></trkpt><trkpt lat="48.83746768" lon="9.22532509"><ele>213.0</ele><time>2026-04-27T15:56:34.04Z</time></trkpt><trkpt lat="48.83748916" lon="9.2255009"><ele>213.0</ele><time>2026-04-27T15:56:36.037Z</time></trkpt><trkpt lat="48.83754097" lon="9.22588367"><ele>213.0</ele><time>2026-04-27T15:56:40.045Z</time></trkpt><trkpt lat="48.83756147" lon="9.2259763"><ele>213.0</ele><time>2026-04-27T15:56:41.046Z</time></trkpt><trkpt lat="48.83758867" lon="9.22607758"><ele>213.0</ele><time>2026-04-27T15:56:42.045Z</time></trkpt><trkpt lat="48.8376371" lon="9.22627062"><ele>213.0</ele><time>2026-04-27T15:56:44.052Z</time></trkpt><trkpt lat="48.83767386" lon="9.22645125"><ele>213.0</ele><time>2026-04-27T15:56:46.041Z</time></trkpt><trkpt lat="48.83769744" lon="9.22655403"><ele>212.16666666666666</ele><time>2026-04-27T15:56:47.036Z</time></trkpt><trkpt lat="48.83772668" lon="9.22664215"><ele>211.33333333333331</ele><time>2026-04-27T15:56:48.045Z</time></trkpt><trkpt lat="48.83775467" lon="9.22673208"><ele>210.5</ele><time>2026-04-27T15:56:49.04Z</time></trkpt><trkpt lat="48.83780473" lon="9.22690307"><ele>209.66666666666666</ele><time>2026-04-27T15:56:51.044Z</time></trkpt><trkpt lat="48.83784438" lon="9.22699156"><ele>208.83333333333331</ele><time>2026-04-27T15:56:52.044Z</time></trkpt><trkpt lat="48.83787705" lon="9.22707923"><ele>208.0</ele><time>2026-04-27T15:56:53.049Z</time></trkpt><trkpt lat="48.8379061" lon="9.2271685"><ele>208.0</ele><time>2026-04-27T15:56:55.05Z</time></trkpt><trkpt lat="48.83794131" lon="9.22729268"><ele>208.0</ele><time>2026-04-27T15:56:57.054Z</time></trkpt><trkpt lat="48.83808299" lon="9.22751567"><ele>208.0</ele><time>2026-04-27T15:57:00.045Z</time></trkpt><trkpt lat="48.83813205" lon="9.22766999"><ele>208.0</ele><time>2026-04-27T15:57:02.046Z</time></trkpt><trkpt lat="48.83816716" lon="9.22775539"><ele>208.60000000000002</ele><time>2026-04-27T15:57:03.046Z</time></trkpt><trkpt lat="48.83819603" lon="9.2278477"><ele>209.20000000000002</ele><time>2026-04-27T15:57:04.046Z</time></trkpt><trkpt lat="48.83828192" lon="9.22799528"><ele>209.8</ele><time>2026-04-27T15:57:06.033Z</time></trkpt><trkpt lat="48.83833213" lon="9.22807718"><ele>210.4</ele><time>2026-04-27T15:57:07.052Z</time></trkpt><trkpt lat="48.83842286" lon="9.22821942"><ele>211.0</ele><time>2026-04-27T15:57:09.033Z</time></trkpt><trkpt lat="48.83846068" lon="9.22830008"><ele>210.83333333333331</ele><time>2026-04-27T15:57:10.042Z</time></trkpt><trkpt lat="48.83853401" lon="9.22842186"><ele>210.66666666666666</ele><time>2026-04-27T15:57:11.171Z</time></trkpt><trkpt lat="48.83859679" lon="9.22853856"><ele>210.5</ele><time>2026-04-27T15:57:12.061Z</time></trkpt><trkpt lat="48.8386436" lon="9.22862422"><ele>210.33333333333331</ele><time>2026-04-27T15:57:13.063Z</time></trkpt><trkpt lat="48.83867812" lon="9.22872465"><ele>210.16666666666666</ele><time>2026-04-27T15:57:14.045Z</time></trkpt><trkpt lat="48.83872743" lon="9.22880017"><ele>210.0</ele><time>2026-04-27T15:57:15.047Z</time></trkpt><trkpt lat="48.83876102" lon="9.22888827"><ele>210.0</ele><time>2026-04-27T15:57:16.049Z</time></trkpt><trkpt lat="48.83879504" lon="9.22897357"><ele>210.0</ele><time>2026-04-27T15:57:17.048Z</time></trkpt><trkpt lat="48.83878735" lon="9.22907135"><ele>210.0</ele><time>2026-04-27T15:57:18.05Z</time></trkpt><trkpt lat="48.83886145" lon="9.2292585"><ele>210.0</ele><time>2026-04-27T15:57:20.04Z</time></trkpt><trkpt lat="48.83889737" lon="9.22934299"><ele>210.0</ele><time>2026-04-27T15:57:21.058Z</time></trkpt><trkpt lat="48.83893091" lon="9.22942995"><ele>210.0</ele><time>2026-04-27T15:57:22.035Z</time></trkpt><trkpt lat="48.83898781" lon="9.22959653"><ele>210.75</ele><time>2026-04-27T15:57:24.224Z</time></trkpt><trkpt lat="48.83904987" lon="9.22977852"><ele>211.5</ele><time>2026-04-27T15:57:26.046Z</time></trkpt><trkpt lat="48.83913259" lon="9.2299356"><ele>212.25</ele><time>2026-04-27T15:57:27.049Z</time></trkpt><trkpt lat="48.83918338" lon="9.23003957"><ele>213.0</ele><time>2026-04-27T15:57:28.046Z</time></trkpt><trkpt lat="48.83923907" lon="9.23019497"><ele>213.16666666666666</ele><time>2026-04-27T15:57:30.041Z</time></trkpt><trkpt lat="48.83927446" lon="9.23027642"><ele>213.33333333333331</ele><time>2026-04-27T15:57:31.046Z</time></trkpt><trkpt lat="48.83932004" lon="9.23036391"><ele>213.5</ele><time>2026-04-27T15:57:32.043Z</time></trkpt><trkpt lat="48.83935701" lon="9.23045257"><ele>213.66666666666666</ele><time>2026-04-27T15:57:33.038Z</time></trkpt><trkpt lat="48.83941151" lon="9.23054664"><ele>213.83333333333331</ele><time>2026-04-27T15:57:34.047Z</time></trkpt><trkpt lat="48.83941401" lon="9.23067771"><ele>214.0</ele><time>2026-04-27T15:57:36.041Z</time></trkpt><trkpt lat="48.83947392" lon="9.23078201"><ele>213.6</ele><time>2026-04-27T15:57:37.048Z</time></trkpt><trkpt lat="48.83954363" lon="9.23087587"><ele>213.2</ele><time>2026-04-27T15:57:38.033Z</time></trkpt><trkpt lat="48.83959585" lon="9.2309656"><ele>212.79999999999998</ele><time>2026-04-27T15:57:39.028Z</time></trkpt><trkpt lat="48.83969087" lon="9.23116551"><ele>212.39999999999998</ele><time>2026-04-27T15:57:41.043Z</time></trkpt><trkpt lat="48.83973705" lon="9.23126636"><ele>212.0</ele><time>2026-04-27T15:57:42.027Z</time></trkpt><trkpt lat="48.83977562" lon="9.23135747"><ele>212.0</ele><time>2026-04-27T15:57:43.03Z</time></trkpt><trkpt lat="48.8398207" lon="9.23145658"><ele>212.0</ele><time>2026-04-27T15:57:44.051Z</time></trkpt><trkpt lat="48.83984225" lon="9.23157163"><ele>212.0</ele><time>2026-04-27T15:57:45.052Z</time></trkpt><trkpt lat="48.83986886" lon="9.23167798"><ele>212.0</ele><time>2026-04-27T15:57:46.055Z</time></trkpt><trkpt lat="48.83988358" lon="9.23178146"><ele>212.0</ele><time>2026-04-27T15:57:47.06Z</time></trkpt><trkpt lat="48.83990687" lon="9.23188482"><ele>212.0</ele><time>2026-04-27T15:57:48.057Z</time></trkpt><trkpt lat="48.83992958" lon="9.23198077"><ele>212.0</ele><time>2026-04-27T15:57:49.042Z</time></trkpt><trkpt lat="48.83995324" lon="9.23207187"><ele>212.16666666666669</ele><time>2026-04-27T15:57:50.04Z</time></trkpt><trkpt lat="48.83997844" lon="9.2321867"><ele>212.33333333333334</ele><time>2026-04-27T15:57:51.042Z</time></trkpt><trkpt lat="48.83999733" lon="9.23228346"><ele>212.5</ele><time>2026-04-27T15:57:52.043Z</time></trkpt><trkpt lat="48.84003695" lon="9.23242193"><ele>212.66666666666669</ele><time>2026-04-27T15:57:53.046Z</time></trkpt><trkpt lat="48.8400395" lon="9.23260132"><ele>212.83333333333334</ele><time>2026-04-27T15:57:55.051Z</time></trkpt><trkpt lat="48.84006341" lon="9.23272636"><ele>213.0</ele><time>2026-04-27T15:57:56.054Z</time></trkpt><trkpt lat="48.84007219" lon="9.23292656"><ele>212.25</ele><time>2026-04-27T15:57:58.042Z</time></trkpt><trkpt lat="48.84006936" lon="9.23308107"><ele>211.5</ele><time>2026-04-27T15:58:00.041Z</time></trkpt><trkpt lat="48.84011725" lon="9.23341173"><ele>210.75</ele><time>2026-04-27T15:58:04.068Z</time></trkpt><trkpt lat="48.84016587" lon="9.23357231"><ele>210.0</ele><time>2026-04-27T15:58:06.047Z</time></trkpt><trkpt lat="48.84022753" lon="9.23371887"><ele>210.0</ele><time>2026-04-27T15:58:08.042Z</time></trkpt><trkpt lat="48.84026842" lon="9.23382303"><ele>210.0</ele><time>2026-04-27T15:58:09.044Z</time></trkpt><trkpt lat="48.84031057" lon="9.23392604"><ele>210.0</ele><time>2026-04-27T15:58:10.046Z</time></trkpt><trkpt lat="48.84037659" lon="9.23399333"><ele>210.0</ele><time>2026-04-27T15:58:11.042Z</time></trkpt><trkpt lat="48.8404194" lon="9.23407205"><ele>210.0</ele><time>2026-04-27T15:58:12.034Z</time></trkpt><trkpt lat="48.84045331" lon="9.2341586"><ele>210.0</ele><time>2026-04-27T15:58:13.047Z</time></trkpt><trkpt lat="48.8404926" lon="9.23424159"><ele>210.0</ele><time>2026-04-27T15:58:14.155Z</time></trkpt><trkpt lat="48.84058183" lon="9.23437659"><ele>210.5</ele><time>2026-04-27T15:58:15.038Z</time></trkpt><trkpt lat="48.84063505" lon="9.23453702"><ele>211.0</ele><time>2026-04-27T15:58:17.043Z</time></trkpt><trkpt lat="48.84065801" lon="9.23462791"><ele>211.5</ele><time>2026-04-27T15:58:18.055Z</time></trkpt><trkpt lat="48.84070887" lon="9.23470961"><ele>212.0</ele><time>2026-04-27T15:58:19.041Z</time></trkpt><trkpt lat="48.84074223" lon="9.23479313"><ele>212.5</ele><time>2026-04-27T15:58:20.039Z</time></trkpt><trkpt lat="48.84079559" lon="9.23488599"><ele>213.0</ele><time>2026-04-27T15:58:21.042Z</time></trkpt><trkpt lat="48.84088946" lon="9.23512018"><ele>212.66666666666666</ele><time>2026-04-27T15:58:24.033Z</time></trkpt><trkpt lat="48.84093764" lon="9.23526601"><ele>212.33333333333331</ele><time>2026-04-27T15:58:26.055Z</time></trkpt><trkpt lat="48.84099458" lon="9.23535627"><ele>212.0</ele><time>2026-04-27T15:58:27.055Z</time></trkpt><trkpt lat="48.84103524" lon="9.23544143"><ele>211.66666666666666</ele><time>2026-04-27T15:58:28.056Z</time></trkpt><trkpt lat="48.84107954" lon="9.23551874"><ele>211.33333333333331</ele><time>2026-04-27T15:58:29.042Z</time></trkpt><trkpt lat="48.84112488" lon="9.23568886"><ele>211.0</ele><time>2026-04-27T15:58:31.044Z</time></trkpt><trkpt lat="48.84119532" lon="9.23583862"><ele>210.99999999999997</ele><time>2026-04-27T15:58:33.023Z</time></trkpt><trkpt lat="48.84122414" lon="9.23593173"><ele>211.0</ele><time>2026-04-27T15:58:34.04Z</time></trkpt><trkpt lat="48.84127426" lon="9.236019"><ele>211.0</ele><time>2026-04-27T15:58:35.048Z</time></trkpt><trkpt lat="48.8413284" lon="9.23611567"><ele>211.0</ele><time>2026-04-27T15:58:36.043Z</time></trkpt><trkpt lat="48.84137541" lon="9.23620563"><ele>210.99999999999997</ele><time>2026-04-27T15:58:37.035Z</time></trkpt><trkpt lat="48.84142826" lon="9.23628604"><ele>211.0</ele><time>2026-04-27T15:58:38.031Z</time></trkpt><trkpt lat="48.84151234" lon="9.23632348"><ele>211.0</ele><time>2026-04-27T15:58:40.042Z</time></trkpt><trkpt lat="48.8416662" lon="9.2362188"><ele>211.0</ele><time>2026-04-27T15:58:42.028Z</time></trkpt><trkpt lat="48.84179142" lon="9.23622897"><ele>211.0</ele><time>2026-04-27T15:58:44.042Z</time></trkpt><trkpt lat="48.8419492" lon="9.236394"><ele>210.66666666666666</ele><time>2026-04-27T15:58:47.035Z</time></trkpt><trkpt lat="48.84199462" lon="9.23649732"><ele>210.33333333333331</ele><time>2026-04-27T15:58:48.032Z</time></trkpt><trkpt lat="48.8420528" lon="9.23665825"><ele>210.0</ele><time>2026-04-27T15:58:50.039Z</time></trkpt><trkpt lat="48.84209729" lon="9.23675089"><ele>209.66666666666669</ele><time>2026-04-27T15:58:51.038Z</time></trkpt><trkpt lat="48.84213538" lon="9.23683137"><ele>209.33333333333334</ele><time>2026-04-27T15:58:52.039Z</time></trkpt><trkpt lat="48.84216084" lon="9.23692622"><ele>209.0</ele><time>2026-04-27T15:58:53.047Z</time></trkpt><trkpt lat="48.84221357" lon="9.23709955"><ele>209.0</ele><time>2026-04-27T15:58:55.038Z</time></trkpt><trkpt lat="48.84224319" lon="9.2371971"><ele>209.0</ele><time>2026-04-27T15:58:56.044Z</time></trkpt><trkpt lat="48.84226578" lon="9.23728777"><ele>209.0</ele><time>2026-04-27T15:58:57.043Z</time></trkpt><trkpt lat="48.84229695" lon="9.23737584"><ele>209.0</ele><time>2026-04-27T15:58:58.043Z</time></trkpt><trkpt lat="48.84232742" lon="9.23746298"><ele>209.0</ele><time>2026-04-27T15:58:59.043Z</time></trkpt><trkpt lat="48.84236501" lon="9.23755418"><ele>209.0</ele><time>2026-04-27T15:59:00.045Z</time></trkpt><trkpt lat="48.84240302" lon="9.23764405"><ele>209.0</ele><time>2026-04-27T15:59:01.045Z</time></trkpt><trkpt lat="48.84242986" lon="9.2377421"><ele>209.6</ele><time>2026-04-27T15:59:02.042Z</time></trkpt><trkpt lat="48.84245635" lon="9.23783134"><ele>210.2</ele><time>2026-04-27T15:59:03.039Z</time></trkpt><trkpt lat="48.84248621" lon="9.23791932"><ele>210.79999999999998</ele><time>2026-04-27T15:59:04.041Z</time></trkpt><trkpt lat="48.84253786" lon="9.23808354"><ele>211.39999999999998</ele><time>2026-04-27T15:59:06.045Z</time></trkpt><trkpt lat="48.84257595" lon="9.23827487"><ele>212.0</ele><time>2026-04-27T15:59:08.05Z</time></trkpt><trkpt lat="48.84258374" lon="9.23838152"><ele>212.6</ele><time>2026-04-27T15:59:09.051Z</time></trkpt><trkpt lat="48.84255414" lon="9.23856321"><ele>213.2</ele><time>2026-04-27T15:59:11.035Z</time></trkpt><trkpt lat="48.84253025" lon="9.23875089"><ele>213.8</ele><time>2026-04-27T15:59:13.034Z</time></trkpt><trkpt lat="48.84251675" lon="9.23884948"><ele>214.4</ele><time>2026-04-27T15:59:14.038Z</time></trkpt><trkpt lat="48.84254562" lon="9.23902383"><ele>215.0</ele><time>2026-04-27T15:59:16.045Z</time></trkpt><trkpt lat="48.84260406" lon="9.23911066"><ele>214.7142857142857</ele><time>2026-04-27T15:59:17.047Z</time></trkpt><trkpt lat="48.84264523" lon="9.23918699"><ele>214.42857142857144</ele><time>2026-04-27T15:59:18.048Z</time></trkpt><trkpt lat="48.84268538" lon="9.2392778"><ele>214.14285714285714</ele><time>2026-04-27T15:59:19.051Z</time></trkpt><trkpt lat="48.84274253" lon="9.2393687"><ele>213.85714285714283</ele><time>2026-04-27T15:59:20.037Z</time></trkpt><trkpt lat="48.84280067" lon="9.23944595"><ele>213.57142857142856</ele><time>2026-04-27T15:59:21.038Z</time></trkpt><trkpt lat="48.84285919" lon="9.2395038"><ele>213.28571428571428</ele><time>2026-04-27T15:59:22.034Z</time></trkpt><trkpt lat="48.84290793" lon="9.23957384"><ele>213.0</ele><time>2026-04-27T15:59:23.04Z</time></trkpt><trkpt lat="48.84298315" lon="9.23970073"><ele>213.0</ele><time>2026-04-27T15:59:25.038Z</time></trkpt><trkpt lat="48.84303365" lon="9.23975854"><ele>213.0</ele><time>2026-04-27T15:59:26.035Z</time></trkpt><trkpt lat="48.84309944" lon="9.23981953"><ele>213.0</ele><time>2026-04-27T15:59:27.039Z</time></trkpt><trkpt lat="48.84324131" lon="9.24008955"><ele>213.0</ele><time>2026-04-27T15:59:31.033Z</time></trkpt><trkpt lat="48.84329458" lon="9.24023142"><ele>213.0</ele><time>2026-04-27T15:59:33.039Z</time></trkpt><trkpt lat="48.84333929" lon="9.24030234"><ele>213.0</ele><time>2026-04-27T15:59:34.033Z</time></trkpt><trkpt lat="48.84341553" lon="9.24049458"><ele>213.0</ele><time>2026-04-27T15:59:36.038Z</time></trkpt><trkpt lat="48.84351524" lon="9.24061996"><ele>213.0</ele><time>2026-04-27T15:59:38.04Z</time></trkpt><trkpt lat="48.84357793" lon="9.2407043"><ele>213.0</ele><time>2026-04-27T15:59:39.042Z</time></trkpt><trkpt lat="48.84363076" lon="9.24077693"><ele>214.0</ele><time>2026-04-27T15:59:40.038Z</time></trkpt><trkpt lat="48.84368174" lon="9.2408563"><ele>215.0</ele><time>2026-04-27T15:59:41.029Z</time></trkpt><trkpt lat="48.84374358" lon="9.24092743"><ele>216.0</ele><time>2026-04-27T15:59:41.972Z</time></trkpt><trkpt lat="48.84382606" lon="9.24106076"><ele>217.0</ele><time>2026-04-27T15:59:44.038Z</time></trkpt><trkpt lat="48.84389071" lon="9.24121235"><ele>218.0</ele><time>2026-04-27T15:59:46.044Z</time></trkpt><trkpt lat="48.84395111" lon="9.24136436"><ele>217.5</ele><time>2026-04-27T15:59:48.047Z</time></trkpt><trkpt lat="48.84413509" lon="9.24154636"><ele>217.0</ele><time>2026-04-27T15:59:51.05Z</time></trkpt><trkpt lat="48.84414884" lon="9.24164306"><ele>216.5</ele><time>2026-04-27T15:59:52.053Z</time></trkpt><trkpt lat="48.84422704" lon="9.24176877"><ele>216.0</ele><time>2026-04-27T15:59:54.038Z</time></trkpt><trkpt lat="48.84430996" lon="9.24189903"><ele>216.0</ele><time>2026-04-27T15:59:56.042Z</time></trkpt><trkpt lat="48.84436251" lon="9.2419547"><ele>216.0</ele><time>2026-04-27T15:59:57.045Z</time></trkpt><trkpt lat="48.84440994" lon="9.24205363"><ele>216.0</ele><time>2026-04-27T15:59:58.047Z</time></trkpt><trkpt lat="48.84449968" lon="9.24218143"><ele>216.0</ele><time>2026-04-27T16:00:00.048Z</time></trkpt><trkpt lat="48.84454623" lon="9.24224826"><ele>216.0</ele><time>2026-04-27T16:00:01.027Z</time></trkpt><trkpt lat="48.84460441" lon="9.24233452"><ele>216.0</ele><time>2026-04-27T16:00:02.081Z</time></trkpt><trkpt lat="48.8446672" lon="9.24248106"><ele>217.83333333333334</ele><time>2026-04-27T16:00:04.043Z</time></trkpt><trkpt lat="48.84472054" lon="9.24255275"><ele>219.66666666666669</ele><time>2026-04-27T16:00:05.035Z</time></trkpt><trkpt lat="48.84476887" lon="9.2426207"><ele>221.5</ele><time>2026-04-27T16:00:06.04Z</time></trkpt><trkpt lat="48.84481734" lon="9.24270579"><ele>223.33333333333334</ele><time>2026-04-27T16:00:07.042Z</time></trkpt><trkpt lat="48.84486911" lon="9.24277263"><ele>225.16666666666669</ele><time>2026-04-27T16:00:08.031Z</time></trkpt><trkpt lat="48.84491769" lon="9.2428349"><ele>227.0</ele><time>2026-04-27T16:00:09.038Z</time></trkpt><trkpt lat="48.84505459" lon="9.2430534"><ele>227.00000000000003</ele><time>2026-04-27T16:00:12.039Z</time></trkpt><trkpt lat="48.84510238" lon="9.24312164"><ele>227.0</ele><time>2026-04-27T16:00:13.041Z</time></trkpt><trkpt lat="48.84515492" lon="9.24320449"><ele>227.0</ele><time>2026-04-27T16:00:14.038Z</time></trkpt><trkpt lat="48.84523389" lon="9.24327538"><ele>227.0</ele><time>2026-04-27T16:00:15.035Z</time></trkpt><trkpt lat="48.84529388" lon="9.2433464"><ele>227.00000000000003</ele><time>2026-04-27T16:00:16.037Z</time></trkpt><trkpt lat="48.84533609" lon="9.24342478"><ele>227.0</ele><time>2026-04-27T16:00:17.033Z</time></trkpt><trkpt lat="48.84539488" lon="9.24349628"><ele>227.39999999999998</ele><time>2026-04-27T16:00:18.036Z</time></trkpt><trkpt lat="48.84548455" lon="9.24366396"><ele>227.79999999999998</ele><time>2026-04-27T16:00:20.039Z</time></trkpt><trkpt lat="48.8455262" lon="9.24374062"><ele>228.2</ele><time>2026-04-27T16:00:21.037Z</time></trkpt><trkpt lat="48.84557272" lon="9.24381481"><ele>228.6</ele><time>2026-04-27T16:00:22.038Z</time></trkpt><trkpt lat="48.84566502" lon="9.24392619"><ele>229.0</ele><time>2026-04-27T16:00:24.046Z</time></trkpt><trkpt lat="48.84572245" lon="9.2439923"><ele>228.99999999999997</ele><time>2026-04-27T16:00:25.041Z</time></trkpt><trkpt lat="48.84578577" lon="9.24406438"><ele>229.0</ele><time>2026-04-27T16:00:26.042Z</time></trkpt><trkpt lat="48.84585738" lon="9.24415936"><ele>229.0</ele><time>2026-04-27T16:00:27.045Z</time></trkpt><trkpt lat="48.84592289" lon="9.24424632"><ele>229.0</ele><time>2026-04-27T16:00:28.047Z</time></trkpt><trkpt lat="48.84598885" lon="9.2443381"><ele>228.99999999999997</ele><time>2026-04-27T16:00:28.97Z</time></trkpt><trkpt lat="48.84604452" lon="9.24442867"><ele>229.0</ele><time>2026-04-27T16:00:29.974Z</time></trkpt><trkpt lat="48.84615751" lon="9.24456835"><ele>229.0</ele><time>2026-04-27T16:00:32.035Z</time></trkpt><trkpt lat="48.84620475" lon="9.24463941"><ele>229.0</ele><time>2026-04-27T16:00:33.036Z</time></trkpt><trkpt lat="48.84626503" lon="9.24471841"><ele>229.0</ele><time>2026-04-27T16:00:34.037Z</time></trkpt><trkpt lat="48.84631747" lon="9.24477733"><ele>229.0</ele><time>2026-04-27T16:00:35.042Z</time></trkpt><trkpt lat="48.84637339" lon="9.2448519"><ele>229.0</ele><time>2026-04-27T16:00:36.043Z</time></trkpt><trkpt lat="48.84641678" lon="9.24492945"><ele>229.0</ele><time>2026-04-27T16:00:37.044Z</time></trkpt><trkpt lat="48.8464822" lon="9.24500967"><ele>229.0</ele><time>2026-04-27T16:00:38.047Z</time></trkpt><trkpt lat="48.84653738" lon="9.24508617"><ele>228.99999999999997</ele><time>2026-04-27T16:00:39.048Z</time></trkpt><trkpt lat="48.84660651" lon="9.2451558"><ele>229.0</ele><time>2026-04-27T16:00:40.049Z</time></trkpt><trkpt lat="48.84666623" lon="9.24522608"><ele>229.0</ele><time>2026-04-27T16:00:41.037Z</time></trkpt><trkpt lat="48.84671472" lon="9.24528962"><ele>229.0</ele><time>2026-04-27T16:00:42.035Z</time></trkpt><trkpt lat="48.84678617" lon="9.24535652"><ele>228.99999999999997</ele><time>2026-04-27T16:00:43.034Z</time></trkpt><trkpt lat="48.84685837" lon="9.24543563"><ele>229.0</ele><time>2026-04-27T16:00:44.036Z</time></trkpt><trkpt lat="48.84692138" lon="9.24549295"><ele>228.2</ele><time>2026-04-27T16:00:45.04Z</time></trkpt><trkpt lat="48.84703856" lon="9.2455863"><ele>227.39999999999998</ele><time>2026-04-27T16:00:47.031Z</time></trkpt><trkpt lat="48.84709894" lon="9.24564794"><ele>226.6</ele><time>2026-04-27T16:00:47.971Z</time></trkpt><trkpt lat="48.84715864" lon="9.24571551"><ele>225.8</ele><time>2026-04-27T16:00:48.975Z</time></trkpt><trkpt lat="48.84724828" lon="9.24578338"><ele>225.0</ele><time>2026-04-27T16:00:50.035Z</time></trkpt><trkpt lat="48.84732252" lon="9.24586589"><ele>225.0</ele><time>2026-04-27T16:00:51.032Z</time></trkpt><trkpt lat="48.84747964" lon="9.24605299"><ele>225.0</ele><time>2026-04-27T16:00:54.035Z</time></trkpt><trkpt lat="48.84753949" lon="9.24610362"><ele>225.0</ele><time>2026-04-27T16:00:55.035Z</time></trkpt><trkpt lat="48.84765677" lon="9.2462065"><ele>225.0</ele><time>2026-04-27T16:00:57.037Z</time></trkpt><trkpt lat="48.84771632" lon="9.24627706"><ele>225.5714285714286</ele><time>2026-04-27T16:00:58.038Z</time></trkpt><trkpt lat="48.84778022" lon="9.24637244"><ele>226.14285714285717</ele><time>2026-04-27T16:00:59.039Z</time></trkpt><trkpt lat="48.84783506" lon="9.2464195"><ele>226.71428571428572</ele><time>2026-04-27T16:01:00.037Z</time></trkpt><trkpt lat="48.84789711" lon="9.24645979"><ele>227.2857142857143</ele><time>2026-04-27T16:01:01.037Z</time></trkpt><trkpt lat="48.84796458" lon="9.24650067"><ele>227.8571428571429</ele><time>2026-04-27T16:01:02.035Z</time></trkpt><trkpt lat="48.84802094" lon="9.24656398"><ele>228.42857142857142</ele><time>2026-04-27T16:01:03.038Z</time></trkpt><trkpt lat="48.84808674" lon="9.24660482"><ele>229.0</ele><time>2026-04-27T16:01:04.036Z</time></trkpt><trkpt lat="48.8481582" lon="9.24664893"><ele>228.99999999999997</ele><time>2026-04-27T16:01:05.04Z</time></trkpt><trkpt lat="48.84825917" lon="9.24675364"><ele>229.0</ele><time>2026-04-27T16:01:07.043Z</time></trkpt><trkpt lat="48.84833313" lon="9.24681541"><ele>229.0</ele><time>2026-04-27T16:01:08.046Z</time></trkpt><trkpt lat="48.84838427" lon="9.24688424"><ele>229.0</ele><time>2026-04-27T16:01:09.049Z</time></trkpt><trkpt lat="48.84845099" lon="9.24693354"><ele>228.99999999999997</ele><time>2026-04-27T16:01:10.05Z</time></trkpt><trkpt lat="48.84850493" lon="9.24699056"><ele>229.0</ele><time>2026-04-27T16:01:11.051Z</time></trkpt><trkpt lat="48.84864726" lon="9.24711024"><ele>229.5</ele><time>2026-04-27T16:01:13.036Z</time></trkpt><trkpt lat="48.84879621" lon="9.24723768"><ele>230.0</ele><time>2026-04-27T16:01:15.04Z</time></trkpt><trkpt lat="48.84885297" lon="9.24728581"><ele>230.5</ele><time>2026-04-27T16:01:16.041Z</time></trkpt><trkpt lat="48.84896926" lon="9.24737076"><ele>231.0</ele><time>2026-04-27T16:01:18.046Z</time></trkpt><trkpt lat="48.84910032" lon="9.24746392"><ele>231.0</ele><time>2026-04-27T16:01:20.047Z</time></trkpt><trkpt lat="48.84918195" lon="9.24752909"><ele>231.00000000000003</ele><time>2026-04-27T16:01:21.036Z</time></trkpt><trkpt lat="48.84926356" lon="9.24758901"><ele>231.00000000000003</ele><time>2026-04-27T16:01:22.037Z</time></trkpt><trkpt lat="48.84938238" lon="9.24766905"><ele>231.0</ele><time>2026-04-27T16:01:24.035Z</time></trkpt><trkpt lat="48.849486" lon="9.24774958"><ele>231.0</ele><time>2026-04-27T16:01:26.037Z</time></trkpt><trkpt lat="48.84955575" lon="9.24779637"><ele>229.57142857142858</ele><time>2026-04-27T16:01:27.04Z</time></trkpt><trkpt lat="48.84961667" lon="9.24785172"><ele>228.14285714285714</ele><time>2026-04-27T16:01:28.04Z</time></trkpt><trkpt lat="48.84967636" lon="9.24790401"><ele>226.71428571428572</ele><time>2026-04-27T16:01:29.035Z</time></trkpt><trkpt lat="48.84974065" lon="9.24793068"><ele>225.28571428571428</ele><time>2026-04-27T16:01:30.038Z</time></trkpt><trkpt lat="48.8498149" lon="9.24797854"><ele>223.85714285714286</ele><time>2026-04-27T16:01:31.031Z</time></trkpt><trkpt lat="48.84988521" lon="9.24801141"><ele>222.42857142857144</ele><time>2026-04-27T16:01:32.031Z</time></trkpt><trkpt lat="48.84994898" lon="9.24805738"><ele>221.0</ele><time>2026-04-27T16:01:33.034Z</time></trkpt><trkpt lat="48.85003057" lon="9.24811415"><ele>221.60000000000002</ele><time>2026-04-27T16:01:34.039Z</time></trkpt><trkpt lat="48.8501755" lon="9.24818868"><ele>222.20000000000002</ele><time>2026-04-27T16:01:36.038Z</time></trkpt><trkpt lat="48.85023687" lon="9.24821998"><ele>222.79999999999998</ele><time>2026-04-27T16:01:37.038Z</time></trkpt><trkpt lat="48.85032089" lon="9.24826551"><ele>223.39999999999998</ele><time>2026-04-27T16:01:38.037Z</time></trkpt><trkpt lat="48.85038286" lon="9.24831906"><ele>224.0</ele><time>2026-04-27T16:01:39.042Z</time></trkpt><trkpt lat="48.85045617" lon="9.24836194"><ele>224.0</ele><time>2026-04-27T16:01:40.04Z</time></trkpt><trkpt lat="48.85053578" lon="9.24839888"><ele>224.0</ele><time>2026-04-27T16:01:41.04Z</time></trkpt><trkpt lat="48.85059775" lon="9.24845416"><ele>224.0</ele><time>2026-04-27T16:01:42.039Z</time></trkpt><trkpt lat="48.85065777" lon="9.24848691"><ele>224.0</ele><time>2026-04-27T16:01:43.042Z</time></trkpt><trkpt lat="48.85073626" lon="9.24853017"><ele>224.0</ele><time>2026-04-27T16:01:44.043Z</time></trkpt><trkpt lat="48.85080236" lon="9.24858165"><ele>224.0</ele><time>2026-04-27T16:01:45.045Z</time></trkpt><trkpt lat="48.85085927" lon="9.24862853"><ele>224.0</ele><time>2026-04-27T16:01:46.045Z</time></trkpt><trkpt lat="48.85092155" lon="9.24868932"><ele>222.79999999999998</ele><time>2026-04-27T16:01:47.051Z</time></trkpt><trkpt lat="48.85097507" lon="9.24875312"><ele>221.59999999999997</ele><time>2026-04-27T16:01:48.049Z</time></trkpt><trkpt lat="48.85106657" lon="9.24884897"><ele>220.4</ele><time>2026-04-27T16:01:50.035Z</time></trkpt><trkpt lat="48.85112901" lon="9.24890711"><ele>219.2</ele><time>2026-04-27T16:01:51.041Z</time></trkpt><trkpt lat="48.85118984" lon="9.24896026"><ele>218.0</ele><time>2026-04-27T16:01:52.039Z</time></trkpt><trkpt lat="48.85130627" lon="9.24909985"><ele>218.0</ele><time>2026-04-27T16:01:54.043Z</time></trkpt><trkpt lat="48.85138313" lon="9.24918273"><ele>218.0</ele><time>2026-04-27T16:01:55.047Z</time></trkpt><trkpt lat="48.8515248" lon="9.24931519"><ele>218.0</ele><time>2026-04-27T16:01:57.035Z</time></trkpt><trkpt lat="48.85158589" lon="9.24935931"><ele>218.0</ele><time>2026-04-27T16:01:58.035Z</time></trkpt><trkpt lat="48.85164379" lon="9.24940179"><ele>218.0</ele><time>2026-04-27T16:01:59.036Z</time></trkpt><trkpt lat="48.85170677" lon="9.24943041"><ele>218.00000000000003</ele><time>2026-04-27T16:02:00.037Z</time></trkpt><trkpt lat="48.85178068" lon="9.24946653"><ele>218.0</ele><time>2026-04-27T16:02:01.034Z</time></trkpt><trkpt lat="48.85184522" lon="9.24948472"><ele>218.0</ele><time>2026-04-27T16:02:02.038Z</time></trkpt><trkpt lat="48.85192488" lon="9.24951491"><ele>218.0</ele><time>2026-04-27T16:02:03.034Z</time></trkpt><trkpt lat="48.85200161" lon="9.24953584"><ele>218.00000000000003</ele><time>2026-04-27T16:02:04.036Z</time></trkpt><trkpt lat="48.85206692" lon="9.24955131"><ele>218.0</ele><time>2026-04-27T16:02:05.037Z</time></trkpt><trkpt lat="48.85218251" lon="9.24957309"><ele>218.16666666666669</ele><time>2026-04-27T16:02:07.034Z</time></trkpt><trkpt lat="48.85226886" lon="9.24959831"><ele>218.33333333333334</ele><time>2026-04-27T16:02:08.035Z</time></trkpt><trkpt lat="48.85234822" lon="9.24960919"><ele>218.5</ele><time>2026-04-27T16:02:10.044Z</time></trkpt><trkpt lat="48.85242765" lon="9.24964189"><ele>218.66666666666669</ele><time>2026-04-27T16:02:11.037Z</time></trkpt><trkpt lat="48.85249992" lon="9.24967772"><ele>218.83333333333334</ele><time>2026-04-27T16:02:12.038Z</time></trkpt><trkpt lat="48.85258376" lon="9.24974605"><ele>219.0</ele><time>2026-04-27T16:02:13.041Z</time></trkpt><trkpt lat="48.85270339" lon="9.24980738"><ele>219.0</ele><time>2026-04-27T16:02:15.037Z</time></trkpt><trkpt lat="48.85283742" lon="9.24987761"><ele>219.0</ele><time>2026-04-27T16:02:17.038Z</time></trkpt><trkpt lat="48.85297919" lon="9.24997306"><ele>219.0</ele><time>2026-04-27T16:02:19.975Z</time></trkpt><trkpt lat="48.85306342" lon="9.25002209"><ele>219.0</ele><time>2026-04-27T16:02:20.978Z</time></trkpt><trkpt lat="48.85318205" lon="9.25015756"><ele>219.0</ele><time>2026-04-27T16:02:22.979Z</time></trkpt><trkpt lat="48.85329967" lon="9.25022397"><ele>218.99999999999997</ele><time>2026-04-27T16:02:24.979Z</time></trkpt><trkpt lat="48.85337278" lon="9.25028036"><ele>218.99999999999997</ele><time>2026-04-27T16:02:25.981Z</time></trkpt><trkpt lat="48.85343927" lon="9.25034563"><ele>219.0</ele><time>2026-04-27T16:02:26.98Z</time></trkpt><trkpt lat="48.8535287" lon="9.25040384"><ele>219.0</ele><time>2026-04-27T16:02:27.978Z</time></trkpt><trkpt lat="48.85359289" lon="9.25044609"><ele>219.2</ele><time>2026-04-27T16:02:28.978Z</time></trkpt><trkpt lat="48.85365371" lon="9.25049883"><ele>219.39999999999998</ele><time>2026-04-27T16:02:30.037Z</time></trkpt><trkpt lat="48.85371072" lon="9.25054398"><ele>219.6</ele><time>2026-04-27T16:02:31.041Z</time></trkpt><trkpt lat="48.85383182" lon="9.25063853"><ele>219.8</ele><time>2026-04-27T16:02:33.042Z</time></trkpt><trkpt lat="48.85394335" lon="9.25074162"><ele>220.0</ele><time>2026-04-27T16:02:35.046Z</time></trkpt><trkpt lat="48.854004" lon="9.25079346"><ele>219.99999999999997</ele><time>2026-04-27T16:02:36.03Z</time></trkpt><trkpt lat="48.85405394" lon="9.25087438"><ele>220.0</ele><time>2026-04-27T16:02:37.038Z</time></trkpt><trkpt lat="48.85412067" lon="9.25091466"><ele>220.0</ele><time>2026-04-27T16:02:38.038Z</time></trkpt><trkpt lat="48.85424743" lon="9.25101476"><ele>220.0</ele><time>2026-04-27T16:02:40.038Z</time></trkpt><trkpt lat="48.85431414" lon="9.25106985"><ele>219.99999999999997</ele><time>2026-04-27T16:02:41.037Z</time></trkpt><trkpt lat="48.8543877" lon="9.25113674"><ele>220.0</ele><time>2026-04-27T16:02:42.04Z</time></trkpt><trkpt lat="48.85451128" lon="9.25121478"><ele>220.42857142857142</ele><time>2026-04-27T16:02:44.04Z</time></trkpt><trkpt lat="48.85457393" lon="9.25125335"><ele>220.85714285714286</ele><time>2026-04-27T16:02:45.039Z</time></trkpt><trkpt lat="48.8546372" lon="9.25131217"><ele>221.28571428571428</ele><time>2026-04-27T16:02:46.033Z</time></trkpt><trkpt lat="48.8547033" lon="9.25136874"><ele>221.71428571428572</ele><time>2026-04-27T16:02:47.034Z</time></trkpt><trkpt lat="48.85476516" lon="9.25142812"><ele>222.14285714285714</ele><time>2026-04-27T16:02:48.036Z</time></trkpt><trkpt lat="48.85483105" lon="9.25148001"><ele>222.57142857142856</ele><time>2026-04-27T16:02:49.038Z</time></trkpt><trkpt lat="48.85489525" lon="9.25154287"><ele>223.0</ele><time>2026-04-27T16:02:50.039Z</time></trkpt><trkpt lat="48.85495453" lon="9.251581"><ele>222.99999999999997</ele><time>2026-04-27T16:02:51.042Z</time></trkpt><trkpt lat="48.85502729" lon="9.25162855"><ele>223.0</ele><time>2026-04-27T16:02:52.037Z</time></trkpt><trkpt lat="48.85510889" lon="9.25168136"><ele>223.0</ele><time>2026-04-27T16:02:53.04Z</time></trkpt><trkpt lat="48.8551857" lon="9.25172832"><ele>223.0</ele><time>2026-04-27T16:02:54.041Z</time></trkpt><trkpt lat="48.85526676" lon="9.25177681"><ele>222.99999999999997</ele><time>2026-04-27T16:02:55.044Z</time></trkpt><trkpt lat="48.85534154" lon="9.25182233"><ele>223.0</ele><time>2026-04-27T16:02:56.046Z</time></trkpt><trkpt lat="48.85543277" lon="9.25188621"><ele>222.4</ele><time>2026-04-27T16:02:57.048Z</time></trkpt><trkpt lat="48.85551115" lon="9.25193496"><ele>221.8</ele><time>2026-04-27T16:02:58.035Z</time></trkpt><trkpt lat="48.85558948" lon="9.25197807"><ele>221.2</ele><time>2026-04-27T16:02:59.051Z</time></trkpt><trkpt lat="48.85574102" lon="9.25207432"><ele>220.6</ele><time>2026-04-27T16:03:01.036Z</time></trkpt><trkpt lat="48.85581435" lon="9.25210464"><ele>220.0</ele><time>2026-04-27T16:03:02.058Z</time></trkpt><trkpt lat="48.85587786" lon="9.25212828"><ele>219.99999999999997</ele><time>2026-04-27T16:03:03.042Z</time></trkpt><trkpt lat="48.85594816" lon="9.2521611"><ele>220.0</ele><time>2026-04-27T16:03:04.042Z</time></trkpt><trkpt lat="48.85602534" lon="9.25222102"><ele>220.0</ele><time>2026-04-27T16:03:05.045Z</time></trkpt><trkpt lat="48.85609562" lon="9.25228304"><ele>220.0</ele><time>2026-04-27T16:03:06.047Z</time></trkpt><trkpt lat="48.85615467" lon="9.2523274"><ele>219.99999999999997</ele><time>2026-04-27T16:03:07.046Z</time></trkpt><trkpt lat="48.85623244" lon="9.25237227"><ele>220.0</ele><time>2026-04-27T16:03:08.026Z</time></trkpt><trkpt lat="48.85630671" lon="9.25242282"><ele>220.4</ele><time>2026-04-27T16:03:09.051Z</time></trkpt><trkpt lat="48.85637686" lon="9.25246553"><ele>220.8</ele><time>2026-04-27T16:03:10.053Z</time></trkpt><trkpt lat="48.85645381" lon="9.25252594"><ele>221.2</ele><time>2026-04-27T16:03:11.039Z</time></trkpt><trkpt lat="48.85652501" lon="9.25256992"><ele>221.6</ele><time>2026-04-27T16:03:12.037Z</time></trkpt><trkpt lat="48.85659149" lon="9.25260122"><ele>222.0</ele><time>2026-04-27T16:03:13.039Z</time></trkpt><trkpt lat="48.8567375" lon="9.25268118"><ele>220.8</ele><time>2026-04-27T16:03:15.037Z</time></trkpt><trkpt lat="48.8568137" lon="9.25272687"><ele>219.6</ele><time>2026-04-27T16:03:16.035Z</time></trkpt><trkpt lat="48.85693946" lon="9.2528207"><ele>218.40000000000003</ele><time>2026-04-27T16:03:18.037Z</time></trkpt><trkpt lat="48.85700972" lon="9.25285933"><ele>217.20000000000002</ele><time>2026-04-27T16:03:19.04Z</time></trkpt><trkpt lat="48.85708459" lon="9.25290902"><ele>216.0</ele><time>2026-04-27T16:03:20.036Z</time></trkpt><trkpt lat="48.85727136" lon="9.25298598"><ele>216.0</ele><time>2026-04-27T16:03:23.041Z</time></trkpt><trkpt lat="48.85734856" lon="9.25302366"><ele>216.0</ele><time>2026-04-27T16:03:24.037Z</time></trkpt><trkpt lat="48.85742318" lon="9.25306757"><ele>216.0</ele><time>2026-04-27T16:03:25.039Z</time></trkpt><trkpt lat="48.85750145" lon="9.25309255"><ele>216.0</ele><time>2026-04-27T16:03:26.036Z</time></trkpt><trkpt lat="48.85757055" lon="9.25312512"><ele>216.0</ele><time>2026-04-27T16:03:27.038Z</time></trkpt><trkpt lat="48.85763199" lon="9.25315971"><ele>216.0</ele><time>2026-04-27T16:03:28.028Z</time></trkpt><trkpt lat="48.85770322" lon="9.25319628"><ele>216.5</ele><time>2026-04-27T16:03:29.028Z</time></trkpt><trkpt lat="48.85777994" lon="9.25324051"><ele>217.0</ele><time>2026-04-27T16:03:30.034Z</time></trkpt><trkpt lat="48.8578452" lon="9.25327746"><ele>217.5</ele><time>2026-04-27T16:03:31.036Z</time></trkpt><trkpt lat="48.857914" lon="9.253302"><ele>218.0</ele><time>2026-04-27T16:03:32.037Z</time></trkpt><trkpt lat="48.85798805" lon="9.25333416"><ele>218.5</ele><time>2026-04-27T16:03:33.042Z</time></trkpt><trkpt lat="48.85805545" lon="9.25333649"><ele>219.0</ele><time>2026-04-27T16:03:34.037Z</time></trkpt><trkpt lat="48.85817975" lon="9.25339433"><ele>219.0</ele><time>2026-04-27T16:03:36.033Z</time></trkpt><trkpt lat="48.85826541" lon="9.25344612"><ele>219.0</ele><time>2026-04-27T16:03:37.039Z</time></trkpt><trkpt lat="48.85835058" lon="9.25349808"><ele>219.0</ele><time>2026-04-27T16:03:38.044Z</time></trkpt><trkpt lat="48.85841584" lon="9.25354029"><ele>219.0</ele><time>2026-04-27T16:03:39.04Z</time></trkpt><trkpt lat="48.85847477" lon="9.2535773"><ele>219.0</ele><time>2026-04-27T16:03:40.042Z</time></trkpt><trkpt lat="48.85854968" lon="9.25360562"><ele>219.0</ele><time>2026-04-27T16:03:41.045Z</time></trkpt><trkpt lat="48.85870087" lon="9.25368737"><ele>218.0</ele><time>2026-04-27T16:03:43.046Z</time></trkpt><trkpt lat="48.85877546" lon="9.25372534"><ele>217.0</ele><time>2026-04-27T16:03:44.048Z</time></trkpt><trkpt lat="48.85885698" lon="9.25377468"><ele>216.0</ele><time>2026-04-27T16:03:45.037Z</time></trkpt><trkpt lat="48.85893163" lon="9.25379392"><ele>215.0</ele><time>2026-04-27T16:03:46.037Z</time></trkpt><trkpt lat="48.85900413" lon="9.25383965"><ele>214.0</ele><time>2026-04-27T16:03:47.039Z</time></trkpt><trkpt lat="48.85906869" lon="9.25387526"><ele>213.0</ele><time>2026-04-27T16:03:48.039Z</time></trkpt><trkpt lat="48.85919691" lon="9.25391891"><ele>212.83333333333334</ele><time>2026-04-27T16:03:50.044Z</time></trkpt><trkpt lat="48.85926363" lon="9.25396342"><ele>212.66666666666669</ele><time>2026-04-27T16:03:51.046Z</time></trkpt><trkpt lat="48.85932742" lon="9.25398617"><ele>212.5</ele><time>2026-04-27T16:03:52.048Z</time></trkpt><trkpt lat="48.85941723" lon="9.25403022"><ele>212.33333333333334</ele><time>2026-04-27T16:03:53.05Z</time></trkpt><trkpt lat="48.85948476" lon="9.25406428"><ele>212.16666666666669</ele><time>2026-04-27T16:03:54.037Z</time></trkpt><trkpt lat="48.85955193" lon="9.25408246"><ele>212.0</ele><time>2026-04-27T16:03:55.026Z</time></trkpt><trkpt lat="48.85963225" lon="9.25413873"><ele>212.0</ele><time>2026-04-27T16:03:56.027Z</time></trkpt><trkpt lat="48.85975994" lon="9.25419477"><ele>212.0</ele><time>2026-04-27T16:03:58.046Z</time></trkpt><trkpt lat="48.85982719" lon="9.25421462"><ele>212.0</ele><time>2026-04-27T16:03:59.046Z</time></trkpt><trkpt lat="48.85989589" lon="9.25424045"><ele>212.0</ele><time>2026-04-27T16:04:00.037Z</time></trkpt><trkpt lat="48.85996633" lon="9.25426068"><ele>212.0</ele><time>2026-04-27T16:04:01.036Z</time></trkpt><trkpt lat="48.8600832" lon="9.25432918"><ele>211.8</ele><time>2026-04-27T16:04:03.044Z</time></trkpt><trkpt lat="48.8602317" lon="9.25442538"><ele>211.6</ele><time>2026-04-27T16:04:05.042Z</time></trkpt><trkpt lat="48.86029802" lon="9.25445444"><ele>211.4</ele><time>2026-04-27T16:04:06.038Z</time></trkpt><trkpt lat="48.86037238" lon="9.25451218"><ele>211.20000000000002</ele><time>2026-04-27T16:04:07.043Z</time></trkpt><trkpt lat="48.86044317" lon="9.25455308"><ele>211.0</ele><time>2026-04-27T16:04:08.017Z</time></trkpt><trkpt lat="48.86055937" lon="9.25461289"><ele>211.0</ele><time>2026-04-27T16:04:10.043Z</time></trkpt><trkpt lat="48.86062985" lon="9.25464289"><ele>211.0</ele><time>2026-04-27T16:04:11.052Z</time></trkpt><trkpt lat="48.86072913" lon="9.25471887"><ele>211.0</ele><time>2026-04-27T16:04:13.039Z</time></trkpt><trkpt lat="48.86080695" lon="9.25476489"><ele>211.0</ele><time>2026-04-27T16:04:14.037Z</time></trkpt><trkpt lat="48.86088626" lon="9.25481977"><ele>211.0</ele><time>2026-04-27T16:04:16.042Z</time></trkpt><trkpt lat="48.86097407" lon="9.25488148"><ele>211.33333333333331</ele><time>2026-04-27T16:04:17.04Z</time></trkpt><trkpt lat="48.86104472" lon="9.25492879"><ele>211.66666666666666</ele><time>2026-04-27T16:04:18.044Z</time></trkpt><trkpt lat="48.86111123" lon="9.25498529"><ele>212.0</ele><time>2026-04-27T16:04:19.041Z</time></trkpt><trkpt lat="48.86121712" lon="9.25508636"><ele>212.33333333333331</ele><time>2026-04-27T16:04:21.04Z</time></trkpt><trkpt lat="48.86127757" lon="9.25514291"><ele>212.66666666666666</ele><time>2026-04-27T16:04:22.041Z</time></trkpt><trkpt lat="48.86133327" lon="9.25519902"><ele>213.0</ele><time>2026-04-27T16:04:23.04Z</time></trkpt><trkpt lat="48.86139598" lon="9.25526025"><ele>213.0</ele><time>2026-04-27T16:04:24.039Z</time></trkpt><trkpt lat="48.86155415" lon="9.25538937"><ele>213.0</ele><time>2026-04-27T16:04:27.037Z</time></trkpt><trkpt lat="48.86166776" lon="9.25548232"><ele>213.0</ele><time>2026-04-27T16:04:29.033Z</time></trkpt><trkpt lat="48.86172455" lon="9.25554381"><ele>213.0</ele><time>2026-04-27T16:04:30.042Z</time></trkpt><trkpt lat="48.86178618" lon="9.25558186"><ele>213.0</ele><time>2026-04-27T16:04:31.037Z</time></trkpt><trkpt lat="48.86184718" lon="9.25563796"><ele>212.5</ele><time>2026-04-27T16:04:32.037Z</time></trkpt><trkpt lat="48.8619537" lon="9.25573667"><ele>212.0</ele><time>2026-04-27T16:04:34.039Z</time></trkpt><trkpt lat="48.86200486" lon="9.25580132"><ele>211.5</ele><time>2026-04-27T16:04:35.04Z</time></trkpt><trkpt lat="48.86206997" lon="9.25585988"><ele>211.0</ele><time>2026-04-27T16:04:36.037Z</time></trkpt><trkpt lat="48.86211784" lon="9.25592359"><ele>210.5</ele><time>2026-04-27T16:04:37.038Z</time></trkpt><trkpt lat="48.8621847" lon="9.25597815"><ele>210.0</ele><time>2026-04-27T16:04:38.041Z</time></trkpt><trkpt lat="48.86224572" lon="9.25603896"><ele>210.0</ele><time>2026-04-27T16:04:39.037Z</time></trkpt><trkpt lat="48.86230547" lon="9.25609911"><ele>210.0</ele><time>2026-04-27T16:04:40.039Z</time></trkpt><trkpt lat="48.86236735" lon="9.2561616"><ele>210.0</ele><time>2026-04-27T16:04:41.042Z</time></trkpt><trkpt lat="48.86242402" lon="9.25620651"><ele>210.0</ele><time>2026-04-27T16:04:42.041Z</time></trkpt><trkpt lat="48.86252849" lon="9.25632925"><ele>210.0</ele><time>2026-04-27T16:04:44.027Z</time></trkpt><trkpt lat="48.86258792" lon="9.25639222"><ele>210.0</ele><time>2026-04-27T16:04:44.995Z</time></trkpt><trkpt lat="48.8626991" lon="9.25650577"><ele>209.8</ele><time>2026-04-27T16:04:47.038Z</time></trkpt><trkpt lat="48.86279969" lon="9.25662153"><ele>209.6</ele><time>2026-04-27T16:04:49.039Z</time></trkpt><trkpt lat="48.86285601" lon="9.25668244"><ele>209.39999999999998</ele><time>2026-04-27T16:04:50.041Z</time></trkpt><trkpt lat="48.86296136" lon="9.25679964"><ele>209.2</ele><time>2026-04-27T16:04:52.047Z</time></trkpt><trkpt lat="48.86301365" lon="9.25686144"><ele>209.0</ele><time>2026-04-27T16:04:53.048Z</time></trkpt><trkpt lat="48.86307379" lon="9.25692374"><ele>209.00000000000003</ele><time>2026-04-27T16:04:54.047Z</time></trkpt><trkpt lat="48.86312652" lon="9.2569764"><ele>209.0</ele><time>2026-04-27T16:04:55.051Z</time></trkpt><trkpt lat="48.86318002" lon="9.25704348"><ele>209.0</ele><time>2026-04-27T16:04:56.037Z</time></trkpt><trkpt lat="48.86323622" lon="9.25710442"><ele>209.0</ele><time>2026-04-27T16:04:57.034Z</time></trkpt><trkpt lat="48.86329613" lon="9.25715646"><ele>209.00000000000003</ele><time>2026-04-27T16:04:58.037Z</time></trkpt><trkpt lat="48.86335678" lon="9.25721887"><ele>209.0</ele><time>2026-04-27T16:04:59.04Z</time></trkpt><trkpt lat="48.86345765" lon="9.25732834"><ele>208.50000000000003</ele><time>2026-04-27T16:05:01.043Z</time></trkpt><trkpt lat="48.86351035" lon="9.25738387"><ele>208.0</ele><time>2026-04-27T16:05:02.046Z</time></trkpt><trkpt lat="48.86356502" lon="9.25744039"><ele>207.5</ele><time>2026-04-27T16:05:03.047Z</time></trkpt><trkpt lat="48.86362081" lon="9.25749602"><ele>207.0</ele><time>2026-04-27T16:05:04.033Z</time></trkpt><trkpt lat="48.86367749" lon="9.25755181"><ele>206.50000000000003</ele><time>2026-04-27T16:05:05.05Z</time></trkpt><trkpt lat="48.86373159" lon="9.25760728"><ele>206.0</ele><time>2026-04-27T16:05:06.035Z</time></trkpt><trkpt lat="48.86389071" lon="9.25777446"><ele>206.00000000000003</ele><time>2026-04-27T16:05:09.038Z</time></trkpt><trkpt lat="48.86394606" lon="9.25783076"><ele>206.0</ele><time>2026-04-27T16:05:10.037Z</time></trkpt><trkpt lat="48.864011" lon="9.25788289"><ele>206.0</ele><time>2026-04-27T16:05:11.036Z</time></trkpt><trkpt lat="48.86411027" lon="9.25799754"><ele>206.0</ele><time>2026-04-27T16:05:13.036Z</time></trkpt><trkpt lat="48.86416631" lon="9.25806356"><ele>206.00000000000003</ele><time>2026-04-27T16:05:14.037Z</time></trkpt><trkpt lat="48.86422567" lon="9.25812777"><ele>206.0</ele><time>2026-04-27T16:05:15.038Z</time></trkpt><trkpt lat="48.86432125" lon="9.25824576"><ele>206.28571428571428</ele><time>2026-04-27T16:05:17.034Z</time></trkpt><trkpt lat="48.86436422" lon="9.25831802"><ele>206.57142857142856</ele><time>2026-04-27T16:05:18.038Z</time></trkpt><trkpt lat="48.86442885" lon="9.25836703"><ele>206.85714285714283</ele><time>2026-04-27T16:05:19.04Z</time></trkpt><trkpt lat="48.86448576" lon="9.25842343"><ele>207.14285714285714</ele><time>2026-04-27T16:05:20.04Z</time></trkpt><trkpt lat="48.86453849" lon="9.25848638"><ele>207.42857142857144</ele><time>2026-04-27T16:05:21.041Z</time></trkpt><trkpt lat="48.86458591" lon="9.25855362"><ele>207.7142857142857</ele><time>2026-04-27T16:05:22.035Z</time></trkpt><trkpt lat="48.86463172" lon="9.258623"><ele>208.0</ele><time>2026-04-27T16:05:23.04Z</time></trkpt><trkpt lat="48.86472484" lon="9.2587479"><ele>208.0</ele><time>2026-04-27T16:05:25.036Z</time></trkpt><trkpt lat="48.86481637" lon="9.25886826"><ele>208.0</ele><time>2026-04-27T16:05:27.035Z</time></trkpt><trkpt lat="48.8649647" lon="9.25905559"><ele>208.0</ele><time>2026-04-27T16:05:30.051Z</time></trkpt><trkpt lat="48.86502256" lon="9.25911261"><ele>208.0</ele><time>2026-04-27T16:05:31.035Z</time></trkpt><trkpt lat="48.86506746" lon="9.2591849"><ele>208.0</ele><time>2026-04-27T16:05:32.037Z</time></trkpt><trkpt lat="48.86511097" lon="9.259255"><ele>207.99999999999997</ele><time>2026-04-27T16:05:33.04Z</time></trkpt><trkpt lat="48.86517095" lon="9.25932209"><ele>208.0</ele><time>2026-04-27T16:05:34.042Z</time></trkpt><trkpt lat="48.86522489" lon="9.259382"><ele>208.0</ele><time>2026-04-27T16:05:35.044Z</time></trkpt><trkpt lat="48.86531466" lon="9.2594944"><ele>208.0</ele><time>2026-04-27T16:05:37.046Z</time></trkpt><trkpt lat="48.86537279" lon="9.25955828"><ele>207.99999999999997</ele><time>2026-04-27T16:05:38.049Z</time></trkpt><trkpt lat="48.86545127" lon="9.25967849"><ele>208.0</ele><time>2026-04-27T16:05:40.038Z</time></trkpt><trkpt lat="48.86550511" lon="9.25974419"><ele>209.2</ele><time>2026-04-27T16:05:41.038Z</time></trkpt><trkpt lat="48.86561195" lon="9.25984877"><ele>210.4</ele><time>2026-04-27T16:05:43.045Z</time></trkpt><trkpt lat="48.86572093" lon="9.25995002"><ele>211.59999999999997</ele><time>2026-04-27T16:05:45.033Z</time></trkpt><trkpt lat="48.86577502" lon="9.26001121"><ele>212.79999999999998</ele><time>2026-04-27T16:05:46.034Z</time></trkpt><trkpt lat="48.86582708" lon="9.26006737"><ele>214.0</ele><time>2026-04-27T16:05:47.034Z</time></trkpt><trkpt lat="48.86593185" lon="9.26017712"><ele>211.75</ele><time>2026-04-27T16:05:49.036Z</time></trkpt><trkpt lat="48.86608711" lon="9.26031202"><ele>209.5</ele><time>2026-04-27T16:05:52.971Z</time></trkpt><trkpt lat="48.86616492" lon="9.26023625"><ele>207.25</ele><time>2026-04-27T16:05:55.044Z</time></trkpt><trkpt lat="48.8662429" lon="9.26013053"><ele>205.0</ele><time>2026-04-27T16:05:57.041Z</time></trkpt><trkpt lat="48.86628464" lon="9.25995739"><ele>205.0</ele><time>2026-04-27T16:05:59.044Z</time></trkpt><trkpt lat="48.86632412" lon="9.25988231"><ele>205.0</ele><time>2026-04-27T16:06:00.048Z</time></trkpt><trkpt lat="48.86639086" lon="9.25970792"><ele>205.0</ele><time>2026-04-27T16:06:02.036Z</time></trkpt><trkpt lat="48.86645954" lon="9.25956899"><ele>205.0</ele><time>2026-04-27T16:06:04.037Z</time></trkpt><trkpt lat="48.86651634" lon="9.25941484"><ele>205.0</ele><time>2026-04-27T16:06:06.036Z</time></trkpt><trkpt lat="48.86657963" lon="9.25926287"><ele>205.0</ele><time>2026-04-27T16:06:08.043Z</time></trkpt><trkpt lat="48.86664718" lon="9.25912787"><ele>205.0</ele><time>2026-04-27T16:06:10.038Z</time></trkpt><trkpt lat="48.86675884" lon="9.25887084"><ele>205.0</ele><time>2026-04-27T16:06:14.041Z</time></trkpt><trkpt lat="48.86681428" lon="9.25873994"><ele>205.0</ele><time>2026-04-27T16:06:16.044Z</time></trkpt><trkpt lat="48.86686332" lon="9.25862571"><ele>205.83333333333331</ele><time>2026-04-27T16:06:18.047Z</time></trkpt><trkpt lat="48.86691736" lon="9.25853048"><ele>206.66666666666666</ele><time>2026-04-27T16:06:20.035Z</time></trkpt><trkpt lat="48.86698286" lon="9.25854134"><ele>207.5</ele><time>2026-04-27T16:06:22.987Z</time></trkpt><trkpt lat="48.86705558" lon="9.2586403"><ele>208.33333333333331</ele><time>2026-04-27T16:06:25.045Z</time></trkpt><trkpt lat="48.86709949" lon="9.25871648"><ele>209.16666666666666</ele><time>2026-04-27T16:06:27.047Z</time></trkpt><trkpt lat="48.86716316" lon="9.25880588"><ele>210.0</ele><time>2026-04-27T16:06:29.05Z</time></trkpt><trkpt lat="48.86720533" lon="9.25888541"><ele>210.0</ele><time>2026-04-27T16:06:31.04Z</time></trkpt><trkpt lat="48.86733783" lon="9.2590026"><ele>210.0</ele><time>2026-04-27T16:06:37.04Z</time></trkpt><trkpt lat="48.86743681" lon="9.25906333"><ele>210.0</ele><time>2026-04-27T16:06:39.036Z</time></trkpt><trkpt lat="48.86751603" lon="9.25915261"><ele>210.0</ele><time>2026-04-27T16:06:41.036Z</time></trkpt><trkpt lat="48.86757862" lon="9.25923366"><ele>210.0</ele><time>2026-04-27T16:06:43.038Z</time></trkpt><trkpt lat="48.86764169" lon="9.2593146"><ele>210.0</ele><time>2026-04-27T16:06:45.04Z</time></trkpt><trkpt lat="48.86769304" lon="9.25938083"><ele>210.0</ele><time>2026-04-27T16:06:46.037Z</time></trkpt><trkpt lat="48.86776671" lon="9.259485"><ele>210.0</ele><time>2026-04-27T16:06:48.036Z</time></trkpt><trkpt lat="48.86784154" lon="9.25958693"><ele>210.0</ele><time>2026-04-27T16:06:50.038Z</time></trkpt><trkpt lat="48.86789405" lon="9.25964878"><ele>210.0</ele><time>2026-04-27T16:06:51.038Z</time></trkpt><trkpt lat="48.86796462" lon="9.25973362"><ele>210.0</ele><time>2026-04-27T16:06:53.047Z</time></trkpt><trkpt lat="48.86809685" lon="9.25990256"><ele>209.83333333333334</ele><time>2026-04-27T16:06:56.045Z</time></trkpt><trkpt lat="48.86818869" lon="9.26002085"><ele>209.66666666666669</ele><time>2026-04-27T16:06:58.049Z</time></trkpt><trkpt lat="48.86823626" lon="9.26008553"><ele>209.5</ele><time>2026-04-27T16:06:59.049Z</time></trkpt><trkpt lat="48.86829333" lon="9.26014537"><ele>209.33333333333334</ele><time>2026-04-27T16:07:00.039Z</time></trkpt><trkpt lat="48.86833853" lon="9.26021505"><ele>209.16666666666669</ele><time>2026-04-27T16:07:01.035Z</time></trkpt><trkpt lat="48.86842629" lon="9.2603247"><ele>209.0</ele><time>2026-04-27T16:07:03.04Z</time></trkpt><trkpt lat="48.86851406" lon="9.26044657"><ele>209.25</ele><time>2026-04-27T16:07:05.044Z</time></trkpt><trkpt lat="48.86858542" lon="9.26057588"><ele>209.5</ele><time>2026-04-27T16:07:07.049Z</time></trkpt><trkpt lat="48.86866663" lon="9.2607237"><ele>209.75</ele><time>2026-04-27T16:07:09.037Z</time></trkpt><trkpt lat="48.86873629" lon="9.26086974"><ele>210.0</ele><time>2026-04-27T16:07:11.038Z</time></trkpt><trkpt lat="48.86880858" lon="9.26102276"><ele>210.0</ele><time>2026-04-27T16:07:13.039Z</time></trkpt><trkpt lat="48.86887078" lon="9.26119311"><ele>210.0</ele><time>2026-04-27T16:07:15.034Z</time></trkpt><trkpt lat="48.86894923" lon="9.2614428"><ele>210.0</ele><time>2026-04-27T16:07:18.034Z</time></trkpt><trkpt lat="48.86898811" lon="9.26154122"><ele>210.0</ele><time>2026-04-27T16:07:19.036Z</time></trkpt><trkpt lat="48.86902135" lon="9.26164314"><ele>209.85714285714286</ele><time>2026-04-27T16:07:20.037Z</time></trkpt><trkpt lat="48.86905247" lon="9.2617346"><ele>209.71428571428572</ele><time>2026-04-27T16:07:21.039Z</time></trkpt><trkpt lat="48.8690804" lon="9.26182541"><ele>209.57142857142856</ele><time>2026-04-27T16:07:22.045Z</time></trkpt><trkpt lat="48.86911069" lon="9.26191281"><ele>209.42857142857144</ele><time>2026-04-27T16:07:23.042Z</time></trkpt><trkpt lat="48.86914839" lon="9.26199715"><ele>209.28571428571428</ele><time>2026-04-27T16:07:24.035Z</time></trkpt><trkpt lat="48.86918579" lon="9.26208395"><ele>209.14285714285714</ele><time>2026-04-27T16:07:25.039Z</time></trkpt><trkpt lat="48.86921464" lon="9.26217443"><ele>209.0</ele><time>2026-04-27T16:07:26.036Z</time></trkpt><trkpt lat="48.86924241" lon="9.26226506"><ele>209.2</ele><time>2026-04-27T16:07:27.036Z</time></trkpt><trkpt lat="48.86929535" lon="9.2624264"><ele>209.39999999999998</ele><time>2026-04-27T16:07:29.038Z</time></trkpt><trkpt lat="48.86935068" lon="9.26259516"><ele>209.6</ele><time>2026-04-27T16:07:31.037Z</time></trkpt><trkpt lat="48.86938105" lon="9.26268065"><ele>209.8</ele><time>2026-04-27T16:07:32.033Z</time></trkpt><trkpt lat="48.86943427" lon="9.26285469"><ele>210.0</ele><time>2026-04-27T16:07:34.037Z</time></trkpt><trkpt lat="48.86949058" lon="9.26301689"><ele>209.6</ele><time>2026-04-27T16:07:36.042Z</time></trkpt><trkpt lat="48.86954705" lon="9.26319917"><ele>209.2</ele><time>2026-04-27T16:07:38.048Z</time></trkpt><trkpt lat="48.86960148" lon="9.26337354"><ele>208.8</ele><time>2026-04-27T16:07:40.048Z</time></trkpt><trkpt lat="48.86964185" lon="9.26345663"><ele>208.4</ele><time>2026-04-27T16:07:41.035Z</time></trkpt><trkpt lat="48.8696815" lon="9.2635383"><ele>208.0</ele><time>2026-04-27T16:07:42.037Z</time></trkpt><trkpt lat="48.86972462" lon="9.26362052"><ele>208.0</ele><time>2026-04-27T16:07:43.041Z</time></trkpt><trkpt lat="48.86976389" lon="9.2637036"><ele>208.0</ele><time>2026-04-27T16:07:44.039Z</time></trkpt><trkpt lat="48.86979381" lon="9.2637956"><ele>208.0</ele><time>2026-04-27T16:07:45.041Z</time></trkpt><trkpt lat="48.86986249" lon="9.26394865"><ele>208.0</ele><time>2026-04-27T16:07:47.045Z</time></trkpt><trkpt lat="48.86993682" lon="9.2641173"><ele>208.0</ele><time>2026-04-27T16:07:49.029Z</time></trkpt><trkpt lat="48.87002602" lon="9.26424595"><ele>207.83333333333331</ele><time>2026-04-27T16:07:51.029Z</time></trkpt><trkpt lat="48.87007136" lon="9.26432261"><ele>207.66666666666666</ele><time>2026-04-27T16:07:52.028Z</time></trkpt><trkpt lat="48.87014643" lon="9.26447497"><ele>207.5</ele><time>2026-04-27T16:07:54.037Z</time></trkpt><trkpt lat="48.87019426" lon="9.26456437"><ele>207.33333333333331</ele><time>2026-04-27T16:07:55.034Z</time></trkpt><trkpt lat="48.87023337" lon="9.26463972"><ele>207.16666666666666</ele><time>2026-04-27T16:07:56.038Z</time></trkpt><trkpt lat="48.87028782" lon="9.26471685"><ele>207.0</ele><time>2026-04-27T16:07:57.037Z</time></trkpt><trkpt lat="48.87044019" lon="9.26489898"><ele>206.83333333333334</ele><time>2026-04-27T16:08:00.043Z</time></trkpt><trkpt lat="48.87050095" lon="9.26497314"><ele>206.66666666666669</ele><time>2026-04-27T16:08:01.038Z</time></trkpt><trkpt lat="48.87056055" lon="9.26506022"><ele>206.5</ele><time>2026-04-27T16:08:02.035Z</time></trkpt><trkpt lat="48.87062466" lon="9.26513702"><ele>206.33333333333334</ele><time>2026-04-27T16:08:03.037Z</time></trkpt><trkpt lat="48.87069559" lon="9.26521351"><ele>206.16666666666669</ele><time>2026-04-27T16:08:04.027Z</time></trkpt><trkpt lat="48.87074961" lon="9.26527103"><ele>206.0</ele><time>2026-04-27T16:08:05.042Z</time></trkpt><trkpt lat="48.87082099" lon="9.26534248"><ele>206.0</ele><time>2026-04-27T16:08:06.035Z</time></trkpt><trkpt lat="48.87091773" lon="9.26544246"><ele>206.0</ele><time>2026-04-27T16:08:08.033Z</time></trkpt><trkpt lat="48.87099638" lon="9.26552867"><ele>206.0</ele><time>2026-04-27T16:08:10.045Z</time></trkpt><trkpt lat="48.87105561" lon="9.26558484"><ele>206.0</ele><time>2026-04-27T16:08:11.037Z</time></trkpt><trkpt lat="48.87113957" lon="9.26564868"><ele>206.0</ele><time>2026-04-27T16:08:12.034Z</time></trkpt><trkpt lat="48.87126515" lon="9.26573578"><ele>206.4</ele><time>2026-04-27T16:08:14.039Z</time></trkpt><trkpt lat="48.87133036" lon="9.26580021"><ele>206.8</ele><time>2026-04-27T16:08:15.037Z</time></trkpt><trkpt lat="48.87139051" lon="9.26585411"><ele>207.20000000000002</ele><time>2026-04-27T16:08:16.037Z</time></trkpt><trkpt lat="48.87146099" lon="9.26592201"><ele>207.60000000000002</ele><time>2026-04-27T16:08:17.041Z</time></trkpt><trkpt lat="48.87152085" lon="9.26598746"><ele>208.0</ele><time>2026-04-27T16:08:18.036Z</time></trkpt><trkpt lat="48.87164067" lon="9.26612512"><ele>208.0</ele><time>2026-04-27T16:08:20.046Z</time></trkpt><trkpt lat="48.87171016" lon="9.26619917"><ele>208.0</ele><time>2026-04-27T16:08:21.042Z</time></trkpt><trkpt lat="48.87177309" lon="9.26626692"><ele>208.0</ele><time>2026-04-27T16:08:22.045Z</time></trkpt><trkpt lat="48.87183757" lon="9.26634388"><ele>208.0</ele><time>2026-04-27T16:08:22.995Z</time></trkpt><trkpt lat="48.87193478" lon="9.26649133"><ele>208.0</ele><time>2026-04-27T16:08:25.05Z</time></trkpt><trkpt lat="48.87199349" lon="9.26656603"><ele>209.49999999999997</ele><time>2026-04-27T16:08:26.037Z</time></trkpt><trkpt lat="48.87208222" lon="9.26671158"><ele>211.0</ele><time>2026-04-27T16:08:28.041Z</time></trkpt><trkpt lat="48.87213621" lon="9.26678519"><ele>212.5</ele><time>2026-04-27T16:08:29.038Z</time></trkpt><trkpt lat="48.87218552" lon="9.26686565"><ele>214.0</ele><time>2026-04-27T16:08:30.04Z</time></trkpt><trkpt lat="48.87223635" lon="9.26694284"><ele>215.49999999999997</ele><time>2026-04-27T16:08:31.043Z</time></trkpt><trkpt lat="48.87228306" lon="9.26702217"><ele>217.0</ele><time>2026-04-27T16:08:32.046Z</time></trkpt><trkpt lat="48.87233466" lon="9.26709373"><ele>216.99999999999997</ele><time>2026-04-27T16:08:33.048Z</time></trkpt><trkpt lat="48.87236103" lon="9.26718329"><ele>217.0</ele><time>2026-04-27T16:08:34.048Z</time></trkpt><trkpt lat="48.8724306" lon="9.26735962"><ele>217.0</ele><time>2026-04-27T16:08:36.055Z</time></trkpt><trkpt lat="48.87246965" lon="9.267448"><ele>217.0</ele><time>2026-04-27T16:08:37.028Z</time></trkpt><trkpt lat="48.87251002" lon="9.26753193"><ele>216.99999999999997</ele><time>2026-04-27T16:08:38.027Z</time></trkpt><trkpt lat="48.87255078" lon="9.26761776"><ele>217.0</ele><time>2026-04-27T16:08:39.037Z</time></trkpt><trkpt lat="48.87262325" lon="9.26780464"><ele>217.14285714285714</ele><time>2026-04-27T16:08:40.975Z</time></trkpt><trkpt lat="48.87267132" lon="9.26789916"><ele>217.28571428571428</ele><time>2026-04-27T16:08:42.037Z</time></trkpt><trkpt lat="48.87271128" lon="9.26798415"><ele>217.42857142857144</ele><time>2026-04-27T16:08:43.044Z</time></trkpt><trkpt lat="48.87274476" lon="9.26808269"><ele>217.57142857142856</ele><time>2026-04-27T16:08:44.039Z</time></trkpt><trkpt lat="48.8727808" lon="9.26817133"><ele>217.71428571428572</ele><time>2026-04-27T16:08:45.038Z</time></trkpt><trkpt lat="48.87282041" lon="9.26826561"><ele>217.85714285714286</ele><time>2026-04-27T16:08:46.042Z</time></trkpt><trkpt lat="48.87285385" lon="9.2683522"><ele>218.0</ele><time>2026-04-27T16:08:47.043Z</time></trkpt><trkpt lat="48.87288059" lon="9.26844384"><ele>216.8</ele><time>2026-04-27T16:08:48.042Z</time></trkpt><trkpt lat="48.87294067" lon="9.26862436"><ele>215.60000000000002</ele><time>2026-04-27T16:08:50.048Z</time></trkpt><trkpt lat="48.87297949" lon="9.26872103"><ele>214.39999999999998</ele><time>2026-04-27T16:08:51.048Z</time></trkpt><trkpt lat="48.87301324" lon="9.26880738"><ele>213.2</ele><time>2026-04-27T16:08:52.051Z</time></trkpt><trkpt lat="48.87304294" lon="9.26889602"><ele>212.0</ele><time>2026-04-27T16:08:53.033Z</time></trkpt><trkpt lat="48.87309414" lon="9.26907131"><ele>211.6</ele><time>2026-04-27T16:08:55.038Z</time></trkpt><trkpt lat="48.87312707" lon="9.2691552"><ele>211.2</ele><time>2026-04-27T16:08:56.039Z</time></trkpt><trkpt lat="48.87316408" lon="9.26923735"><ele>210.8</ele><time>2026-04-27T16:08:57.04Z</time></trkpt><trkpt lat="48.87318947" lon="9.26932944"><ele>210.4</ele><time>2026-04-27T16:08:58.042Z</time></trkpt><trkpt lat="48.87324259" lon="9.26950758"><ele>210.0</ele><time>2026-04-27T16:09:00.047Z</time></trkpt><trkpt lat="48.87329783" lon="9.26969559"><ele>209.6</ele><time>2026-04-27T16:09:02.05Z</time></trkpt><trkpt lat="48.8733272" lon="9.2698785"><ele>209.2</ele><time>2026-04-27T16:09:04.036Z</time></trkpt><trkpt lat="48.8733633" lon="9.27005556"><ele>208.8</ele><time>2026-04-27T16:09:06.036Z</time></trkpt><trkpt lat="48.87339186" lon="9.27023296"><ele>208.4</ele><time>2026-04-27T16:09:08.038Z</time></trkpt><trkpt lat="48.87339035" lon="9.2703313"><ele>208.0</ele><time>2026-04-27T16:09:09.042Z</time></trkpt><trkpt lat="48.8734207" lon="9.27043124"><ele>208.4</ele><time>2026-04-27T16:09:10.038Z</time></trkpt><trkpt lat="48.8734671" lon="9.27060203"><ele>208.8</ele><time>2026-04-27T16:09:12.042Z</time></trkpt><trkpt lat="48.87349309" lon="9.27071611"><ele>209.2</ele><time>2026-04-27T16:09:13.034Z</time></trkpt><trkpt lat="48.87350853" lon="9.27081167"><ele>209.6</ele><time>2026-04-27T16:09:14.037Z</time></trkpt><trkpt lat="48.87352988" lon="9.27098443"><ele>210.0</ele><time>2026-04-27T16:09:16.039Z</time></trkpt><trkpt lat="48.8735742" lon="9.27113229"><ele>210.0</ele><time>2026-04-27T16:09:18.038Z</time></trkpt><trkpt lat="48.87359854" lon="9.27126242"><ele>210.0</ele><time>2026-04-27T16:09:20.04Z</time></trkpt><trkpt lat="48.87360909" lon="9.27137389"><ele>210.0</ele><time>2026-04-27T16:09:22.035Z</time></trkpt></trkseg></trk></gpx>